<?xml version="1.0" encoding="UTF-8" standalone="no" ?>
<gpx xmlns="http://www.topografix.com/GPX/1/1" xmlns:xsi="http://www.w3.org/2001/XMLSchema-instance" xsi:schemaLocation="http://www.topografix.com/GPX/1/1 http://www.topografix.com/GPX/1/1/gpx.xsd" version="1.1" creator="VisuGPX - https://www.visugpx.com">
  <metadata>
    <name>Le Trélod</name>
    <desc><![CDATA[Massif des beauges

AV]]></desc>
  </metadata>
  <trk>
    <name><![CDATA[Track 001]]></name>
    <trkseg>
      <trkpt lat="45.70575" lon="6.1724">
        <ele>1146</ele>
        <time>2012-10-06T08:22:06Z</time>
      </trkpt>
      <trkpt lat="45.7058" lon="6.17249">
        <ele>1147.5</ele>
        <time>2012-10-06T08:22:13Z</time>
      </trkpt>
      <trkpt lat="45.7058" lon="6.17254">
        <ele>1152.8</ele>
        <time>2012-10-06T08:22:16Z</time>
      </trkpt>
      <trkpt lat="45.70582" lon="6.17257">
        <ele>1157.6</ele>
        <time>2012-10-06T08:22:18Z</time>
      </trkpt>
      <trkpt lat="45.70583" lon="6.17257">
        <ele>1160</ele>
        <time>2012-10-06T08:22:19Z</time>
      </trkpt>
      <trkpt lat="45.70588" lon="6.17261">
        <ele>1166.7</ele>
        <time>2012-10-06T08:22:22Z</time>
      </trkpt>
      <trkpt lat="45.7059" lon="6.17262">
        <ele>1169.6</ele>
        <time>2012-10-06T08:22:24Z</time>
      </trkpt>
      <trkpt lat="45.70592" lon="6.17264">
        <ele>1173.4</ele>
        <time>2012-10-06T08:22:26Z</time>
      </trkpt>
      <trkpt lat="45.70594" lon="6.17266">
        <ele>1177.3</ele>
        <time>2012-10-06T08:22:28Z</time>
      </trkpt>
      <trkpt lat="45.70596" lon="6.17267">
        <ele>1180.2</ele>
        <time>2012-10-06T08:22:30Z</time>
      </trkpt>
      <trkpt lat="45.706" lon="6.1727">
        <ele>1185</ele>
        <time>2012-10-06T08:22:33Z</time>
      </trkpt>
      <trkpt lat="45.70601" lon="6.17271">
        <ele>1188.3</ele>
        <time>2012-10-06T08:22:35Z</time>
      </trkpt>
      <trkpt lat="45.70603" lon="6.17272">
        <ele>1191.2</ele>
        <time>2012-10-06T08:22:37Z</time>
      </trkpt>
      <trkpt lat="45.70605" lon="6.17274">
        <ele>1194.6</ele>
        <time>2012-10-06T08:22:39Z</time>
      </trkpt>
      <trkpt lat="45.70608" lon="6.17275">
        <ele>1198.9</ele>
        <time>2012-10-06T08:22:42Z</time>
      </trkpt>
      <trkpt lat="45.70609" lon="6.17276">
        <ele>1201.8</ele>
        <time>2012-10-06T08:22:44Z</time>
      </trkpt>
      <trkpt lat="45.70612" lon="6.17277">
        <ele>1206.1</ele>
        <time>2012-10-06T08:22:48Z</time>
      </trkpt>
      <trkpt lat="45.70614" lon="6.17273">
        <ele>1209.5</ele>
        <time>2012-10-06T08:22:51Z</time>
      </trkpt>
      <trkpt lat="45.70615" lon="6.17272">
        <ele>1210.9</ele>
        <time>2012-10-06T08:22:53Z</time>
      </trkpt>
      <trkpt lat="45.70617" lon="6.17274">
        <ele>1214.8</ele>
        <time>2012-10-06T08:22:58Z</time>
      </trkpt>
      <trkpt lat="45.70618" lon="6.17275">
        <ele>1214.8</ele>
        <time>2012-10-06T08:22:59Z</time>
      </trkpt>
      <trkpt lat="45.7062" lon="6.17278">
        <ele>1217.2</ele>
        <time>2012-10-06T08:23:03Z</time>
      </trkpt>
      <trkpt lat="45.70622" lon="6.17286">
        <ele>1219.6</ele>
        <time>2012-10-06T08:23:11Z</time>
      </trkpt>
      <trkpt lat="45.70625" lon="6.1729">
        <ele>1222</ele>
        <time>2012-10-06T08:23:17Z</time>
      </trkpt>
      <trkpt lat="45.70629" lon="6.17298">
        <ele>1222.5</ele>
        <time>2012-10-06T08:23:25Z</time>
      </trkpt>
      <trkpt lat="45.70639" lon="6.17309">
        <ele>1224.4</ele>
        <time>2012-10-06T08:23:38Z</time>
      </trkpt>
      <trkpt lat="45.70648" lon="6.17318">
        <ele>1226.8</ele>
        <time>2012-10-06T08:23:49Z</time>
      </trkpt>
      <trkpt lat="45.70648" lon="6.1733">
        <ele>1227.3</ele>
        <time>2012-10-06T08:24:03Z</time>
      </trkpt>
      <trkpt lat="45.70647" lon="6.17332">
        <ele>1228.2</ele>
        <time>2012-10-06T08:24:05Z</time>
      </trkpt>
      <trkpt lat="45.70644" lon="6.17346">
        <ele>1231.1</ele>
        <time>2012-10-06T08:24:20Z</time>
      </trkpt>
      <trkpt lat="45.70643" lon="6.17355">
        <ele>1234.5</ele>
        <time>2012-10-06T08:24:32Z</time>
      </trkpt>
      <trkpt lat="45.70643" lon="6.17356">
        <ele>1235</ele>
        <time>2012-10-06T08:24:34Z</time>
      </trkpt>
      <trkpt lat="45.70642" lon="6.17372">
        <ele>1235.9</ele>
        <time>2012-10-06T08:24:50Z</time>
      </trkpt>
      <trkpt lat="45.70642" lon="6.17381">
        <ele>1239.3</ele>
        <time>2012-10-06T08:25:01Z</time>
      </trkpt>
      <trkpt lat="45.70642" lon="6.17388">
        <ele>1240.7</ele>
        <time>2012-10-06T08:25:12Z</time>
      </trkpt>
      <trkpt lat="45.70648" lon="6.17393">
        <ele>1241.2</ele>
        <time>2012-10-06T08:25:22Z</time>
      </trkpt>
      <trkpt lat="45.70648" lon="6.17398">
        <ele>1243.1</ele>
        <time>2012-10-06T08:25:31Z</time>
      </trkpt>
      <trkpt lat="45.70648" lon="6.17404">
        <ele>1246</ele>
        <time>2012-10-06T08:25:42Z</time>
      </trkpt>
      <trkpt lat="45.7065" lon="6.17408">
        <ele>1247.4</ele>
        <time>2012-10-06T08:25:57Z</time>
      </trkpt>
      <trkpt lat="45.7065" lon="6.17409">
        <ele>1247.4</ele>
        <time>2012-10-06T08:25:58Z</time>
      </trkpt>
      <trkpt lat="45.70649" lon="6.17416">
        <ele>1249.9</ele>
        <time>2012-10-06T08:26:09Z</time>
      </trkpt>
      <trkpt lat="45.7065" lon="6.17421">
        <ele>1251.8</ele>
        <time>2012-10-06T08:26:18Z</time>
      </trkpt>
      <trkpt lat="45.70653" lon="6.17431">
        <ele>1252.7</ele>
        <time>2012-10-06T08:26:27Z</time>
      </trkpt>
      <trkpt lat="45.70656" lon="6.17435">
        <ele>1254.7</ele>
        <time>2012-10-06T08:26:34Z</time>
      </trkpt>
      <trkpt lat="45.70658" lon="6.17442">
        <ele>1256.1</ele>
        <time>2012-10-06T08:26:44Z</time>
      </trkpt>
      <trkpt lat="45.70657" lon="6.17453">
        <ele>1257.1</ele>
        <time>2012-10-06T08:26:54Z</time>
      </trkpt>
      <trkpt lat="45.70655" lon="6.17465">
        <ele>1259.5</ele>
        <time>2012-10-06T08:27:04Z</time>
      </trkpt>
      <trkpt lat="45.70654" lon="6.17481">
        <ele>1262.3</ele>
        <time>2012-10-06T08:27:17Z</time>
      </trkpt>
      <trkpt lat="45.70651" lon="6.17486">
        <ele>1264.3</ele>
        <time>2012-10-06T08:27:23Z</time>
      </trkpt>
      <trkpt lat="45.70651" lon="6.17492">
        <ele>1265.7</ele>
        <time>2012-10-06T08:27:30Z</time>
      </trkpt>
      <trkpt lat="45.7065" lon="6.17499">
        <ele>1267.6</ele>
        <time>2012-10-06T08:27:40Z</time>
      </trkpt>
      <trkpt lat="45.70649" lon="6.17506">
        <ele>1268.6</ele>
        <time>2012-10-06T08:27:47Z</time>
      </trkpt>
      <trkpt lat="45.70647" lon="6.17519">
        <ele>1271</ele>
        <time>2012-10-06T08:27:57Z</time>
      </trkpt>
      <trkpt lat="45.70648" lon="6.17536">
        <ele>1272.9</ele>
        <time>2012-10-06T08:28:12Z</time>
      </trkpt>
      <trkpt lat="45.70648" lon="6.17546">
        <ele>1275.8</ele>
        <time>2012-10-06T08:28:21Z</time>
      </trkpt>
      <trkpt lat="45.70649" lon="6.17558">
        <ele>1276.8</ele>
        <time>2012-10-06T08:28:32Z</time>
      </trkpt>
      <trkpt lat="45.70652" lon="6.17574">
        <ele>1279.2</ele>
        <time>2012-10-06T08:28:45Z</time>
      </trkpt>
      <trkpt lat="45.70656" lon="6.1759">
        <ele>1281.6</ele>
        <time>2012-10-06T08:29:00Z</time>
      </trkpt>
      <trkpt lat="45.7066" lon="6.17608">
        <ele>1284.5</ele>
        <time>2012-10-06T08:29:17Z</time>
      </trkpt>
      <trkpt lat="45.70664" lon="6.17625">
        <ele>1286.9</ele>
        <time>2012-10-06T08:29:32Z</time>
      </trkpt>
      <trkpt lat="45.70669" lon="6.1764">
        <ele>1288.8</ele>
        <time>2012-10-06T08:29:46Z</time>
      </trkpt>
      <trkpt lat="45.70674" lon="6.1765">
        <ele>1289.7</ele>
        <time>2012-10-06T08:29:56Z</time>
      </trkpt>
      <trkpt lat="45.70682" lon="6.17666">
        <ele>1292.1</ele>
        <time>2012-10-06T08:30:10Z</time>
      </trkpt>
      <trkpt lat="45.70686" lon="6.17683">
        <ele>1295.5</ele>
        <time>2012-10-06T08:30:24Z</time>
      </trkpt>
      <trkpt lat="45.70686" lon="6.17684">
        <ele>1295.5</ele>
        <time>2012-10-06T08:30:25Z</time>
      </trkpt>
      <trkpt lat="45.70688" lon="6.17694">
        <ele>1297</ele>
        <time>2012-10-06T08:30:32Z</time>
      </trkpt>
      <trkpt lat="45.70688" lon="6.17708">
        <ele>1298.4</ele>
        <time>2012-10-06T08:30:42Z</time>
      </trkpt>
      <trkpt lat="45.70695" lon="6.17726">
        <ele>1300.8</ele>
        <time>2012-10-06T08:30:57Z</time>
      </trkpt>
      <trkpt lat="45.70697" lon="6.1773">
        <ele>1301.3</ele>
        <time>2012-10-06T08:31:01Z</time>
      </trkpt>
      <trkpt lat="45.707" lon="6.17733">
        <ele>1302.2</ele>
        <time>2012-10-06T08:31:05Z</time>
      </trkpt>
      <trkpt lat="45.70702" lon="6.17752">
        <ele>1303.2</ele>
        <time>2012-10-06T08:31:19Z</time>
      </trkpt>
      <trkpt lat="45.70707" lon="6.17765">
        <ele>1305.6</ele>
        <time>2012-10-06T08:31:30Z</time>
      </trkpt>
      <trkpt lat="45.70713" lon="6.17781">
        <ele>1307.5</ele>
        <time>2012-10-06T08:31:44Z</time>
      </trkpt>
      <trkpt lat="45.70718" lon="6.17793">
        <ele>1310.9</ele>
        <time>2012-10-06T08:31:56Z</time>
      </trkpt>
      <trkpt lat="45.70721" lon="6.17805">
        <ele>1313.8</ele>
        <time>2012-10-06T08:32:06Z</time>
      </trkpt>
      <trkpt lat="45.70727" lon="6.17816">
        <ele>1314.7</ele>
        <time>2012-10-06T08:32:17Z</time>
      </trkpt>
      <trkpt lat="45.70731" lon="6.17828">
        <ele>1317.1</ele>
        <time>2012-10-06T08:32:30Z</time>
      </trkpt>
      <trkpt lat="45.70737" lon="6.17844">
        <ele>1320</ele>
        <time>2012-10-06T08:32:44Z</time>
      </trkpt>
      <trkpt lat="45.70743" lon="6.1786">
        <ele>1321.9</ele>
        <time>2012-10-06T08:33:01Z</time>
      </trkpt>
      <trkpt lat="45.7075" lon="6.17874">
        <ele>1325.3</ele>
        <time>2012-10-06T08:33:16Z</time>
      </trkpt>
      <trkpt lat="45.70751" lon="6.17888">
        <ele>1328.2</ele>
        <time>2012-10-06T08:33:29Z</time>
      </trkpt>
      <trkpt lat="45.70751" lon="6.1789">
        <ele>1329.2</ele>
        <time>2012-10-06T08:33:31Z</time>
      </trkpt>
      <trkpt lat="45.7076" lon="6.17902">
        <ele>1332</ele>
        <time>2012-10-06T08:33:48Z</time>
      </trkpt>
      <trkpt lat="45.70767" lon="6.1791">
        <ele>1334</ele>
        <time>2012-10-06T08:33:58Z</time>
      </trkpt>
      <trkpt lat="45.70772" lon="6.17917">
        <ele>1336.4</ele>
        <time>2012-10-06T08:34:09Z</time>
      </trkpt>
      <trkpt lat="45.70778" lon="6.17926">
        <ele>1338.3</ele>
        <time>2012-10-06T08:34:23Z</time>
      </trkpt>
      <trkpt lat="45.7078" lon="6.17936">
        <ele>1339.7</ele>
        <time>2012-10-06T08:34:35Z</time>
      </trkpt>
      <trkpt lat="45.70784" lon="6.17937">
        <ele>1341.7</ele>
        <time>2012-10-06T08:34:41Z</time>
      </trkpt>
      <trkpt lat="45.70783" lon="6.17946">
        <ele>1342.6</ele>
        <time>2012-10-06T08:34:50Z</time>
      </trkpt>
      <trkpt lat="45.70785" lon="6.17955">
        <ele>1344.5</ele>
        <time>2012-10-06T08:35:00Z</time>
      </trkpt>
      <trkpt lat="45.70787" lon="6.17961">
        <ele>1347.4</ele>
        <time>2012-10-06T08:35:08Z</time>
      </trkpt>
      <trkpt lat="45.70792" lon="6.17963">
        <ele>1348.4</ele>
        <time>2012-10-06T08:35:17Z</time>
      </trkpt>
      <trkpt lat="45.70797" lon="6.17971">
        <ele>1349.8</ele>
        <time>2012-10-06T08:35:28Z</time>
      </trkpt>
      <trkpt lat="45.70799" lon="6.17978">
        <ele>1352.2</ele>
        <time>2012-10-06T08:35:38Z</time>
      </trkpt>
      <trkpt lat="45.70805" lon="6.17982">
        <ele>1355.1</ele>
        <time>2012-10-06T08:35:48Z</time>
      </trkpt>
      <trkpt lat="45.70806" lon="6.1799">
        <ele>1357.5</ele>
        <time>2012-10-06T08:35:59Z</time>
      </trkpt>
      <trkpt lat="45.70807" lon="6.17998">
        <ele>1360.4</ele>
        <time>2012-10-06T08:36:10Z</time>
      </trkpt>
      <trkpt lat="45.70809" lon="6.18007">
        <ele>1363.8</ele>
        <time>2012-10-06T08:36:25Z</time>
      </trkpt>
      <trkpt lat="45.70813" lon="6.18019">
        <ele>1366.7</ele>
        <time>2012-10-06T08:36:41Z</time>
      </trkpt>
      <trkpt lat="45.70812" lon="6.18023">
        <ele>1368.6</ele>
        <time>2012-10-06T08:36:52Z</time>
      </trkpt>
      <trkpt lat="45.70807" lon="6.18033">
        <ele>1369.5</ele>
        <time>2012-10-06T08:37:03Z</time>
      </trkpt>
      <trkpt lat="45.708" lon="6.18044">
        <ele>1369.1</ele>
        <time>2012-10-06T08:37:13Z</time>
      </trkpt>
      <trkpt lat="45.70796" lon="6.18054">
        <ele>1369.5</ele>
        <time>2012-10-06T08:37:28Z</time>
      </trkpt>
      <trkpt lat="45.70792" lon="6.18058">
        <ele>1371.9</ele>
        <time>2012-10-06T08:37:36Z</time>
      </trkpt>
      <trkpt lat="45.70791" lon="6.18076">
        <ele>1374.3</ele>
        <time>2012-10-06T08:37:49Z</time>
      </trkpt>
      <trkpt lat="45.70784" lon="6.18076">
        <ele>1375.8</ele>
        <time>2012-10-06T08:38:02Z</time>
      </trkpt>
      <trkpt lat="45.7078" lon="6.1808">
        <ele>1375.8</ele>
        <time>2012-10-06T08:38:10Z</time>
      </trkpt>
      <trkpt lat="45.70774" lon="6.18086">
        <ele>1376.3</ele>
        <time>2012-10-06T08:38:17Z</time>
      </trkpt>
      <trkpt lat="45.7077" lon="6.18096">
        <ele>1377.2</ele>
        <time>2012-10-06T08:38:27Z</time>
      </trkpt>
      <trkpt lat="45.70765" lon="6.18107">
        <ele>1379.6</ele>
        <time>2012-10-06T08:38:37Z</time>
      </trkpt>
      <trkpt lat="45.70771" lon="6.18121">
        <ele>1382.5</ele>
        <time>2012-10-06T08:38:52Z</time>
      </trkpt>
      <trkpt lat="45.70778" lon="6.18127">
        <ele>1384.4</ele>
        <time>2012-10-06T08:39:07Z</time>
      </trkpt>
      <trkpt lat="45.70776" lon="6.18136">
        <ele>1385.4</ele>
        <time>2012-10-06T08:39:38Z</time>
      </trkpt>
      <trkpt lat="45.7078" lon="6.18145">
        <ele>1385.9</ele>
        <time>2012-10-06T08:40:09Z</time>
      </trkpt>
      <trkpt lat="45.7079" lon="6.18145">
        <ele>1387.8</ele>
        <time>2012-10-06T08:40:20Z</time>
      </trkpt>
      <trkpt lat="45.70797" lon="6.18133">
        <ele>1388.8</ele>
        <time>2012-10-06T08:40:30Z</time>
      </trkpt>
      <trkpt lat="45.70798" lon="6.18135">
        <ele>1392.1</ele>
        <time>2012-10-06T08:40:41Z</time>
      </trkpt>
      <trkpt lat="45.70805" lon="6.18137">
        <ele>1393.6</ele>
        <time>2012-10-06T08:40:51Z</time>
      </trkpt>
      <trkpt lat="45.70802" lon="6.18144">
        <ele>1396</ele>
        <time>2012-10-06T08:41:05Z</time>
      </trkpt>
      <trkpt lat="45.70796" lon="6.1814">
        <ele>1397.4</ele>
        <time>2012-10-06T08:41:15Z</time>
      </trkpt>
      <trkpt lat="45.70794" lon="6.18136">
        <ele>1399.8</ele>
        <time>2012-10-06T08:41:19Z</time>
      </trkpt>
      <trkpt lat="45.70788" lon="6.18144">
        <ele>1401.3</ele>
        <time>2012-10-06T08:41:30Z</time>
      </trkpt>
      <trkpt lat="45.70787" lon="6.18163">
        <ele>1402.7</ele>
        <time>2012-10-06T08:41:41Z</time>
      </trkpt>
      <trkpt lat="45.70783" lon="6.18168">
        <ele>1405.1</ele>
        <time>2012-10-06T08:41:49Z</time>
      </trkpt>
      <trkpt lat="45.70773" lon="6.18175">
        <ele>1408</ele>
        <time>2012-10-06T08:42:05Z</time>
      </trkpt>
      <trkpt lat="45.70765" lon="6.18187">
        <ele>1411.8</ele>
        <time>2012-10-06T08:42:18Z</time>
      </trkpt>
      <trkpt lat="45.70764" lon="6.18188">
        <ele>1411.8</ele>
        <time>2012-10-06T08:42:19Z</time>
      </trkpt>
      <trkpt lat="45.70763" lon="6.1819">
        <ele>1413.3</ele>
        <time>2012-10-06T08:42:23Z</time>
      </trkpt>
      <trkpt lat="45.70758" lon="6.18196">
        <ele>1415.2</ele>
        <time>2012-10-06T08:42:37Z</time>
      </trkpt>
      <trkpt lat="45.70753" lon="6.18203">
        <ele>1418.6</ele>
        <time>2012-10-06T08:42:47Z</time>
      </trkpt>
      <trkpt lat="45.70747" lon="6.18214">
        <ele>1421.4</ele>
        <time>2012-10-06T08:43:01Z</time>
      </trkpt>
      <trkpt lat="45.70748" lon="6.18244">
        <ele>1425.3</ele>
        <time>2012-10-06T08:43:19Z</time>
      </trkpt>
      <trkpt lat="45.70755" lon="6.18264">
        <ele>1427.2</ele>
        <time>2012-10-06T08:43:34Z</time>
      </trkpt>
      <trkpt lat="45.70767" lon="6.18267">
        <ele>1430.1</ele>
        <time>2012-10-06T08:43:50Z</time>
      </trkpt>
      <trkpt lat="45.70779" lon="6.18265">
        <ele>1433.5</ele>
        <time>2012-10-06T08:44:07Z</time>
      </trkpt>
      <trkpt lat="45.70779" lon="6.18265">
        <ele>1433.5</ele>
        <time>2012-10-06T08:44:08Z</time>
      </trkpt>
      <trkpt lat="45.70772" lon="6.18264">
        <ele>1436.3</ele>
        <time>2012-10-06T08:44:25Z</time>
      </trkpt>
      <trkpt lat="45.70772" lon="6.18274">
        <ele>1437.8</ele>
        <time>2012-10-06T08:44:38Z</time>
      </trkpt>
      <trkpt lat="45.70783" lon="6.18278">
        <ele>1440.7</ele>
        <time>2012-10-06T08:44:51Z</time>
      </trkpt>
      <trkpt lat="45.70794" lon="6.1828">
        <ele>1443.1</ele>
        <time>2012-10-06T08:45:00Z</time>
      </trkpt>
      <trkpt lat="45.70799" lon="6.18284">
        <ele>1445</ele>
        <time>2012-10-06T08:45:09Z</time>
      </trkpt>
      <trkpt lat="45.70817" lon="6.1829">
        <ele>1447.9</ele>
        <time>2012-10-06T08:45:31Z</time>
      </trkpt>
      <trkpt lat="45.70823" lon="6.18291">
        <ele>1449.3</ele>
        <time>2012-10-06T08:45:40Z</time>
      </trkpt>
      <trkpt lat="45.70827" lon="6.18289">
        <ele>1451.7</ele>
        <time>2012-10-06T08:45:45Z</time>
      </trkpt>
      <trkpt lat="45.70846" lon="6.18302">
        <ele>1455.1</ele>
        <time>2012-10-06T08:46:08Z</time>
      </trkpt>
      <trkpt lat="45.70856" lon="6.18305">
        <ele>1457.5</ele>
        <time>2012-10-06T08:46:19Z</time>
      </trkpt>
      <trkpt lat="45.70863" lon="6.18303">
        <ele>1458.5</ele>
        <time>2012-10-06T08:46:26Z</time>
      </trkpt>
      <trkpt lat="45.7087" lon="6.18305">
        <ele>1460.4</ele>
        <time>2012-10-06T08:46:35Z</time>
      </trkpt>
      <trkpt lat="45.70875" lon="6.18309">
        <ele>1461.3</ele>
        <time>2012-10-06T08:46:43Z</time>
      </trkpt>
      <trkpt lat="45.70877" lon="6.18309">
        <ele>1463.3</ele>
        <time>2012-10-06T08:46:48Z</time>
      </trkpt>
      <trkpt lat="45.70883" lon="6.18313">
        <ele>1465.2</ele>
        <time>2012-10-06T08:47:05Z</time>
      </trkpt>
      <trkpt lat="45.70889" lon="6.18314">
        <ele>1466.6</ele>
        <time>2012-10-06T08:47:11Z</time>
      </trkpt>
      <trkpt lat="45.70898" lon="6.18314">
        <ele>1467.6</ele>
        <time>2012-10-06T08:47:21Z</time>
      </trkpt>
      <trkpt lat="45.70906" lon="6.18316">
        <ele>1469</ele>
        <time>2012-10-06T08:47:30Z</time>
      </trkpt>
      <trkpt lat="45.70912" lon="6.1833">
        <ele>1471.9</ele>
        <time>2012-10-06T08:47:42Z</time>
      </trkpt>
      <trkpt lat="45.70913" lon="6.18333">
        <ele>1473.4</ele>
        <time>2012-10-06T08:47:44Z</time>
      </trkpt>
      <trkpt lat="45.70918" lon="6.18341">
        <ele>1474.3</ele>
        <time>2012-10-06T08:47:53Z</time>
      </trkpt>
      <trkpt lat="45.70926" lon="6.18346">
        <ele>1475.8</ele>
        <time>2012-10-06T08:48:03Z</time>
      </trkpt>
      <trkpt lat="45.70931" lon="6.18349">
        <ele>1476.7</ele>
        <time>2012-10-06T08:48:11Z</time>
      </trkpt>
      <trkpt lat="45.70939" lon="6.18352">
        <ele>1479.1</ele>
        <time>2012-10-06T08:48:22Z</time>
      </trkpt>
      <trkpt lat="45.70945" lon="6.18347">
        <ele>1482.5</ele>
        <time>2012-10-06T08:48:30Z</time>
      </trkpt>
      <trkpt lat="45.7096" lon="6.18349">
        <ele>1484.9</ele>
        <time>2012-10-06T08:48:45Z</time>
      </trkpt>
      <trkpt lat="45.70973" lon="6.18349">
        <ele>1487.8</ele>
        <time>2012-10-06T08:49:03Z</time>
      </trkpt>
      <trkpt lat="45.7098" lon="6.18351">
        <ele>1488.7</ele>
        <time>2012-10-06T08:49:10Z</time>
      </trkpt>
      <trkpt lat="45.70986" lon="6.1835">
        <ele>1490.2</ele>
        <time>2012-10-06T08:49:19Z</time>
      </trkpt>
      <trkpt lat="45.70993" lon="6.18351">
        <ele>1493.5</ele>
        <time>2012-10-06T08:49:30Z</time>
      </trkpt>
      <trkpt lat="45.70993" lon="6.18351">
        <ele>1495.5</ele>
        <time>2012-10-06T08:49:42Z</time>
      </trkpt>
      <trkpt lat="45.71004" lon="6.18353">
        <ele>1498.4</ele>
        <time>2012-10-06T08:49:59Z</time>
      </trkpt>
      <trkpt lat="45.71003" lon="6.18356">
        <ele>1501.7</ele>
        <time>2012-10-06T08:50:09Z</time>
      </trkpt>
      <trkpt lat="45.71002" lon="6.18367">
        <ele>1502.2</ele>
        <time>2012-10-06T08:50:25Z</time>
      </trkpt>
      <trkpt lat="45.7101" lon="6.18369">
        <ele>1504.6</ele>
        <time>2012-10-06T08:50:42Z</time>
      </trkpt>
      <trkpt lat="45.71017" lon="6.18367">
        <ele>1506.5</ele>
        <time>2012-10-06T08:50:52Z</time>
      </trkpt>
      <trkpt lat="45.71025" lon="6.18376">
        <ele>1508.4</ele>
        <time>2012-10-06T08:51:06Z</time>
      </trkpt>
      <trkpt lat="45.7103" lon="6.18381">
        <ele>1511.8</ele>
        <time>2012-10-06T08:51:14Z</time>
      </trkpt>
      <trkpt lat="45.71035" lon="6.18384">
        <ele>1513.7</ele>
        <time>2012-10-06T08:51:26Z</time>
      </trkpt>
      <trkpt lat="45.71043" lon="6.18381">
        <ele>1516.6</ele>
        <time>2012-10-06T08:51:47Z</time>
      </trkpt>
      <trkpt lat="45.71045" lon="6.18385">
        <ele>1518.5</ele>
        <time>2012-10-06T08:52:01Z</time>
      </trkpt>
      <trkpt lat="45.7105" lon="6.18389">
        <ele>1520.9</ele>
        <time>2012-10-06T08:52:11Z</time>
      </trkpt>
      <trkpt lat="45.71047" lon="6.18389">
        <ele>1522.4</ele>
        <time>2012-10-06T08:52:20Z</time>
      </trkpt>
      <trkpt lat="45.71043" lon="6.18396">
        <ele>1523.8</ele>
        <time>2012-10-06T08:52:29Z</time>
      </trkpt>
      <trkpt lat="45.71039" lon="6.18404">
        <ele>1524.3</ele>
        <time>2012-10-06T08:52:37Z</time>
      </trkpt>
      <trkpt lat="45.71033" lon="6.18406">
        <ele>1526.7</ele>
        <time>2012-10-06T08:52:46Z</time>
      </trkpt>
      <trkpt lat="45.71026" lon="6.18413">
        <ele>1528.2</ele>
        <time>2012-10-06T08:52:57Z</time>
      </trkpt>
      <trkpt lat="45.71023" lon="6.18416">
        <ele>1530.6</ele>
        <time>2012-10-06T08:53:03Z</time>
      </trkpt>
      <trkpt lat="45.71012" lon="6.18425">
        <ele>1532</ele>
        <time>2012-10-06T08:53:15Z</time>
      </trkpt>
      <trkpt lat="45.71006" lon="6.18431">
        <ele>1533</ele>
        <time>2012-10-06T08:53:23Z</time>
      </trkpt>
      <trkpt lat="45.71005" lon="6.18447">
        <ele>1534.9</ele>
        <time>2012-10-06T08:53:36Z</time>
      </trkpt>
      <trkpt lat="45.71011" lon="6.18454">
        <ele>1536.3</ele>
        <time>2012-10-06T08:53:45Z</time>
      </trkpt>
      <trkpt lat="45.71015" lon="6.18462">
        <ele>1538.7</ele>
        <time>2012-10-06T08:53:54Z</time>
      </trkpt>
      <trkpt lat="45.71019" lon="6.18469">
        <ele>1541.6</ele>
        <time>2012-10-06T08:54:02Z</time>
      </trkpt>
      <trkpt lat="45.71022" lon="6.18473">
        <ele>1543.5</ele>
        <time>2012-10-06T08:54:11Z</time>
      </trkpt>
      <trkpt lat="45.71039" lon="6.18482">
        <ele>1545.5</ele>
        <time>2012-10-06T08:55:11Z</time>
      </trkpt>
      <trkpt lat="45.71043" lon="6.1848">
        <ele>1548.8</ele>
        <time>2012-10-06T08:55:21Z</time>
      </trkpt>
      <trkpt lat="45.71058" lon="6.18479">
        <ele>1550.3</ele>
        <time>2012-10-06T08:55:45Z</time>
      </trkpt>
      <trkpt lat="45.71066" lon="6.18482">
        <ele>1553.1</ele>
        <time>2012-10-06T08:55:56Z</time>
      </trkpt>
      <trkpt lat="45.71072" lon="6.18482">
        <ele>1554.6</ele>
        <time>2012-10-06T08:56:02Z</time>
      </trkpt>
      <trkpt lat="45.71081" lon="6.18486">
        <ele>1558</ele>
        <time>2012-10-06T08:56:14Z</time>
      </trkpt>
      <trkpt lat="45.71086" lon="6.18491">
        <ele>1559.4</ele>
        <time>2012-10-06T08:56:23Z</time>
      </trkpt>
      <trkpt lat="45.71095" lon="6.18495">
        <ele>1561.8</ele>
        <time>2012-10-06T08:56:34Z</time>
      </trkpt>
      <trkpt lat="45.711" lon="6.18498">
        <ele>1563.2</ele>
        <time>2012-10-06T08:56:43Z</time>
      </trkpt>
      <trkpt lat="45.71099" lon="6.18501">
        <ele>1566.1</ele>
        <time>2012-10-06T08:56:54Z</time>
      </trkpt>
      <trkpt lat="45.71093" lon="6.18501">
        <ele>1569</ele>
        <time>2012-10-06T08:57:05Z</time>
      </trkpt>
      <trkpt lat="45.71088" lon="6.185">
        <ele>1570.9</ele>
        <time>2012-10-06T08:57:15Z</time>
      </trkpt>
      <trkpt lat="45.71083" lon="6.18504">
        <ele>1571.4</ele>
        <time>2012-10-06T08:57:22Z</time>
      </trkpt>
      <trkpt lat="45.71076" lon="6.18511">
        <ele>1573.8</ele>
        <time>2012-10-06T08:57:35Z</time>
      </trkpt>
      <trkpt lat="45.71071" lon="6.18515">
        <ele>1574.8</ele>
        <time>2012-10-06T08:57:40Z</time>
      </trkpt>
      <trkpt lat="45.71066" lon="6.18519">
        <ele>1575.3</ele>
        <time>2012-10-06T08:57:45Z</time>
      </trkpt>
      <trkpt lat="45.71057" lon="6.18528">
        <ele>1576.2</ele>
        <time>2012-10-06T08:57:56Z</time>
      </trkpt>
      <trkpt lat="45.71062" lon="6.18536">
        <ele>1579.6</ele>
        <time>2012-10-06T08:58:07Z</time>
      </trkpt>
      <trkpt lat="45.71072" lon="6.18542">
        <ele>1582.9</ele>
        <time>2012-10-06T08:58:21Z</time>
      </trkpt>
      <trkpt lat="45.71082" lon="6.18549">
        <ele>1585.8</ele>
        <time>2012-10-06T08:58:36Z</time>
      </trkpt>
      <trkpt lat="45.71089" lon="6.18552">
        <ele>1587.8</ele>
        <time>2012-10-06T08:58:48Z</time>
      </trkpt>
      <trkpt lat="45.71096" lon="6.18555">
        <ele>1589.7</ele>
        <time>2012-10-06T08:58:56Z</time>
      </trkpt>
      <trkpt lat="45.71099" lon="6.18557">
        <ele>1591.1</ele>
        <time>2012-10-06T08:59:06Z</time>
      </trkpt>
      <trkpt lat="45.71104" lon="6.18561">
        <ele>1593</ele>
        <time>2012-10-06T08:59:17Z</time>
      </trkpt>
      <trkpt lat="45.711" lon="6.18562">
        <ele>1594</ele>
        <time>2012-10-06T08:59:28Z</time>
      </trkpt>
      <trkpt lat="45.71094" lon="6.18563">
        <ele>1595.4</ele>
        <time>2012-10-06T08:59:37Z</time>
      </trkpt>
      <trkpt lat="45.71089" lon="6.18566">
        <ele>1596.9</ele>
        <time>2012-10-06T08:59:45Z</time>
      </trkpt>
      <trkpt lat="45.71084" lon="6.1857">
        <ele>1598.8</ele>
        <time>2012-10-06T08:59:54Z</time>
      </trkpt>
      <trkpt lat="45.71083" lon="6.18571">
        <ele>1598.8</ele>
        <time>2012-10-06T08:59:56Z</time>
      </trkpt>
      <trkpt lat="45.7108" lon="6.18578">
        <ele>1600.7</ele>
        <time>2012-10-06T09:00:08Z</time>
      </trkpt>
      <trkpt lat="45.71079" lon="6.1859">
        <ele>1602.7</ele>
        <time>2012-10-06T09:00:37Z</time>
      </trkpt>
      <trkpt lat="45.71073" lon="6.18595">
        <ele>1604.1</ele>
        <time>2012-10-06T09:00:46Z</time>
      </trkpt>
      <trkpt lat="45.71068" lon="6.18598">
        <ele>1607.5</ele>
        <time>2012-10-06T09:00:54Z</time>
      </trkpt>
      <trkpt lat="45.71056" lon="6.18601">
        <ele>1609.4</ele>
        <time>2012-10-06T09:01:07Z</time>
      </trkpt>
      <trkpt lat="45.71051" lon="6.18611">
        <ele>1610.3</ele>
        <time>2012-10-06T09:01:16Z</time>
      </trkpt>
      <trkpt lat="45.71041" lon="6.18621">
        <ele>1613.2</ele>
        <time>2012-10-06T09:01:31Z</time>
      </trkpt>
      <trkpt lat="45.71041" lon="6.18631">
        <ele>1614.2</ele>
        <time>2012-10-06T09:01:41Z</time>
      </trkpt>
      <trkpt lat="45.71048" lon="6.18634">
        <ele>1616.6</ele>
        <time>2012-10-06T09:01:57Z</time>
      </trkpt>
      <trkpt lat="45.71054" lon="6.18637">
        <ele>1619</ele>
        <time>2012-10-06T09:02:05Z</time>
      </trkpt>
      <trkpt lat="45.71061" lon="6.18639">
        <ele>1621.4</ele>
        <time>2012-10-06T09:02:15Z</time>
      </trkpt>
      <trkpt lat="45.71062" lon="6.1864">
        <ele>1621.9</ele>
        <time>2012-10-06T09:02:16Z</time>
      </trkpt>
      <trkpt lat="45.71073" lon="6.18642">
        <ele>1623.3</ele>
        <time>2012-10-06T09:02:28Z</time>
      </trkpt>
      <trkpt lat="45.71082" lon="6.18644">
        <ele>1625.2</ele>
        <time>2012-10-06T09:02:39Z</time>
      </trkpt>
      <trkpt lat="45.71089" lon="6.18645">
        <ele>1627.2</ele>
        <time>2012-10-06T09:02:49Z</time>
      </trkpt>
      <trkpt lat="45.71095" lon="6.18648">
        <ele>1629.1</ele>
        <time>2012-10-06T09:02:58Z</time>
      </trkpt>
      <trkpt lat="45.71103" lon="6.1865">
        <ele>1630.1</ele>
        <time>2012-10-06T09:03:09Z</time>
      </trkpt>
      <trkpt lat="45.7111" lon="6.1865">
        <ele>1631.5</ele>
        <time>2012-10-06T09:03:18Z</time>
      </trkpt>
      <trkpt lat="45.71118" lon="6.18653">
        <ele>1633.9</ele>
        <time>2012-10-06T09:03:29Z</time>
      </trkpt>
      <trkpt lat="45.71125" lon="6.18657">
        <ele>1636.8</ele>
        <time>2012-10-06T09:03:41Z</time>
      </trkpt>
      <trkpt lat="45.71129" lon="6.18659">
        <ele>1638.7</ele>
        <time>2012-10-06T09:03:50Z</time>
      </trkpt>
      <trkpt lat="45.71134" lon="6.18663">
        <ele>1642.1</ele>
        <time>2012-10-06T09:04:00Z</time>
      </trkpt>
      <trkpt lat="45.71139" lon="6.18665">
        <ele>1643.5</ele>
        <time>2012-10-06T09:04:09Z</time>
      </trkpt>
      <trkpt lat="45.71145" lon="6.18673">
        <ele>1646.9</ele>
        <time>2012-10-06T09:04:21Z</time>
      </trkpt>
      <trkpt lat="45.71152" lon="6.18676">
        <ele>1648.3</ele>
        <time>2012-10-06T09:04:33Z</time>
      </trkpt>
      <trkpt lat="45.71161" lon="6.18679">
        <ele>1649.3</ele>
        <time>2012-10-06T09:04:48Z</time>
      </trkpt>
      <trkpt lat="45.71169" lon="6.18679">
        <ele>1650.2</ele>
        <time>2012-10-06T09:05:06Z</time>
      </trkpt>
      <trkpt lat="45.71164" lon="6.18681">
        <ele>1651.7</ele>
        <time>2012-10-06T09:06:06Z</time>
      </trkpt>
      <trkpt lat="45.71159" lon="6.18684">
        <ele>1652.6</ele>
        <time>2012-10-06T09:06:15Z</time>
      </trkpt>
      <trkpt lat="45.71155" lon="6.18691">
        <ele>1654.6</ele>
        <time>2012-10-06T09:06:22Z</time>
      </trkpt>
      <trkpt lat="45.71152" lon="6.18697">
        <ele>1657.5</ele>
        <time>2012-10-06T09:06:30Z</time>
      </trkpt>
      <trkpt lat="45.71148" lon="6.18704">
        <ele>1660.3</ele>
        <time>2012-10-06T09:06:40Z</time>
      </trkpt>
      <trkpt lat="45.71151" lon="6.18707">
        <ele>1660.8</ele>
        <time>2012-10-06T09:06:48Z</time>
      </trkpt>
      <trkpt lat="45.71157" lon="6.18709">
        <ele>1664.2</ele>
        <time>2012-10-06T09:06:59Z</time>
      </trkpt>
      <trkpt lat="45.71158" lon="6.18709">
        <ele>1664.2</ele>
        <time>2012-10-06T09:07:00Z</time>
      </trkpt>
      <trkpt lat="45.71168" lon="6.18712">
        <ele>1666.1</ele>
        <time>2012-10-06T09:07:15Z</time>
      </trkpt>
      <trkpt lat="45.7117" lon="6.18713">
        <ele>1667.5</ele>
        <time>2012-10-06T09:07:19Z</time>
      </trkpt>
      <trkpt lat="45.71167" lon="6.18719">
        <ele>1669.9</ele>
        <time>2012-10-06T09:07:29Z</time>
      </trkpt>
      <trkpt lat="45.71158" lon="6.18726">
        <ele>1672.4</ele>
        <time>2012-10-06T09:07:45Z</time>
      </trkpt>
      <trkpt lat="45.71156" lon="6.1873">
        <ele>1673.8</ele>
        <time>2012-10-06T09:07:55Z</time>
      </trkpt>
      <trkpt lat="45.71162" lon="6.18731">
        <ele>1676.2</ele>
        <time>2012-10-06T09:08:06Z</time>
      </trkpt>
      <trkpt lat="45.71167" lon="6.18731">
        <ele>1678.6</ele>
        <time>2012-10-06T09:08:18Z</time>
      </trkpt>
      <trkpt lat="45.71173" lon="6.18736">
        <ele>1680</ele>
        <time>2012-10-06T09:08:35Z</time>
      </trkpt>
      <trkpt lat="45.7118" lon="6.18741">
        <ele>1682.9</ele>
        <time>2012-10-06T09:08:48Z</time>
      </trkpt>
      <trkpt lat="45.71189" lon="6.18746">
        <ele>1683.9</ele>
        <time>2012-10-06T09:08:59Z</time>
      </trkpt>
      <trkpt lat="45.71201" lon="6.1875">
        <ele>1685.8</ele>
        <time>2012-10-06T09:09:12Z</time>
      </trkpt>
      <trkpt lat="45.71209" lon="6.18753">
        <ele>1688.2</ele>
        <time>2012-10-06T09:09:22Z</time>
      </trkpt>
      <trkpt lat="45.71214" lon="6.18755">
        <ele>1689.2</ele>
        <time>2012-10-06T09:09:37Z</time>
      </trkpt>
      <trkpt lat="45.71217" lon="6.1875">
        <ele>1689.2</ele>
        <time>2012-10-06T09:10:19Z</time>
      </trkpt>
      <trkpt lat="45.71213" lon="6.18754">
        <ele>1689.7</ele>
        <time>2012-10-06T09:10:42Z</time>
      </trkpt>
      <trkpt lat="45.71206" lon="6.18756">
        <ele>1693.5</ele>
        <time>2012-10-06T09:10:53Z</time>
      </trkpt>
      <trkpt lat="45.71202" lon="6.18758">
        <ele>1694.5</ele>
        <time>2012-10-06T09:10:57Z</time>
      </trkpt>
      <trkpt lat="45.71188" lon="6.18765">
        <ele>1697.3</ele>
        <time>2012-10-06T09:11:15Z</time>
      </trkpt>
      <trkpt lat="45.71187" lon="6.18766">
        <ele>1698.3</ele>
        <time>2012-10-06T09:11:17Z</time>
      </trkpt>
      <trkpt lat="45.71171" lon="6.18774">
        <ele>1701.2</ele>
        <time>2012-10-06T09:11:36Z</time>
      </trkpt>
      <trkpt lat="45.71157" lon="6.18781">
        <ele>1703.6</ele>
        <time>2012-10-06T09:11:52Z</time>
      </trkpt>
      <trkpt lat="45.71143" lon="6.1879">
        <ele>1706</ele>
        <time>2012-10-06T09:12:08Z</time>
      </trkpt>
      <trkpt lat="45.71132" lon="6.18801">
        <ele>1707.9</ele>
        <time>2012-10-06T09:12:24Z</time>
      </trkpt>
      <trkpt lat="45.71121" lon="6.18808">
        <ele>1711.3</ele>
        <time>2012-10-06T09:12:40Z</time>
      </trkpt>
      <trkpt lat="45.71115" lon="6.18814">
        <ele>1714.2</ele>
        <time>2012-10-06T09:12:52Z</time>
      </trkpt>
      <trkpt lat="45.71109" lon="6.1882">
        <ele>1717.5</ele>
        <time>2012-10-06T09:13:01Z</time>
      </trkpt>
      <trkpt lat="45.711" lon="6.18828">
        <ele>1720.4</ele>
        <time>2012-10-06T09:13:16Z</time>
      </trkpt>
      <trkpt lat="45.71093" lon="6.18836">
        <ele>1722.3</ele>
        <time>2012-10-06T09:13:31Z</time>
      </trkpt>
      <trkpt lat="45.7109" lon="6.18839">
        <ele>1723.3</ele>
        <time>2012-10-06T09:13:37Z</time>
      </trkpt>
      <trkpt lat="45.71086" lon="6.18844">
        <ele>1726.2</ele>
        <time>2012-10-06T09:13:46Z</time>
      </trkpt>
      <trkpt lat="45.71077" lon="6.18847">
        <ele>1729.1</ele>
        <time>2012-10-06T09:13:59Z</time>
      </trkpt>
      <trkpt lat="45.71084" lon="6.1885">
        <ele>1730</ele>
        <time>2012-10-06T09:14:07Z</time>
      </trkpt>
      <trkpt lat="45.71087" lon="6.18852">
        <ele>1730.5</ele>
        <time>2012-10-06T09:14:10Z</time>
      </trkpt>
      <trkpt lat="45.71102" lon="6.18858">
        <ele>1733.4</ele>
        <time>2012-10-06T09:14:25Z</time>
      </trkpt>
      <trkpt lat="45.71115" lon="6.18861">
        <ele>1736.3</ele>
        <time>2012-10-06T09:14:39Z</time>
      </trkpt>
      <trkpt lat="45.71126" lon="6.18859">
        <ele>1737.7</ele>
        <time>2012-10-06T09:14:52Z</time>
      </trkpt>
      <trkpt lat="45.71136" lon="6.18859">
        <ele>1741.1</ele>
        <time>2012-10-06T09:15:06Z</time>
      </trkpt>
      <trkpt lat="45.71143" lon="6.18862">
        <ele>1744</ele>
        <time>2012-10-06T09:15:17Z</time>
      </trkpt>
      <trkpt lat="45.71143" lon="6.18867">
        <ele>1745.9</ele>
        <time>2012-10-06T09:15:24Z</time>
      </trkpt>
      <trkpt lat="45.71122" lon="6.18869">
        <ele>1747.3</ele>
        <time>2012-10-06T09:15:42Z</time>
      </trkpt>
      <trkpt lat="45.71112" lon="6.18874">
        <ele>1748.3</ele>
        <time>2012-10-06T09:15:55Z</time>
      </trkpt>
      <trkpt lat="45.71107" lon="6.18878">
        <ele>1751.2</ele>
        <time>2012-10-06T09:16:09Z</time>
      </trkpt>
      <trkpt lat="45.711" lon="6.18884">
        <ele>1754.1</ele>
        <time>2012-10-06T09:16:21Z</time>
      </trkpt>
      <trkpt lat="45.71094" lon="6.18888">
        <ele>1756</ele>
        <time>2012-10-06T09:16:32Z</time>
      </trkpt>
      <trkpt lat="45.71086" lon="6.18891">
        <ele>1758.9</ele>
        <time>2012-10-06T09:16:44Z</time>
      </trkpt>
      <trkpt lat="45.71084" lon="6.18892">
        <ele>1759.4</ele>
        <time>2012-10-06T09:16:46Z</time>
      </trkpt>
      <trkpt lat="45.71067" lon="6.18896">
        <ele>1761.3</ele>
        <time>2012-10-06T09:17:05Z</time>
      </trkpt>
      <trkpt lat="45.71056" lon="6.189">
        <ele>1762.7</ele>
        <time>2012-10-06T09:17:20Z</time>
      </trkpt>
      <trkpt lat="45.71047" lon="6.18902">
        <ele>1765.6</ele>
        <time>2012-10-06T09:17:35Z</time>
      </trkpt>
      <trkpt lat="45.71039" lon="6.18904">
        <ele>1769</ele>
        <time>2012-10-06T09:17:49Z</time>
      </trkpt>
      <trkpt lat="45.71033" lon="6.18904">
        <ele>1771.8</ele>
        <time>2012-10-06T09:18:00Z</time>
      </trkpt>
      <trkpt lat="45.71028" lon="6.18906">
        <ele>1774.7</ele>
        <time>2012-10-06T09:18:12Z</time>
      </trkpt>
      <trkpt lat="45.71025" lon="6.18908">
        <ele>1776.7</ele>
        <time>2012-10-06T09:18:22Z</time>
      </trkpt>
      <trkpt lat="45.71022" lon="6.18908">
        <ele>1779.5</ele>
        <time>2012-10-06T09:18:26Z</time>
      </trkpt>
      <trkpt lat="45.71019" lon="6.18915">
        <ele>1781</ele>
        <time>2012-10-06T09:18:35Z</time>
      </trkpt>
      <trkpt lat="45.71015" lon="6.18918">
        <ele>1782.9</ele>
        <time>2012-10-06T09:18:46Z</time>
      </trkpt>
      <trkpt lat="45.71008" lon="6.18917">
        <ele>1785.3</ele>
        <time>2012-10-06T09:18:58Z</time>
      </trkpt>
      <trkpt lat="45.71004" lon="6.18916">
        <ele>1787.2</ele>
        <time>2012-10-06T09:19:11Z</time>
      </trkpt>
      <trkpt lat="45.71003" lon="6.18927">
        <ele>1789.6</ele>
        <time>2012-10-06T09:20:12Z</time>
      </trkpt>
      <trkpt lat="45.70995" lon="6.18928">
        <ele>1792.5</ele>
        <time>2012-10-06T09:20:25Z</time>
      </trkpt>
      <trkpt lat="45.70988" lon="6.18928">
        <ele>1794.9</ele>
        <time>2012-10-06T09:20:34Z</time>
      </trkpt>
      <trkpt lat="45.7099" lon="6.18936">
        <ele>1796.8</ele>
        <time>2012-10-06T09:20:44Z</time>
      </trkpt>
      <trkpt lat="45.70988" lon="6.18937">
        <ele>1799.2</ele>
        <time>2012-10-06T09:21:00Z</time>
      </trkpt>
      <trkpt lat="45.70982" lon="6.18935">
        <ele>1801.2</ele>
        <time>2012-10-06T09:21:11Z</time>
      </trkpt>
      <trkpt lat="45.70978" lon="6.1893">
        <ele>1804.1</ele>
        <time>2012-10-06T09:21:22Z</time>
      </trkpt>
      <trkpt lat="45.70974" lon="6.18927">
        <ele>1805.5</ele>
        <time>2012-10-06T09:21:27Z</time>
      </trkpt>
      <trkpt lat="45.70966" lon="6.1893">
        <ele>1806.5</ele>
        <time>2012-10-06T09:21:40Z</time>
      </trkpt>
      <trkpt lat="45.70967" lon="6.18937">
        <ele>1808.9</ele>
        <time>2012-10-06T09:21:48Z</time>
      </trkpt>
      <trkpt lat="45.7097" lon="6.18945">
        <ele>1811.7</ele>
        <time>2012-10-06T09:21:56Z</time>
      </trkpt>
      <trkpt lat="45.70975" lon="6.18959">
        <ele>1814.1</ele>
        <time>2012-10-06T09:22:09Z</time>
      </trkpt>
      <trkpt lat="45.70978" lon="6.18968">
        <ele>1817</ele>
        <time>2012-10-06T09:22:23Z</time>
      </trkpt>
      <trkpt lat="45.70971" lon="6.1897">
        <ele>1818.5</ele>
        <time>2012-10-06T09:22:35Z</time>
      </trkpt>
      <trkpt lat="45.70966" lon="6.18966">
        <ele>1820.9</ele>
        <time>2012-10-06T09:22:50Z</time>
      </trkpt>
      <trkpt lat="45.70958" lon="6.18961">
        <ele>1820.9</ele>
        <time>2012-10-06T09:23:01Z</time>
      </trkpt>
      <trkpt lat="45.70949" lon="6.18957">
        <ele>1823.3</ele>
        <time>2012-10-06T09:23:14Z</time>
      </trkpt>
      <trkpt lat="45.70935" lon="6.18953">
        <ele>1826.2</ele>
        <time>2012-10-06T09:23:29Z</time>
      </trkpt>
      <trkpt lat="45.70922" lon="6.18949">
        <ele>1824.7</ele>
        <time>2012-10-06T09:23:43Z</time>
      </trkpt>
      <trkpt lat="45.709" lon="6.18947">
        <ele>1823.3</ele>
        <time>2012-10-06T09:24:02Z</time>
      </trkpt>
      <trkpt lat="45.70895" lon="6.1895">
        <ele>1823.8</ele>
        <time>2012-10-06T09:24:14Z</time>
      </trkpt>
      <trkpt lat="45.70889" lon="6.1895">
        <ele>1824.7</ele>
        <time>2012-10-06T09:24:35Z</time>
      </trkpt>
      <trkpt lat="45.70885" lon="6.18949">
        <ele>1826.2</ele>
        <time>2012-10-06T09:24:41Z</time>
      </trkpt>
      <trkpt lat="45.70884" lon="6.18948">
        <ele>1828.1</ele>
        <time>2012-10-06T09:24:46Z</time>
      </trkpt>
      <trkpt lat="45.70877" lon="6.18937">
        <ele>1831.4</ele>
        <time>2012-10-06T09:25:03Z</time>
      </trkpt>
      <trkpt lat="45.70874" lon="6.18927">
        <ele>1834.8</ele>
        <time>2012-10-06T09:25:16Z</time>
      </trkpt>
      <trkpt lat="45.70854" lon="6.18918">
        <ele>1837.2</ele>
        <time>2012-10-06T09:25:33Z</time>
      </trkpt>
      <trkpt lat="45.70842" lon="6.18914">
        <ele>1838.7</ele>
        <time>2012-10-06T09:25:47Z</time>
      </trkpt>
      <trkpt lat="45.70834" lon="6.18913">
        <ele>1840.1</ele>
        <time>2012-10-06T09:25:55Z</time>
      </trkpt>
      <trkpt lat="45.70829" lon="6.18914">
        <ele>1841.1</ele>
        <time>2012-10-06T09:26:00Z</time>
      </trkpt>
      <trkpt lat="45.70815" lon="6.18923">
        <ele>1842</ele>
        <time>2012-10-06T09:26:16Z</time>
      </trkpt>
      <trkpt lat="45.70801" lon="6.18931">
        <ele>1842.5</ele>
        <time>2012-10-06T09:26:30Z</time>
      </trkpt>
      <trkpt lat="45.70788" lon="6.18938">
        <ele>1841.5</ele>
        <time>2012-10-06T09:26:43Z</time>
      </trkpt>
      <trkpt lat="45.7077" lon="6.18948">
        <ele>1841.5</ele>
        <time>2012-10-06T09:27:00Z</time>
      </trkpt>
      <trkpt lat="45.70769" lon="6.18948">
        <ele>1842</ele>
        <time>2012-10-06T09:27:01Z</time>
      </trkpt>
      <trkpt lat="45.70763" lon="6.18951">
        <ele>1841.5</ele>
        <time>2012-10-06T09:27:06Z</time>
      </trkpt>
      <trkpt lat="45.70743" lon="6.18961">
        <ele>1842.5</ele>
        <time>2012-10-06T09:27:24Z</time>
      </trkpt>
      <trkpt lat="45.70732" lon="6.18965">
        <ele>1842.5</ele>
        <time>2012-10-06T09:27:34Z</time>
      </trkpt>
      <trkpt lat="45.70717" lon="6.18973">
        <ele>1843</ele>
        <time>2012-10-06T09:27:49Z</time>
      </trkpt>
      <trkpt lat="45.707" lon="6.18977">
        <ele>1843.9</ele>
        <time>2012-10-06T09:28:03Z</time>
      </trkpt>
      <trkpt lat="45.70682" lon="6.18983">
        <ele>1844.4</ele>
        <time>2012-10-06T09:28:20Z</time>
      </trkpt>
      <trkpt lat="45.70662" lon="6.18987">
        <ele>1846.3</ele>
        <time>2012-10-06T09:28:38Z</time>
      </trkpt>
      <trkpt lat="45.70645" lon="6.1899">
        <ele>1847.3</ele>
        <time>2012-10-06T09:28:53Z</time>
      </trkpt>
      <trkpt lat="45.70629" lon="6.18991">
        <ele>1849.2</ele>
        <time>2012-10-06T09:29:08Z</time>
      </trkpt>
      <trkpt lat="45.70614" lon="6.18987">
        <ele>1849.7</ele>
        <time>2012-10-06T09:29:22Z</time>
      </trkpt>
      <trkpt lat="45.70595" lon="6.1898">
        <ele>1851.2</ele>
        <time>2012-10-06T09:29:38Z</time>
      </trkpt>
      <trkpt lat="45.70584" lon="6.18978">
        <ele>1854.5</ele>
        <time>2012-10-06T09:29:52Z</time>
      </trkpt>
      <trkpt lat="45.70571" lon="6.18976">
        <ele>1857.4</ele>
        <time>2012-10-06T09:30:06Z</time>
      </trkpt>
      <trkpt lat="45.70555" lon="6.18974">
        <ele>1860.8</ele>
        <time>2012-10-06T09:30:23Z</time>
      </trkpt>
      <trkpt lat="45.70541" lon="6.18973">
        <ele>1862.2</ele>
        <time>2012-10-06T09:30:38Z</time>
      </trkpt>
      <trkpt lat="45.70526" lon="6.18973">
        <ele>1865.1</ele>
        <time>2012-10-06T09:30:54Z</time>
      </trkpt>
      <trkpt lat="45.70511" lon="6.18974">
        <ele>1868</ele>
        <time>2012-10-06T09:31:09Z</time>
      </trkpt>
      <trkpt lat="45.70496" lon="6.18974">
        <ele>1870.4</ele>
        <time>2012-10-06T09:31:24Z</time>
      </trkpt>
      <trkpt lat="45.70483" lon="6.18976">
        <ele>1870.9</ele>
        <time>2012-10-06T09:31:39Z</time>
      </trkpt>
      <trkpt lat="45.70469" lon="6.18976">
        <ele>1873.3</ele>
        <time>2012-10-06T09:31:54Z</time>
      </trkpt>
      <trkpt lat="45.7046" lon="6.18979">
        <ele>1876.6</ele>
        <time>2012-10-06T09:32:06Z</time>
      </trkpt>
      <trkpt lat="45.70448" lon="6.18978">
        <ele>1878.6</ele>
        <time>2012-10-06T09:32:20Z</time>
      </trkpt>
      <trkpt lat="45.70439" lon="6.1898">
        <ele>1881.4</ele>
        <time>2012-10-06T09:32:32Z</time>
      </trkpt>
      <trkpt lat="45.70429" lon="6.18982">
        <ele>1883.8</ele>
        <time>2012-10-06T09:32:46Z</time>
      </trkpt>
      <trkpt lat="45.70424" lon="6.18988">
        <ele>1886.2</ele>
        <time>2012-10-06T09:33:00Z</time>
      </trkpt>
      <trkpt lat="45.7043" lon="6.18998">
        <ele>1887.7</ele>
        <time>2012-10-06T09:33:13Z</time>
      </trkpt>
      <trkpt lat="45.7043" lon="6.19">
        <ele>1886.7</ele>
        <time>2012-10-06T09:33:28Z</time>
      </trkpt>
      <trkpt lat="45.70433" lon="6.19003">
        <ele>1886.2</ele>
        <time>2012-10-06T09:33:40Z</time>
      </trkpt>
      <trkpt lat="45.70433" lon="6.19003">
        <ele>1886.7</ele>
        <time>2012-10-06T09:34:12Z</time>
      </trkpt>
      <trkpt lat="45.70433" lon="6.19003">
        <ele>1887.2</ele>
        <time>2012-10-06T09:34:40Z</time>
      </trkpt>
      <trkpt lat="45.70431" lon="6.19003">
        <ele>1887.2</ele>
        <time>2012-10-06T09:34:52Z</time>
      </trkpt>
      <trkpt lat="45.70432" lon="6.19003">
        <ele>1886.2</ele>
        <time>2012-10-06T09:35:06Z</time>
      </trkpt>
      <trkpt lat="45.70432" lon="6.19004">
        <ele>1886.7</ele>
        <time>2012-10-06T09:35:21Z</time>
      </trkpt>
      <trkpt lat="45.70433" lon="6.19003">
        <ele>1888.6</ele>
        <time>2012-10-06T09:35:49Z</time>
      </trkpt>
      <trkpt lat="45.70434" lon="6.19005">
        <ele>1890.1</ele>
        <time>2012-10-06T09:37:09Z</time>
      </trkpt>
      <trkpt lat="45.70435" lon="6.19006">
        <ele>1889.6</ele>
        <time>2012-10-06T09:37:43Z</time>
      </trkpt>
      <trkpt lat="45.70433" lon="6.19">
        <ele>1890.6</ele>
        <time>2012-10-06T09:37:59Z</time>
      </trkpt>
      <trkpt lat="45.70419" lon="6.18994">
        <ele>1890.1</ele>
        <time>2012-10-06T09:38:13Z</time>
      </trkpt>
      <trkpt lat="45.70402" lon="6.18984">
        <ele>1890.6</ele>
        <time>2012-10-06T09:38:32Z</time>
      </trkpt>
      <trkpt lat="45.70389" lon="6.18979">
        <ele>1891.5</ele>
        <time>2012-10-06T09:38:45Z</time>
      </trkpt>
      <trkpt lat="45.70382" lon="6.18974">
        <ele>1893</ele>
        <time>2012-10-06T09:39:00Z</time>
      </trkpt>
      <trkpt lat="45.70377" lon="6.1897">
        <ele>1892.5</ele>
        <time>2012-10-06T09:39:17Z</time>
      </trkpt>
      <trkpt lat="45.70373" lon="6.18968">
        <ele>1893</ele>
        <time>2012-10-06T09:39:21Z</time>
      </trkpt>
      <trkpt lat="45.7036" lon="6.18961">
        <ele>1892</ele>
        <time>2012-10-06T09:39:36Z</time>
      </trkpt>
      <trkpt lat="45.70352" lon="6.18957">
        <ele>1889.6</ele>
        <time>2012-10-06T09:39:50Z</time>
      </trkpt>
      <trkpt lat="45.70344" lon="6.18953">
        <ele>1886.7</ele>
        <time>2012-10-06T09:40:05Z</time>
      </trkpt>
      <trkpt lat="45.70332" lon="6.18949">
        <ele>1884.8</ele>
        <time>2012-10-06T09:40:19Z</time>
      </trkpt>
      <trkpt lat="45.70321" lon="6.18945">
        <ele>1882.4</ele>
        <time>2012-10-06T09:40:30Z</time>
      </trkpt>
      <trkpt lat="45.70302" lon="6.18941">
        <ele>1884.8</ele>
        <time>2012-10-06T09:40:47Z</time>
      </trkpt>
      <trkpt lat="45.70293" lon="6.18939">
        <ele>1881.9</ele>
        <time>2012-10-06T09:40:58Z</time>
      </trkpt>
      <trkpt lat="45.70286" lon="6.18937">
        <ele>1881</ele>
        <time>2012-10-06T09:41:05Z</time>
      </trkpt>
      <trkpt lat="45.70271" lon="6.18935">
        <ele>1880</ele>
        <time>2012-10-06T09:41:22Z</time>
      </trkpt>
      <trkpt lat="45.70265" lon="6.18933">
        <ele>1878.1</ele>
        <time>2012-10-06T09:41:29Z</time>
      </trkpt>
      <trkpt lat="45.70253" lon="6.18931">
        <ele>1876.2</ele>
        <time>2012-10-06T09:41:40Z</time>
      </trkpt>
      <trkpt lat="45.70246" lon="6.1893">
        <ele>1875.2</ele>
        <time>2012-10-06T09:41:51Z</time>
      </trkpt>
      <trkpt lat="45.70241" lon="6.18929">
        <ele>1871.8</ele>
        <time>2012-10-06T09:42:00Z</time>
      </trkpt>
      <trkpt lat="45.7024" lon="6.18929">
        <ele>1870.9</ele>
        <time>2012-10-06T09:42:02Z</time>
      </trkpt>
      <trkpt lat="45.70238" lon="6.18931">
        <ele>1869.4</ele>
        <time>2012-10-06T09:42:12Z</time>
      </trkpt>
      <trkpt lat="45.70235" lon="6.18931">
        <ele>1868.5</ele>
        <time>2012-10-06T09:42:21Z</time>
      </trkpt>
      <trkpt lat="45.70234" lon="6.18936">
        <ele>1866.5</ele>
        <time>2012-10-06T09:42:30Z</time>
      </trkpt>
      <trkpt lat="45.70232" lon="6.18937">
        <ele>1864.1</ele>
        <time>2012-10-06T09:42:40Z</time>
      </trkpt>
      <trkpt lat="45.70231" lon="6.18937">
        <ele>1862.2</ele>
        <time>2012-10-06T09:42:43Z</time>
      </trkpt>
      <trkpt lat="45.70226" lon="6.18938">
        <ele>1861.7</ele>
        <time>2012-10-06T09:42:52Z</time>
      </trkpt>
      <trkpt lat="45.70225" lon="6.18941">
        <ele>1859.3</ele>
        <time>2012-10-06T09:43:00Z</time>
      </trkpt>
      <trkpt lat="45.70221" lon="6.18941">
        <ele>1856.4</ele>
        <time>2012-10-06T09:43:06Z</time>
      </trkpt>
      <trkpt lat="45.70218" lon="6.18944">
        <ele>1855</ele>
        <time>2012-10-06T09:43:19Z</time>
      </trkpt>
      <trkpt lat="45.70217" lon="6.18944">
        <ele>1853.6</ele>
        <time>2012-10-06T09:43:22Z</time>
      </trkpt>
      <trkpt lat="45.70214" lon="6.18946">
        <ele>1852.1</ele>
        <time>2012-10-06T09:43:35Z</time>
      </trkpt>
      <trkpt lat="45.7021" lon="6.18944">
        <ele>1850.7</ele>
        <time>2012-10-06T09:43:46Z</time>
      </trkpt>
      <trkpt lat="45.70211" lon="6.18949">
        <ele>1848.3</ele>
        <time>2012-10-06T09:43:58Z</time>
      </trkpt>
      <trkpt lat="45.7021" lon="6.18949">
        <ele>1847.3</ele>
        <time>2012-10-06T09:44:03Z</time>
      </trkpt>
      <trkpt lat="45.70206" lon="6.18949">
        <ele>1844.9</ele>
        <time>2012-10-06T09:44:12Z</time>
      </trkpt>
      <trkpt lat="45.70203" lon="6.18946">
        <ele>1841.5</ele>
        <time>2012-10-06T09:44:19Z</time>
      </trkpt>
      <trkpt lat="45.70202" lon="6.18947">
        <ele>1844.9</ele>
        <time>2012-10-06T09:44:21Z</time>
      </trkpt>
      <trkpt lat="45.70202" lon="6.18948">
        <ele>1844.4</ele>
        <time>2012-10-06T09:44:22Z</time>
      </trkpt>
      <trkpt lat="45.702" lon="6.1895">
        <ele>1841.5</ele>
        <time>2012-10-06T09:44:29Z</time>
      </trkpt>
      <trkpt lat="45.70197" lon="6.18949">
        <ele>1839.6</ele>
        <time>2012-10-06T09:44:37Z</time>
      </trkpt>
      <trkpt lat="45.70196" lon="6.18953">
        <ele>1837.2</ele>
        <time>2012-10-06T09:44:44Z</time>
      </trkpt>
      <trkpt lat="45.70192" lon="6.18954">
        <ele>1835.3</ele>
        <time>2012-10-06T09:44:54Z</time>
      </trkpt>
      <trkpt lat="45.7019" lon="6.18955">
        <ele>1835.3</ele>
        <time>2012-10-06T09:45:02Z</time>
      </trkpt>
      <trkpt lat="45.70188" lon="6.18956">
        <ele>1831.9</ele>
        <time>2012-10-06T09:45:11Z</time>
      </trkpt>
      <trkpt lat="45.70185" lon="6.18955">
        <ele>1830</ele>
        <time>2012-10-06T09:45:16Z</time>
      </trkpt>
      <trkpt lat="45.70182" lon="6.18956">
        <ele>1830</ele>
        <time>2012-10-06T09:45:30Z</time>
      </trkpt>
      <trkpt lat="45.70183" lon="6.1896">
        <ele>1830.5</ele>
        <time>2012-10-06T09:45:38Z</time>
      </trkpt>
      <trkpt lat="45.70182" lon="6.1896">
        <ele>1829</ele>
        <time>2012-10-06T09:45:41Z</time>
      </trkpt>
      <trkpt lat="45.70179" lon="6.1896">
        <ele>1828.6</ele>
        <time>2012-10-06T09:45:49Z</time>
      </trkpt>
      <trkpt lat="45.70177" lon="6.1896">
        <ele>1827.1</ele>
        <time>2012-10-06T09:45:51Z</time>
      </trkpt>
      <trkpt lat="45.70176" lon="6.18965">
        <ele>1826.2</ele>
        <time>2012-10-06T09:46:02Z</time>
      </trkpt>
      <trkpt lat="45.70172" lon="6.18968">
        <ele>1824.2</ele>
        <time>2012-10-06T09:46:13Z</time>
      </trkpt>
      <trkpt lat="45.7017" lon="6.18969">
        <ele>1821.4</ele>
        <time>2012-10-06T09:46:19Z</time>
      </trkpt>
      <trkpt lat="45.70165" lon="6.18974">
        <ele>1819</ele>
        <time>2012-10-06T09:46:30Z</time>
      </trkpt>
      <trkpt lat="45.70155" lon="6.1898">
        <ele>1817</ele>
        <time>2012-10-06T09:46:43Z</time>
      </trkpt>
      <trkpt lat="45.70157" lon="6.18985">
        <ele>1816.1</ele>
        <time>2012-10-06T09:46:51Z</time>
      </trkpt>
      <trkpt lat="45.7016" lon="6.18987">
        <ele>1813.2</ele>
        <time>2012-10-06T09:46:59Z</time>
      </trkpt>
      <trkpt lat="45.70157" lon="6.18986">
        <ele>1813.2</ele>
        <time>2012-10-06T09:47:31Z</time>
      </trkpt>
      <trkpt lat="45.70155" lon="6.18986">
        <ele>1814.1</ele>
        <time>2012-10-06T09:49:29Z</time>
      </trkpt>
      <trkpt lat="45.70151" lon="6.18989">
        <ele>1813.2</ele>
        <time>2012-10-06T09:49:51Z</time>
      </trkpt>
      <trkpt lat="45.70146" lon="6.18991">
        <ele>1813.2</ele>
        <time>2012-10-06T09:50:05Z</time>
      </trkpt>
      <trkpt lat="45.70144" lon="6.18991">
        <ele>1811.7</ele>
        <time>2012-10-06T09:50:09Z</time>
      </trkpt>
      <trkpt lat="45.70133" lon="6.18995">
        <ele>1810.3</ele>
        <time>2012-10-06T09:50:24Z</time>
      </trkpt>
      <trkpt lat="45.70129" lon="6.18996">
        <ele>1809.3</ele>
        <time>2012-10-06T09:50:34Z</time>
      </trkpt>
      <trkpt lat="45.70125" lon="6.18989">
        <ele>1808.9</ele>
        <time>2012-10-06T09:50:44Z</time>
      </trkpt>
      <trkpt lat="45.70119" lon="6.18984">
        <ele>1806.9</ele>
        <time>2012-10-06T09:50:54Z</time>
      </trkpt>
      <trkpt lat="45.70115" lon="6.1898">
        <ele>1806</ele>
        <time>2012-10-06T09:51:00Z</time>
      </trkpt>
      <trkpt lat="45.70103" lon="6.18967">
        <ele>1806.5</ele>
        <time>2012-10-06T09:51:14Z</time>
      </trkpt>
      <trkpt lat="45.70101" lon="6.18967">
        <ele>1806.9</ele>
        <time>2012-10-06T09:51:17Z</time>
      </trkpt>
      <trkpt lat="45.70094" lon="6.18968">
        <ele>1807.9</ele>
        <time>2012-10-06T09:51:25Z</time>
      </trkpt>
      <trkpt lat="45.7009" lon="6.18968">
        <ele>1808.4</ele>
        <time>2012-10-06T09:51:29Z</time>
      </trkpt>
      <trkpt lat="45.70077" lon="6.18969">
        <ele>1808.9</ele>
        <time>2012-10-06T09:51:43Z</time>
      </trkpt>
      <trkpt lat="45.70071" lon="6.18969">
        <ele>1809.8</ele>
        <time>2012-10-06T09:51:51Z</time>
      </trkpt>
      <trkpt lat="45.70058" lon="6.18963">
        <ele>1809.3</ele>
        <time>2012-10-06T09:52:04Z</time>
      </trkpt>
      <trkpt lat="45.7005" lon="6.18956">
        <ele>1810.8</ele>
        <time>2012-10-06T09:52:15Z</time>
      </trkpt>
      <trkpt lat="45.70045" lon="6.18951">
        <ele>1810.3</ele>
        <time>2012-10-06T09:52:22Z</time>
      </trkpt>
      <trkpt lat="45.70035" lon="6.18951">
        <ele>1810.3</ele>
        <time>2012-10-06T09:52:35Z</time>
      </trkpt>
      <trkpt lat="45.70028" lon="6.18946">
        <ele>1809.8</ele>
        <time>2012-10-06T09:52:49Z</time>
      </trkpt>
      <trkpt lat="45.70021" lon="6.18948">
        <ele>1811.7</ele>
        <time>2012-10-06T09:52:59Z</time>
      </trkpt>
      <trkpt lat="45.70021" lon="6.18946">
        <ele>1811.3</ele>
        <time>2012-10-06T09:53:15Z</time>
      </trkpt>
      <trkpt lat="45.70018" lon="6.18944">
        <ele>1811.7</ele>
        <time>2012-10-06T09:53:18Z</time>
      </trkpt>
      <trkpt lat="45.70006" lon="6.18944">
        <ele>1811.3</ele>
        <time>2012-10-06T09:53:30Z</time>
      </trkpt>
      <trkpt lat="45.69998" lon="6.18941">
        <ele>1813.2</ele>
        <time>2012-10-06T09:53:43Z</time>
      </trkpt>
      <trkpt lat="45.69997" lon="6.1894">
        <ele>1812.7</ele>
        <time>2012-10-06T09:54:05Z</time>
      </trkpt>
      <trkpt lat="45.69992" lon="6.18938">
        <ele>1814.6</ele>
        <time>2012-10-06T09:54:12Z</time>
      </trkpt>
      <trkpt lat="45.69989" lon="6.18937">
        <ele>1815.1</ele>
        <time>2012-10-06T09:54:15Z</time>
      </trkpt>
      <trkpt lat="45.69976" lon="6.18933">
        <ele>1817.5</ele>
        <time>2012-10-06T09:54:26Z</time>
      </trkpt>
      <trkpt lat="45.69962" lon="6.18927">
        <ele>1819.9</ele>
        <time>2012-10-06T09:54:39Z</time>
      </trkpt>
      <trkpt lat="45.69954" lon="6.18926">
        <ele>1821.8</ele>
        <time>2012-10-06T09:54:49Z</time>
      </trkpt>
      <trkpt lat="45.69949" lon="6.18927">
        <ele>1824.2</ele>
        <time>2012-10-06T09:54:55Z</time>
      </trkpt>
      <trkpt lat="45.69939" lon="6.18924">
        <ele>1824.7</ele>
        <time>2012-10-06T09:55:07Z</time>
      </trkpt>
      <trkpt lat="45.6993" lon="6.18923">
        <ele>1826.6</ele>
        <time>2012-10-06T09:55:18Z</time>
      </trkpt>
      <trkpt lat="45.69926" lon="6.18924">
        <ele>1827.6</ele>
        <time>2012-10-06T09:55:22Z</time>
      </trkpt>
      <trkpt lat="45.6991" lon="6.18919">
        <ele>1828.6</ele>
        <time>2012-10-06T09:55:38Z</time>
      </trkpt>
      <trkpt lat="45.69899" lon="6.18918">
        <ele>1830</ele>
        <time>2012-10-06T09:55:48Z</time>
      </trkpt>
      <trkpt lat="45.69884" lon="6.18915">
        <ele>1831.9</ele>
        <time>2012-10-06T09:56:01Z</time>
      </trkpt>
      <trkpt lat="45.69875" lon="6.18914">
        <ele>1833.9</ele>
        <time>2012-10-06T09:56:12Z</time>
      </trkpt>
      <trkpt lat="45.69862" lon="6.18912">
        <ele>1836.3</ele>
        <time>2012-10-06T09:56:26Z</time>
      </trkpt>
      <trkpt lat="45.69853" lon="6.18915">
        <ele>1836.3</ele>
        <time>2012-10-06T09:56:35Z</time>
      </trkpt>
      <trkpt lat="45.6984" lon="6.18922">
        <ele>1837.7</ele>
        <time>2012-10-06T09:56:48Z</time>
      </trkpt>
      <trkpt lat="45.69837" lon="6.18923">
        <ele>1838.2</ele>
        <time>2012-10-06T09:56:51Z</time>
      </trkpt>
      <trkpt lat="45.69836" lon="6.18928">
        <ele>1839.6</ele>
        <time>2012-10-06T09:56:55Z</time>
      </trkpt>
      <trkpt lat="45.69832" lon="6.18936">
        <ele>1842.5</ele>
        <time>2012-10-06T09:57:05Z</time>
      </trkpt>
      <trkpt lat="45.69826" lon="6.18943">
        <ele>1845.9</ele>
        <time>2012-10-06T09:57:15Z</time>
      </trkpt>
      <trkpt lat="45.69825" lon="6.18944">
        <ele>1846.3</ele>
        <time>2012-10-06T09:57:16Z</time>
      </trkpt>
      <trkpt lat="45.69815" lon="6.18955">
        <ele>1847.3</ele>
        <time>2012-10-06T09:57:30Z</time>
      </trkpt>
      <trkpt lat="45.69814" lon="6.18956">
        <ele>1847.3</ele>
        <time>2012-10-06T09:57:45Z</time>
      </trkpt>
      <trkpt lat="45.69806" lon="6.18958">
        <ele>1848.8</ele>
        <time>2012-10-06T09:57:53Z</time>
      </trkpt>
      <trkpt lat="45.69801" lon="6.1897">
        <ele>1851.6</ele>
        <time>2012-10-06T09:58:08Z</time>
      </trkpt>
      <trkpt lat="45.69799" lon="6.1898">
        <ele>1855.5</ele>
        <time>2012-10-06T09:58:20Z</time>
      </trkpt>
      <trkpt lat="45.69791" lon="6.18991">
        <ele>1856</ele>
        <time>2012-10-06T09:58:32Z</time>
      </trkpt>
      <trkpt lat="45.69778" lon="6.19009">
        <ele>1856.9</ele>
        <time>2012-10-06T09:58:47Z</time>
      </trkpt>
      <trkpt lat="45.69776" lon="6.19012">
        <ele>1858.4</ele>
        <time>2012-10-06T09:58:50Z</time>
      </trkpt>
      <trkpt lat="45.69763" lon="6.1902">
        <ele>1858.8</ele>
        <time>2012-10-06T09:59:03Z</time>
      </trkpt>
      <trkpt lat="45.69746" lon="6.19025">
        <ele>1858.8</ele>
        <time>2012-10-06T09:59:20Z</time>
      </trkpt>
      <trkpt lat="45.69738" lon="6.19026">
        <ele>1862.2</ele>
        <time>2012-10-06T09:59:32Z</time>
      </trkpt>
      <trkpt lat="45.69737" lon="6.19026">
        <ele>1862.2</ele>
        <time>2012-10-06T09:59:33Z</time>
      </trkpt>
      <trkpt lat="45.69735" lon="6.19029">
        <ele>1863.7</ele>
        <time>2012-10-06T09:59:38Z</time>
      </trkpt>
      <trkpt lat="45.69728" lon="6.19035">
        <ele>1867.5</ele>
        <time>2012-10-06T09:59:52Z</time>
      </trkpt>
      <trkpt lat="45.69716" lon="6.19038">
        <ele>1870.4</ele>
        <time>2012-10-06T10:00:09Z</time>
      </trkpt>
      <trkpt lat="45.69715" lon="6.19038">
        <ele>1870.9</ele>
        <time>2012-10-06T10:00:31Z</time>
      </trkpt>
      <trkpt lat="45.69713" lon="6.19039">
        <ele>1870.9</ele>
        <time>2012-10-06T10:01:01Z</time>
      </trkpt>
      <trkpt lat="45.69703" lon="6.19044">
        <ele>1874.2</ele>
        <time>2012-10-06T10:01:14Z</time>
      </trkpt>
      <trkpt lat="45.69697" lon="6.19053">
        <ele>1876.2</ele>
        <time>2012-10-06T10:01:27Z</time>
      </trkpt>
      <trkpt lat="45.69692" lon="6.19057">
        <ele>1880.5</ele>
        <time>2012-10-06T10:01:38Z</time>
      </trkpt>
      <trkpt lat="45.69692" lon="6.19057">
        <ele>1880.5</ele>
        <time>2012-10-06T10:01:39Z</time>
      </trkpt>
      <trkpt lat="45.69686" lon="6.19059">
        <ele>1881.9</ele>
        <time>2012-10-06T10:01:52Z</time>
      </trkpt>
      <trkpt lat="45.69679" lon="6.19062">
        <ele>1882.9</ele>
        <time>2012-10-06T10:02:04Z</time>
      </trkpt>
      <trkpt lat="45.69675" lon="6.19058">
        <ele>1885.8</ele>
        <time>2012-10-06T10:02:12Z</time>
      </trkpt>
      <trkpt lat="45.69674" lon="6.19057">
        <ele>1885.8</ele>
        <time>2012-10-06T10:02:13Z</time>
      </trkpt>
      <trkpt lat="45.6967" lon="6.19053">
        <ele>1887.2</ele>
        <time>2012-10-06T10:02:26Z</time>
      </trkpt>
      <trkpt lat="45.6967" lon="6.19056">
        <ele>1888.6</ele>
        <time>2012-10-06T10:02:39Z</time>
      </trkpt>
      <trkpt lat="45.69667" lon="6.19063">
        <ele>1892</ele>
        <time>2012-10-06T10:02:53Z</time>
      </trkpt>
      <trkpt lat="45.69662" lon="6.1906">
        <ele>1894.4</ele>
        <time>2012-10-06T10:03:06Z</time>
      </trkpt>
      <trkpt lat="45.6966" lon="6.19058">
        <ele>1896.8</ele>
        <time>2012-10-06T10:03:19Z</time>
      </trkpt>
      <trkpt lat="45.69656" lon="6.1906">
        <ele>1898.7</ele>
        <time>2012-10-06T10:03:34Z</time>
      </trkpt>
      <trkpt lat="45.69648" lon="6.19069">
        <ele>1898.7</ele>
        <time>2012-10-06T10:03:45Z</time>
      </trkpt>
      <trkpt lat="45.69645" lon="6.19071">
        <ele>1899.7</ele>
        <time>2012-10-06T10:03:48Z</time>
      </trkpt>
      <trkpt lat="45.69632" lon="6.19082">
        <ele>1903.1</ele>
        <time>2012-10-06T10:04:01Z</time>
      </trkpt>
      <trkpt lat="45.69617" lon="6.19084">
        <ele>1904.5</ele>
        <time>2012-10-06T10:04:15Z</time>
      </trkpt>
      <trkpt lat="45.6961" lon="6.19086">
        <ele>1905</ele>
        <time>2012-10-06T10:04:22Z</time>
      </trkpt>
      <trkpt lat="45.69592" lon="6.19091">
        <ele>1905</ele>
        <time>2012-10-06T10:04:38Z</time>
      </trkpt>
      <trkpt lat="45.69571" lon="6.19097">
        <ele>1906.4</ele>
        <time>2012-10-06T10:04:55Z</time>
      </trkpt>
      <trkpt lat="45.6955" lon="6.19105">
        <ele>1909.3</ele>
        <time>2012-10-06T10:05:12Z</time>
      </trkpt>
      <trkpt lat="45.69532" lon="6.19111">
        <ele>1910.3</ele>
        <time>2012-10-06T10:05:27Z</time>
      </trkpt>
      <trkpt lat="45.69515" lon="6.19127">
        <ele>1908.4</ele>
        <time>2012-10-06T10:05:43Z</time>
      </trkpt>
      <trkpt lat="45.69499" lon="6.19143">
        <ele>1908.8</ele>
        <time>2012-10-06T10:06:01Z</time>
      </trkpt>
      <trkpt lat="45.69497" lon="6.19147">
        <ele>1912.2</ele>
        <time>2012-10-06T10:06:58Z</time>
      </trkpt>
      <trkpt lat="45.69498" lon="6.19147">
        <ele>1911.7</ele>
        <time>2012-10-06T10:08:15Z</time>
      </trkpt>
      <trkpt lat="45.69496" lon="6.19149">
        <ele>1912.2</ele>
        <time>2012-10-06T10:08:28Z</time>
      </trkpt>
      <trkpt lat="45.69491" lon="6.19161">
        <ele>1914.1</ele>
        <time>2012-10-06T10:08:39Z</time>
      </trkpt>
      <trkpt lat="45.69489" lon="6.19168">
        <ele>1915.1</ele>
        <time>2012-10-06T10:08:45Z</time>
      </trkpt>
      <trkpt lat="45.69484" lon="6.19175">
        <ele>1918</ele>
        <time>2012-10-06T10:08:54Z</time>
      </trkpt>
      <trkpt lat="45.69478" lon="6.19185">
        <ele>1919.4</ele>
        <time>2012-10-06T10:09:09Z</time>
      </trkpt>
      <trkpt lat="45.69468" lon="6.19191">
        <ele>1919.9</ele>
        <time>2012-10-06T10:09:23Z</time>
      </trkpt>
      <trkpt lat="45.69458" lon="6.19202">
        <ele>1922.8</ele>
        <time>2012-10-06T10:09:39Z</time>
      </trkpt>
      <trkpt lat="45.69455" lon="6.1921">
        <ele>1923.7</ele>
        <time>2012-10-06T10:09:47Z</time>
      </trkpt>
      <trkpt lat="45.69451" lon="6.19223">
        <ele>1927.6</ele>
        <time>2012-10-06T10:10:02Z</time>
      </trkpt>
      <trkpt lat="45.69451" lon="6.19225">
        <ele>1928.5</ele>
        <time>2012-10-06T10:10:07Z</time>
      </trkpt>
      <trkpt lat="45.69446" lon="6.19233">
        <ele>1929.5</ele>
        <time>2012-10-06T10:10:21Z</time>
      </trkpt>
      <trkpt lat="45.69439" lon="6.1924">
        <ele>1933.3</ele>
        <time>2012-10-06T10:10:33Z</time>
      </trkpt>
      <trkpt lat="45.69439" lon="6.1924">
        <ele>1933.3</ele>
        <time>2012-10-06T10:10:34Z</time>
      </trkpt>
      <trkpt lat="45.69438" lon="6.19243">
        <ele>1934.8</ele>
        <time>2012-10-06T10:10:37Z</time>
      </trkpt>
      <trkpt lat="45.69431" lon="6.19253">
        <ele>1935.8</ele>
        <time>2012-10-06T10:10:51Z</time>
      </trkpt>
      <trkpt lat="45.69424" lon="6.19263">
        <ele>1939.1</ele>
        <time>2012-10-06T10:11:05Z</time>
      </trkpt>
      <trkpt lat="45.69417" lon="6.1927">
        <ele>1942</ele>
        <time>2012-10-06T10:11:20Z</time>
      </trkpt>
      <trkpt lat="45.69415" lon="6.19271">
        <ele>1943.9</ele>
        <time>2012-10-06T10:11:34Z</time>
      </trkpt>
      <trkpt lat="45.69416" lon="6.19271">
        <ele>1944.9</ele>
        <time>2012-10-06T10:12:37Z</time>
      </trkpt>
      <trkpt lat="45.69422" lon="6.19275">
        <ele>1946.8</ele>
        <time>2012-10-06T10:12:55Z</time>
      </trkpt>
      <trkpt lat="45.6943" lon="6.19278">
        <ele>1950.2</ele>
        <time>2012-10-06T10:13:07Z</time>
      </trkpt>
      <trkpt lat="45.69437" lon="6.1928">
        <ele>1951.1</ele>
        <time>2012-10-06T10:13:19Z</time>
      </trkpt>
      <trkpt lat="45.69445" lon="6.19279">
        <ele>1954</ele>
        <time>2012-10-06T10:13:30Z</time>
      </trkpt>
      <trkpt lat="45.69451" lon="6.19277">
        <ele>1955.5</ele>
        <time>2012-10-06T10:13:38Z</time>
      </trkpt>
      <trkpt lat="45.69456" lon="6.19273">
        <ele>1955.9</ele>
        <time>2012-10-06T10:13:44Z</time>
      </trkpt>
      <trkpt lat="45.69467" lon="6.19278">
        <ele>1960.3</ele>
        <time>2012-10-06T10:13:56Z</time>
      </trkpt>
      <trkpt lat="45.69469" lon="6.19277">
        <ele>1960.7</ele>
        <time>2012-10-06T10:13:58Z</time>
      </trkpt>
      <trkpt lat="45.69478" lon="6.19285">
        <ele>1963.1</ele>
        <time>2012-10-06T10:14:10Z</time>
      </trkpt>
      <trkpt lat="45.69483" lon="6.1929">
        <ele>1963.6</ele>
        <time>2012-10-06T10:14:17Z</time>
      </trkpt>
      <trkpt lat="45.69486" lon="6.19295">
        <ele>1964.6</ele>
        <time>2012-10-06T10:14:23Z</time>
      </trkpt>
      <trkpt lat="45.69493" lon="6.19305">
        <ele>1967.5</ele>
        <time>2012-10-06T10:14:34Z</time>
      </trkpt>
      <trkpt lat="45.69494" lon="6.19305">
        <ele>1967.5</ele>
        <time>2012-10-06T10:14:35Z</time>
      </trkpt>
      <trkpt lat="45.69498" lon="6.19309">
        <ele>1968.4</ele>
        <time>2012-10-06T10:14:41Z</time>
      </trkpt>
      <trkpt lat="45.69509" lon="6.19316">
        <ele>1970.8</ele>
        <time>2012-10-06T10:14:54Z</time>
      </trkpt>
      <trkpt lat="45.69513" lon="6.19322">
        <ele>1974.2</ele>
        <time>2012-10-06T10:15:01Z</time>
      </trkpt>
      <trkpt lat="45.69514" lon="6.19323">
        <ele>1973.7</ele>
        <time>2012-10-06T10:15:02Z</time>
      </trkpt>
      <trkpt lat="45.69518" lon="6.1933">
        <ele>1975.2</ele>
        <time>2012-10-06T10:15:14Z</time>
      </trkpt>
      <trkpt lat="45.69511" lon="6.19327">
        <ele>1977.6</ele>
        <time>2012-10-06T10:15:22Z</time>
      </trkpt>
      <trkpt lat="45.69502" lon="6.19326">
        <ele>1980.5</ele>
        <time>2012-10-06T10:15:34Z</time>
      </trkpt>
      <trkpt lat="45.69493" lon="6.19328">
        <ele>1981.9</ele>
        <time>2012-10-06T10:15:46Z</time>
      </trkpt>
      <trkpt lat="45.69482" lon="6.19332">
        <ele>1984.3</ele>
        <time>2012-10-06T10:16:02Z</time>
      </trkpt>
      <trkpt lat="45.69475" lon="6.19332">
        <ele>1985.7</ele>
        <time>2012-10-06T10:16:14Z</time>
      </trkpt>
      <trkpt lat="45.69471" lon="6.19332">
        <ele>1988.1</ele>
        <time>2012-10-06T10:16:20Z</time>
      </trkpt>
      <trkpt lat="45.69461" lon="6.19335">
        <ele>1991</ele>
        <time>2012-10-06T10:16:34Z</time>
      </trkpt>
      <trkpt lat="45.69449" lon="6.19337">
        <ele>1994.4</ele>
        <time>2012-10-06T10:16:50Z</time>
      </trkpt>
      <trkpt lat="45.69439" lon="6.19337">
        <ele>1995.8</ele>
        <time>2012-10-06T10:17:04Z</time>
      </trkpt>
      <trkpt lat="45.69431" lon="6.19339">
        <ele>1998.2</ele>
        <time>2012-10-06T10:17:17Z</time>
      </trkpt>
      <trkpt lat="45.69429" lon="6.1934">
        <ele>1998.2</ele>
        <time>2012-10-06T10:17:33Z</time>
      </trkpt>
      <trkpt lat="45.6943" lon="6.19343">
        <ele>2000.2</ele>
        <time>2012-10-06T10:18:07Z</time>
      </trkpt>
      <trkpt lat="45.69436" lon="6.19346">
        <ele>2001.6</ele>
        <time>2012-10-06T10:18:14Z</time>
      </trkpt>
      <trkpt lat="45.69441" lon="6.19352">
        <ele>2003.5</ele>
        <time>2012-10-06T10:18:22Z</time>
      </trkpt>
      <trkpt lat="45.6945" lon="6.19362">
        <ele>2006.9</ele>
        <time>2012-10-06T10:18:37Z</time>
      </trkpt>
      <trkpt lat="45.69457" lon="6.19369">
        <ele>2009.8</ele>
        <time>2012-10-06T10:18:48Z</time>
      </trkpt>
      <trkpt lat="45.69466" lon="6.19379">
        <ele>2012.2</ele>
        <time>2012-10-06T10:19:02Z</time>
      </trkpt>
      <trkpt lat="45.69472" lon="6.19385">
        <ele>2015.1</ele>
        <time>2012-10-06T10:19:13Z</time>
      </trkpt>
      <trkpt lat="45.6947" lon="6.19388">
        <ele>2017.5</ele>
        <time>2012-10-06T10:19:25Z</time>
      </trkpt>
      <trkpt lat="45.6946" lon="6.19391">
        <ele>2019.9</ele>
        <time>2012-10-06T10:19:40Z</time>
      </trkpt>
      <trkpt lat="45.69451" lon="6.19392">
        <ele>2021.3</ele>
        <time>2012-10-06T10:19:53Z</time>
      </trkpt>
      <trkpt lat="45.69444" lon="6.19393">
        <ele>2024.2</ele>
        <time>2012-10-06T10:20:03Z</time>
      </trkpt>
      <trkpt lat="45.69433" lon="6.19396">
        <ele>2027.1</ele>
        <time>2012-10-06T10:20:17Z</time>
      </trkpt>
      <trkpt lat="45.69422" lon="6.19399">
        <ele>2030.4</ele>
        <time>2012-10-06T10:20:33Z</time>
      </trkpt>
      <trkpt lat="45.69414" lon="6.19403">
        <ele>2033.3</ele>
        <time>2012-10-06T10:20:46Z</time>
      </trkpt>
      <trkpt lat="45.69404" lon="6.19408">
        <ele>2035.7</ele>
        <time>2012-10-06T10:21:01Z</time>
      </trkpt>
      <trkpt lat="45.69394" lon="6.19412">
        <ele>2038.6</ele>
        <time>2012-10-06T10:21:14Z</time>
      </trkpt>
      <trkpt lat="45.69383" lon="6.1942">
        <ele>2040.1</ele>
        <time>2012-10-06T10:21:31Z</time>
      </trkpt>
      <trkpt lat="45.6938" lon="6.19425">
        <ele>2042.9</ele>
        <time>2012-10-06T10:21:40Z</time>
      </trkpt>
      <trkpt lat="45.69371" lon="6.19434">
        <ele>2043.9</ele>
        <time>2012-10-06T10:21:55Z</time>
      </trkpt>
      <trkpt lat="45.69368" lon="6.1944">
        <ele>2047.7</ele>
        <time>2012-10-06T10:22:08Z</time>
      </trkpt>
      <trkpt lat="45.69368" lon="6.1944">
        <ele>2047.3</ele>
        <time>2012-10-06T10:22:09Z</time>
      </trkpt>
      <trkpt lat="45.69373" lon="6.1944">
        <ele>2049.7</ele>
        <time>2012-10-06T10:22:21Z</time>
      </trkpt>
      <trkpt lat="45.69378" lon="6.19435">
        <ele>2051.1</ele>
        <time>2012-10-06T10:23:28Z</time>
      </trkpt>
      <trkpt lat="45.69385" lon="6.19435">
        <ele>2054.5</ele>
        <time>2012-10-06T10:23:36Z</time>
      </trkpt>
      <trkpt lat="45.6939" lon="6.19436">
        <ele>2055.4</ele>
        <time>2012-10-06T10:23:42Z</time>
      </trkpt>
      <trkpt lat="45.69398" lon="6.19442">
        <ele>2056.9</ele>
        <time>2012-10-06T10:23:54Z</time>
      </trkpt>
      <trkpt lat="45.69404" lon="6.19446">
        <ele>2060.2</ele>
        <time>2012-10-06T10:24:04Z</time>
      </trkpt>
      <trkpt lat="45.69413" lon="6.19452">
        <ele>2062.2</ele>
        <time>2012-10-06T10:24:17Z</time>
      </trkpt>
      <trkpt lat="45.69412" lon="6.19456">
        <ele>2064.1</ele>
        <time>2012-10-06T10:24:28Z</time>
      </trkpt>
      <trkpt lat="45.69411" lon="6.19457">
        <ele>2065</ele>
        <time>2012-10-06T10:24:30Z</time>
      </trkpt>
      <trkpt lat="45.694" lon="6.19466">
        <ele>2067.5</ele>
        <time>2012-10-06T10:24:47Z</time>
      </trkpt>
      <trkpt lat="45.69395" lon="6.19469">
        <ele>2070.3</ele>
        <time>2012-10-06T10:24:55Z</time>
      </trkpt>
      <trkpt lat="45.69386" lon="6.19475">
        <ele>2071.8</ele>
        <time>2012-10-06T10:25:09Z</time>
      </trkpt>
      <trkpt lat="45.69378" lon="6.19482">
        <ele>2073.7</ele>
        <time>2012-10-06T10:25:23Z</time>
      </trkpt>
      <trkpt lat="45.69368" lon="6.19487">
        <ele>2076.1</ele>
        <time>2012-10-06T10:25:39Z</time>
      </trkpt>
      <trkpt lat="45.69357" lon="6.19489">
        <ele>2078</ele>
        <time>2012-10-06T10:25:53Z</time>
      </trkpt>
      <trkpt lat="45.69355" lon="6.19489">
        <ele>2079</ele>
        <time>2012-10-06T10:25:55Z</time>
      </trkpt>
      <trkpt lat="45.69341" lon="6.19488">
        <ele>2081.4</ele>
        <time>2012-10-06T10:26:10Z</time>
      </trkpt>
      <trkpt lat="45.69329" lon="6.19485">
        <ele>2082.8</ele>
        <time>2012-10-06T10:26:25Z</time>
      </trkpt>
      <trkpt lat="45.6932" lon="6.19482">
        <ele>2085.7</ele>
        <time>2012-10-06T10:26:37Z</time>
      </trkpt>
      <trkpt lat="45.69318" lon="6.19482">
        <ele>2086.2</ele>
        <time>2012-10-06T10:26:39Z</time>
      </trkpt>
      <trkpt lat="45.69309" lon="6.19481">
        <ele>2089.1</ele>
        <time>2012-10-06T10:26:51Z</time>
      </trkpt>
      <trkpt lat="45.693" lon="6.19481">
        <ele>2090</ele>
        <time>2012-10-06T10:27:03Z</time>
      </trkpt>
      <trkpt lat="45.69291" lon="6.19481">
        <ele>2093.4</ele>
        <time>2012-10-06T10:27:14Z</time>
      </trkpt>
      <trkpt lat="45.69282" lon="6.19482">
        <ele>2094.9</ele>
        <time>2012-10-06T10:27:26Z</time>
      </trkpt>
      <trkpt lat="45.69269" lon="6.19486">
        <ele>2097.7</ele>
        <time>2012-10-06T10:27:40Z</time>
      </trkpt>
      <trkpt lat="45.6926" lon="6.19491">
        <ele>2098.7</ele>
        <time>2012-10-06T10:27:53Z</time>
      </trkpt>
      <trkpt lat="45.69259" lon="6.19491">
        <ele>2099.2</ele>
        <time>2012-10-06T10:28:09Z</time>
      </trkpt>
      <trkpt lat="45.69259" lon="6.19491">
        <ele>2098.7</ele>
        <time>2012-10-06T10:28:40Z</time>
      </trkpt>
      <trkpt lat="45.69252" lon="6.19495">
        <ele>2100.1</ele>
        <time>2012-10-06T10:29:08Z</time>
      </trkpt>
      <trkpt lat="45.6924" lon="6.19503">
        <ele>2101.1</ele>
        <time>2012-10-06T10:29:20Z</time>
      </trkpt>
      <trkpt lat="45.6923" lon="6.19518">
        <ele>2102.5</ele>
        <time>2012-10-06T10:29:36Z</time>
      </trkpt>
      <trkpt lat="45.6923" lon="6.19519">
        <ele>2103.5</ele>
        <time>2012-10-06T10:29:38Z</time>
      </trkpt>
      <trkpt lat="45.69222" lon="6.19526">
        <ele>2104.9</ele>
        <time>2012-10-06T10:29:49Z</time>
      </trkpt>
      <trkpt lat="45.69217" lon="6.19537">
        <ele>2107.8</ele>
        <time>2012-10-06T10:30:02Z</time>
      </trkpt>
      <trkpt lat="45.69212" lon="6.19545">
        <ele>2109.8</ele>
        <time>2012-10-06T10:30:15Z</time>
      </trkpt>
      <trkpt lat="45.69208" lon="6.19554">
        <ele>2111.2</ele>
        <time>2012-10-06T10:30:27Z</time>
      </trkpt>
      <trkpt lat="45.69206" lon="6.19559">
        <ele>2113.1</ele>
        <time>2012-10-06T10:30:37Z</time>
      </trkpt>
      <trkpt lat="45.69201" lon="6.19566">
        <ele>2116.5</ele>
        <time>2012-10-06T10:30:52Z</time>
      </trkpt>
      <trkpt lat="45.69193" lon="6.19574">
        <ele>2117.9</ele>
        <time>2012-10-06T10:31:05Z</time>
      </trkpt>
      <trkpt lat="45.69188" lon="6.19584">
        <ele>2121.3</ele>
        <time>2012-10-06T10:31:19Z</time>
      </trkpt>
      <trkpt lat="45.69186" lon="6.19593">
        <ele>2123.2</ele>
        <time>2012-10-06T10:31:33Z</time>
      </trkpt>
      <trkpt lat="45.6918" lon="6.196">
        <ele>2125.1</ele>
        <time>2012-10-06T10:31:45Z</time>
      </trkpt>
      <trkpt lat="45.69172" lon="6.196">
        <ele>2127.5</ele>
        <time>2012-10-06T10:31:58Z</time>
      </trkpt>
      <trkpt lat="45.6917" lon="6.19607">
        <ele>2129.9</ele>
        <time>2012-10-06T10:32:10Z</time>
      </trkpt>
      <trkpt lat="45.69166" lon="6.19614">
        <ele>2132.8</ele>
        <time>2012-10-06T10:32:19Z</time>
      </trkpt>
      <trkpt lat="45.69162" lon="6.19623">
        <ele>2135.2</ele>
        <time>2012-10-06T10:32:32Z</time>
      </trkpt>
      <trkpt lat="45.6915" lon="6.1962">
        <ele>2137.6</ele>
        <time>2012-10-06T10:32:48Z</time>
      </trkpt>
      <trkpt lat="45.69149" lon="6.19622">
        <ele>2137.1</ele>
        <time>2012-10-06T10:32:59Z</time>
      </trkpt>
      <trkpt lat="45.69148" lon="6.19622">
        <ele>2137.1</ele>
        <time>2012-10-06T10:33:22Z</time>
      </trkpt>
      <trkpt lat="45.69149" lon="6.19626">
        <ele>2138.1</ele>
        <time>2012-10-06T10:33:42Z</time>
      </trkpt>
      <trkpt lat="45.69148" lon="6.1963">
        <ele>2137.6</ele>
        <time>2012-10-06T10:33:57Z</time>
      </trkpt>
      <trkpt lat="45.69145" lon="6.19642">
        <ele>2141.5</ele>
        <time>2012-10-06T10:34:11Z</time>
      </trkpt>
      <trkpt lat="45.69144" lon="6.19647">
        <ele>2142.9</ele>
        <time>2012-10-06T10:34:23Z</time>
      </trkpt>
      <trkpt lat="45.69151" lon="6.19644">
        <ele>2145.8</ele>
        <time>2012-10-06T10:34:34Z</time>
      </trkpt>
      <trkpt lat="45.6916" lon="6.19645">
        <ele>2148.2</ele>
        <time>2012-10-06T10:34:47Z</time>
      </trkpt>
      <trkpt lat="45.6917" lon="6.19648">
        <ele>2151.6</ele>
        <time>2012-10-06T10:35:02Z</time>
      </trkpt>
      <trkpt lat="45.69175" lon="6.19646">
        <ele>2153.5</ele>
        <time>2012-10-06T10:35:10Z</time>
      </trkpt>
      <trkpt lat="45.69184" lon="6.19641">
        <ele>2156.4</ele>
        <time>2012-10-06T10:35:24Z</time>
      </trkpt>
      <trkpt lat="45.69188" lon="6.19642">
        <ele>2158.3</ele>
        <time>2012-10-06T10:35:38Z</time>
      </trkpt>
      <trkpt lat="45.69187" lon="6.19647">
        <ele>2159.7</ele>
        <time>2012-10-06T10:35:50Z</time>
      </trkpt>
      <trkpt lat="45.69184" lon="6.19656">
        <ele>2162.1</ele>
        <time>2012-10-06T10:36:03Z</time>
      </trkpt>
      <trkpt lat="45.69181" lon="6.19663">
        <ele>2164.1</ele>
        <time>2012-10-06T10:36:12Z</time>
      </trkpt>
      <trkpt lat="45.6918" lon="6.19668">
        <ele>2166</ele>
        <time>2012-10-06T10:36:23Z</time>
      </trkpt>
      <trkpt lat="45.69181" lon="6.19668">
        <ele>2166.5</ele>
        <time>2012-10-06T10:36:24Z</time>
      </trkpt>
      <trkpt lat="45.69188" lon="6.19667">
        <ele>2168.4</ele>
        <time>2012-10-06T10:36:37Z</time>
      </trkpt>
      <trkpt lat="45.69193" lon="6.19666">
        <ele>2170.8</ele>
        <time>2012-10-06T10:36:49Z</time>
      </trkpt>
      <trkpt lat="45.69194" lon="6.19664">
        <ele>2171.8</ele>
        <time>2012-10-06T10:36:53Z</time>
      </trkpt>
      <trkpt lat="45.69199" lon="6.19657">
        <ele>2174.6</ele>
        <time>2012-10-06T10:37:04Z</time>
      </trkpt>
      <trkpt lat="45.69207" lon="6.1965">
        <ele>2176.1</ele>
        <time>2012-10-06T10:37:17Z</time>
      </trkpt>
      <trkpt lat="45.6921" lon="6.19649">
        <ele>2177.5</ele>
        <time>2012-10-06T10:37:24Z</time>
      </trkpt>
      <trkpt lat="45.69216" lon="6.19648">
        <ele>2179.4</ele>
        <time>2012-10-06T10:37:34Z</time>
      </trkpt>
      <trkpt lat="45.69222" lon="6.19646">
        <ele>2179.4</ele>
        <time>2012-10-06T10:37:45Z</time>
      </trkpt>
      <trkpt lat="45.69228" lon="6.19647">
        <ele>2178.5</ele>
        <time>2012-10-06T10:37:57Z</time>
      </trkpt>
      <trkpt lat="45.69232" lon="6.19651">
        <ele>2177.5</ele>
        <time>2012-10-06T10:38:10Z</time>
      </trkpt>
      <trkpt lat="45.6923" lon="6.19646">
        <ele>2176.6</ele>
        <time>2012-10-06T10:38:21Z</time>
      </trkpt>
      <trkpt lat="45.69236" lon="6.19638">
        <ele>2179</ele>
        <time>2012-10-06T10:38:32Z</time>
      </trkpt>
      <trkpt lat="45.69239" lon="6.19635">
        <ele>2180.4</ele>
        <time>2012-10-06T10:38:42Z</time>
      </trkpt>
      <trkpt lat="45.69243" lon="6.19636">
        <ele>2181.4</ele>
        <time>2012-10-06T10:38:48Z</time>
      </trkpt>
      <trkpt lat="45.69252" lon="6.19626">
        <ele>2183.3</ele>
        <time>2012-10-06T10:39:04Z</time>
      </trkpt>
      <trkpt lat="45.69255" lon="6.19625">
        <ele>2186.7</ele>
        <time>2012-10-06T10:39:14Z</time>
      </trkpt>
      <trkpt lat="45.69259" lon="6.19622">
        <ele>2188.1</ele>
        <time>2012-10-06T10:39:26Z</time>
      </trkpt>
      <trkpt lat="45.69267" lon="6.19619">
        <ele>2189.5</ele>
        <time>2012-10-06T10:39:39Z</time>
      </trkpt>
      <trkpt lat="45.69269" lon="6.19619">
        <ele>2188.6</ele>
        <time>2012-10-06T10:39:54Z</time>
      </trkpt>
      <trkpt lat="45.6927" lon="6.1962">
        <ele>2189.1</ele>
        <time>2012-10-06T10:40:07Z</time>
      </trkpt>
      <trkpt lat="45.69272" lon="6.19617">
        <ele>2189.5</ele>
        <time>2012-10-06T10:40:17Z</time>
      </trkpt>
      <trkpt lat="45.69272" lon="6.19617">
        <ele>2189.1</ele>
        <time>2012-10-06T10:40:32Z</time>
      </trkpt>
      <trkpt lat="45.69276" lon="6.1962">
        <ele>2189.5</ele>
        <time>2012-10-06T10:40:44Z</time>
      </trkpt>
      <trkpt lat="45.69277" lon="6.19622">
        <ele>2189.1</ele>
        <time>2012-10-06T10:41:00Z</time>
      </trkpt>
      <trkpt lat="45.69282" lon="6.19621">
        <ele>2186.7</ele>
        <time>2012-10-06T10:41:13Z</time>
      </trkpt>
      <trkpt lat="45.69287" lon="6.19617">
        <ele>2184.3</ele>
        <time>2012-10-06T10:41:26Z</time>
      </trkpt>
      <trkpt lat="45.69288" lon="6.19616">
        <ele>2184.3</ele>
        <time>2012-10-06T10:41:27Z</time>
      </trkpt>
      <trkpt lat="45.69293" lon="6.19613">
        <ele>2183.3</ele>
        <time>2012-10-06T10:41:39Z</time>
      </trkpt>
      <trkpt lat="45.693" lon="6.19618">
        <ele>2182.3</ele>
        <time>2012-10-06T10:41:52Z</time>
      </trkpt>
      <trkpt lat="45.6931" lon="6.19617">
        <ele>2179.9</ele>
        <time>2012-10-06T10:42:06Z</time>
      </trkpt>
      <trkpt lat="45.69317" lon="6.19616">
        <ele>2179</ele>
        <time>2012-10-06T10:42:17Z</time>
      </trkpt>
      <trkpt lat="45.69318" lon="6.1962">
        <ele>2178</ele>
        <time>2012-10-06T10:42:31Z</time>
      </trkpt>
      <trkpt lat="45.69317" lon="6.1962">
        <ele>2178.5</ele>
        <time>2012-10-06T10:42:48Z</time>
      </trkpt>
      <trkpt lat="45.69319" lon="6.1962">
        <ele>2177.5</ele>
        <time>2012-10-06T10:43:21Z</time>
      </trkpt>
      <trkpt lat="45.69319" lon="6.1962">
        <ele>2178</ele>
        <time>2012-10-06T10:43:31Z</time>
      </trkpt>
      <trkpt lat="45.69316" lon="6.19617">
        <ele>2177.5</ele>
        <time>2012-10-06T10:47:21Z</time>
      </trkpt>
      <trkpt lat="45.69318" lon="6.1962">
        <ele>2177.5</ele>
        <time>2012-10-06T10:47:59Z</time>
      </trkpt>
      <trkpt lat="45.69319" lon="6.19622">
        <ele>2177</ele>
        <time>2012-10-06T10:52:27Z</time>
      </trkpt>
      <trkpt lat="45.69322" lon="6.19624">
        <ele>2175.6</ele>
        <time>2012-10-06T11:07:19Z</time>
      </trkpt>
      <trkpt lat="45.69323" lon="6.19624">
        <ele>2179</ele>
        <time>2012-10-06T11:09:25Z</time>
      </trkpt>
      <trkpt lat="45.69323" lon="6.19623">
        <ele>2179</ele>
        <time>2012-10-06T11:09:26Z</time>
      </trkpt>
      <trkpt lat="45.69322" lon="6.19622">
        <ele>2177.5</ele>
        <time>2012-10-06T11:09:30Z</time>
      </trkpt>
      <trkpt lat="45.69321" lon="6.19622">
        <ele>2177</ele>
        <time>2012-10-06T11:09:56Z</time>
      </trkpt>
      <trkpt lat="45.69319" lon="6.1962">
        <ele>2179.4</ele>
        <time>2012-10-06T11:10:46Z</time>
      </trkpt>
      <trkpt lat="45.69318" lon="6.19623">
        <ele>2179</ele>
        <time>2012-10-06T11:12:35Z</time>
      </trkpt>
      <trkpt lat="45.69319" lon="6.19621">
        <ele>2179</ele>
        <time>2012-10-06T11:13:03Z</time>
      </trkpt>
      <trkpt lat="45.6932" lon="6.19622">
        <ele>2179</ele>
        <time>2012-10-06T11:13:33Z</time>
      </trkpt>
      <trkpt lat="45.69319" lon="6.1962">
        <ele>2179.9</ele>
        <time>2012-10-06T11:14:46Z</time>
      </trkpt>
      <trkpt lat="45.69315" lon="6.19617">
        <ele>2180.4</ele>
        <time>2012-10-06T11:14:59Z</time>
      </trkpt>
      <trkpt lat="45.69308" lon="6.19619">
        <ele>2181.8</ele>
        <time>2012-10-06T11:15:11Z</time>
      </trkpt>
      <trkpt lat="45.69299" lon="6.19618">
        <ele>2182.8</ele>
        <time>2012-10-06T11:15:25Z</time>
      </trkpt>
      <trkpt lat="45.69294" lon="6.19617">
        <ele>2184.3</ele>
        <time>2012-10-06T11:15:39Z</time>
      </trkpt>
      <trkpt lat="45.69289" lon="6.1962">
        <ele>2184.7</ele>
        <time>2012-10-06T11:15:53Z</time>
      </trkpt>
      <trkpt lat="45.69282" lon="6.19623">
        <ele>2187.1</ele>
        <time>2012-10-06T11:16:07Z</time>
      </trkpt>
      <trkpt lat="45.69275" lon="6.1962">
        <ele>2187.1</ele>
        <time>2012-10-06T11:16:22Z</time>
      </trkpt>
      <trkpt lat="45.6927" lon="6.19622">
        <ele>2187.6</ele>
        <time>2012-10-06T11:16:34Z</time>
      </trkpt>
      <trkpt lat="45.69264" lon="6.19625">
        <ele>2187.6</ele>
        <time>2012-10-06T11:16:49Z</time>
      </trkpt>
      <trkpt lat="45.69261" lon="6.19627">
        <ele>2187.6</ele>
        <time>2012-10-06T11:17:02Z</time>
      </trkpt>
      <trkpt lat="45.69257" lon="6.19627">
        <ele>2187.1</ele>
        <time>2012-10-06T11:17:15Z</time>
      </trkpt>
      <trkpt lat="45.69254" lon="6.19626">
        <ele>2186.7</ele>
        <time>2012-10-06T11:17:26Z</time>
      </trkpt>
      <trkpt lat="45.69253" lon="6.19628">
        <ele>2185.2</ele>
        <time>2012-10-06T11:17:39Z</time>
      </trkpt>
      <trkpt lat="45.69253" lon="6.19631">
        <ele>2184.3</ele>
        <time>2012-10-06T11:17:52Z</time>
      </trkpt>
      <trkpt lat="45.69252" lon="6.19631">
        <ele>2183.3</ele>
        <time>2012-10-06T11:18:04Z</time>
      </trkpt>
      <trkpt lat="45.69252" lon="6.19635">
        <ele>2181.8</ele>
        <time>2012-10-06T11:18:17Z</time>
      </trkpt>
      <trkpt lat="45.69246" lon="6.1964">
        <ele>2181.4</ele>
        <time>2012-10-06T11:18:30Z</time>
      </trkpt>
      <trkpt lat="45.69241" lon="6.19638">
        <ele>2181.4</ele>
        <time>2012-10-06T11:18:42Z</time>
      </trkpt>
      <trkpt lat="45.69237" lon="6.19642">
        <ele>2179.4</ele>
        <time>2012-10-06T11:18:56Z</time>
      </trkpt>
      <trkpt lat="45.69233" lon="6.19647">
        <ele>2178.5</ele>
        <time>2012-10-06T11:19:08Z</time>
      </trkpt>
      <trkpt lat="45.69227" lon="6.19648">
        <ele>2180.4</ele>
        <time>2012-10-06T11:19:19Z</time>
      </trkpt>
      <trkpt lat="45.6922" lon="6.19651">
        <ele>2180.9</ele>
        <time>2012-10-06T11:19:32Z</time>
      </trkpt>
      <trkpt lat="45.69215" lon="6.19651">
        <ele>2179.9</ele>
        <time>2012-10-06T11:19:43Z</time>
      </trkpt>
      <trkpt lat="45.69212" lon="6.19651">
        <ele>2178</ele>
        <time>2012-10-06T11:19:55Z</time>
      </trkpt>
      <trkpt lat="45.69208" lon="6.19655">
        <ele>2176.6</ele>
        <time>2012-10-06T11:20:07Z</time>
      </trkpt>
      <trkpt lat="45.69203" lon="6.19659">
        <ele>2175.6</ele>
        <time>2012-10-06T11:20:20Z</time>
      </trkpt>
      <trkpt lat="45.69198" lon="6.19665">
        <ele>2174.2</ele>
        <time>2012-10-06T11:20:31Z</time>
      </trkpt>
      <trkpt lat="45.69194" lon="6.19668">
        <ele>2173.2</ele>
        <time>2012-10-06T11:20:45Z</time>
      </trkpt>
      <trkpt lat="45.6919" lon="6.19668">
        <ele>2170.8</ele>
        <time>2012-10-06T11:20:56Z</time>
      </trkpt>
      <trkpt lat="45.69185" lon="6.19668">
        <ele>2168.9</ele>
        <time>2012-10-06T11:21:05Z</time>
      </trkpt>
      <trkpt lat="45.69183" lon="6.19669">
        <ele>2168.4</ele>
        <time>2012-10-06T11:21:19Z</time>
      </trkpt>
      <trkpt lat="45.69181" lon="6.19666">
        <ele>2166</ele>
        <time>2012-10-06T11:21:32Z</time>
      </trkpt>
      <trkpt lat="45.69183" lon="6.19658">
        <ele>2162.6</ele>
        <time>2012-10-06T11:21:43Z</time>
      </trkpt>
      <trkpt lat="45.69182" lon="6.19656">
        <ele>2163.6</ele>
        <time>2012-10-06T11:22:00Z</time>
      </trkpt>
      <trkpt lat="45.69184" lon="6.19653">
        <ele>2162.6</ele>
        <time>2012-10-06T11:22:12Z</time>
      </trkpt>
      <trkpt lat="45.69186" lon="6.19644">
        <ele>2160.7</ele>
        <time>2012-10-06T11:22:26Z</time>
      </trkpt>
      <trkpt lat="45.69187" lon="6.19638">
        <ele>2157.8</ele>
        <time>2012-10-06T11:22:37Z</time>
      </trkpt>
      <trkpt lat="45.69185" lon="6.19636">
        <ele>2156.9</ele>
        <time>2012-10-06T11:22:46Z</time>
      </trkpt>
      <trkpt lat="45.69179" lon="6.19642">
        <ele>2155.4</ele>
        <time>2012-10-06T11:23:01Z</time>
      </trkpt>
      <trkpt lat="45.69173" lon="6.19644">
        <ele>2153</ele>
        <time>2012-10-06T11:23:15Z</time>
      </trkpt>
      <trkpt lat="45.69169" lon="6.19645">
        <ele>2153</ele>
        <time>2012-10-06T11:23:20Z</time>
      </trkpt>
      <trkpt lat="45.69161" lon="6.19644">
        <ele>2149.2</ele>
        <time>2012-10-06T11:23:32Z</time>
      </trkpt>
      <trkpt lat="45.69155" lon="6.19642">
        <ele>2149.2</ele>
        <time>2012-10-06T11:23:47Z</time>
      </trkpt>
      <trkpt lat="45.69146" lon="6.19645">
        <ele>2145.8</ele>
        <time>2012-10-06T11:24:01Z</time>
      </trkpt>
      <trkpt lat="45.69142" lon="6.19641">
        <ele>2146.3</ele>
        <time>2012-10-06T11:24:13Z</time>
      </trkpt>
      <trkpt lat="45.69145" lon="6.19633">
        <ele>2142.9</ele>
        <time>2012-10-06T11:24:23Z</time>
      </trkpt>
      <trkpt lat="45.69146" lon="6.19627">
        <ele>2141.5</ele>
        <time>2012-10-06T11:24:37Z</time>
      </trkpt>
      <trkpt lat="45.69146" lon="6.19625">
        <ele>2141</ele>
        <time>2012-10-06T11:24:38Z</time>
      </trkpt>
      <trkpt lat="45.69146" lon="6.19623">
        <ele>2140.5</ele>
        <time>2012-10-06T11:24:41Z</time>
      </trkpt>
      <trkpt lat="45.69151" lon="6.19616">
        <ele>2140</ele>
        <time>2012-10-06T11:24:52Z</time>
      </trkpt>
      <trkpt lat="45.69156" lon="6.19618">
        <ele>2138.6</ele>
        <time>2012-10-06T11:24:59Z</time>
      </trkpt>
      <trkpt lat="45.69162" lon="6.19614">
        <ele>2136.2</ele>
        <time>2012-10-06T11:25:06Z</time>
      </trkpt>
      <trkpt lat="45.69164" lon="6.19603">
        <ele>2134.7</ele>
        <time>2012-10-06T11:25:18Z</time>
      </trkpt>
      <trkpt lat="45.69167" lon="6.19597">
        <ele>2134.3</ele>
        <time>2012-10-06T11:25:27Z</time>
      </trkpt>
      <trkpt lat="45.69173" lon="6.19593">
        <ele>2130.4</ele>
        <time>2012-10-06T11:25:38Z</time>
      </trkpt>
      <trkpt lat="45.69175" lon="6.19593">
        <ele>2129.5</ele>
        <time>2012-10-06T11:25:41Z</time>
      </trkpt>
      <trkpt lat="45.69182" lon="6.19588">
        <ele>2128.5</ele>
        <time>2012-10-06T11:25:51Z</time>
      </trkpt>
      <trkpt lat="45.69185" lon="6.19579">
        <ele>2126.1</ele>
        <time>2012-10-06T11:26:04Z</time>
      </trkpt>
      <trkpt lat="45.69187" lon="6.19573">
        <ele>2124.2</ele>
        <time>2012-10-06T11:26:14Z</time>
      </trkpt>
      <trkpt lat="45.69194" lon="6.19564">
        <ele>2121.8</ele>
        <time>2012-10-06T11:26:28Z</time>
      </trkpt>
      <trkpt lat="45.69199" lon="6.19558">
        <ele>2119.4</ele>
        <time>2012-10-06T11:26:36Z</time>
      </trkpt>
      <trkpt lat="45.69204" lon="6.19552">
        <ele>2118.4</ele>
        <time>2012-10-06T11:26:49Z</time>
      </trkpt>
      <trkpt lat="45.69206" lon="6.19545">
        <ele>2116</ele>
        <time>2012-10-06T11:27:00Z</time>
      </trkpt>
      <trkpt lat="45.6921" lon="6.19536">
        <ele>2114.6</ele>
        <time>2012-10-06T11:27:14Z</time>
      </trkpt>
      <trkpt lat="45.69216" lon="6.19529">
        <ele>2112.6</ele>
        <time>2012-10-06T11:27:25Z</time>
      </trkpt>
      <trkpt lat="45.69218" lon="6.19521">
        <ele>2111.2</ele>
        <time>2012-10-06T11:27:34Z</time>
      </trkpt>
      <trkpt lat="45.6922" lon="6.19516">
        <ele>2111.2</ele>
        <time>2012-10-06T11:27:39Z</time>
      </trkpt>
      <trkpt lat="45.69227" lon="6.1951">
        <ele>2108.3</ele>
        <time>2012-10-06T11:27:51Z</time>
      </trkpt>
      <trkpt lat="45.69234" lon="6.19499">
        <ele>2105.9</ele>
        <time>2012-10-06T11:28:03Z</time>
      </trkpt>
      <trkpt lat="45.69242" lon="6.19492">
        <ele>2105.4</ele>
        <time>2012-10-06T11:28:14Z</time>
      </trkpt>
      <trkpt lat="45.69259" lon="6.19482">
        <ele>2103.5</ele>
        <time>2012-10-06T11:28:30Z</time>
      </trkpt>
      <trkpt lat="45.69271" lon="6.19477">
        <ele>2102.1</ele>
        <time>2012-10-06T11:28:43Z</time>
      </trkpt>
      <trkpt lat="45.69285" lon="6.19476">
        <ele>2098.2</ele>
        <time>2012-10-06T11:28:58Z</time>
      </trkpt>
      <trkpt lat="45.69299" lon="6.19478">
        <ele>2096.3</ele>
        <time>2012-10-06T11:29:13Z</time>
      </trkpt>
      <trkpt lat="45.69305" lon="6.19477">
        <ele>2093.9</ele>
        <time>2012-10-06T11:29:23Z</time>
      </trkpt>
      <trkpt lat="45.69315" lon="6.19479">
        <ele>2092</ele>
        <time>2012-10-06T11:29:35Z</time>
      </trkpt>
      <trkpt lat="45.69318" lon="6.19477">
        <ele>2090.5</ele>
        <time>2012-10-06T11:29:45Z</time>
      </trkpt>
      <trkpt lat="45.6932" lon="6.19478">
        <ele>2091</ele>
        <time>2012-10-06T11:29:57Z</time>
      </trkpt>
      <trkpt lat="45.69328" lon="6.1948">
        <ele>2089.1</ele>
        <time>2012-10-06T11:30:08Z</time>
      </trkpt>
      <trkpt lat="45.6933" lon="6.19481">
        <ele>2087.6</ele>
        <time>2012-10-06T11:30:11Z</time>
      </trkpt>
      <trkpt lat="45.6934" lon="6.19486">
        <ele>2086.7</ele>
        <time>2012-10-06T11:30:22Z</time>
      </trkpt>
      <trkpt lat="45.69341" lon="6.19486">
        <ele>2087.2</ele>
        <time>2012-10-06T11:30:23Z</time>
      </trkpt>
      <trkpt lat="45.69347" lon="6.19486">
        <ele>2085.7</ele>
        <time>2012-10-06T11:30:29Z</time>
      </trkpt>
      <trkpt lat="45.69358" lon="6.19486">
        <ele>2083.3</ele>
        <time>2012-10-06T11:30:42Z</time>
      </trkpt>
      <trkpt lat="45.69364" lon="6.19478">
        <ele>2081.4</ele>
        <time>2012-10-06T11:30:54Z</time>
      </trkpt>
      <trkpt lat="45.69374" lon="6.19474">
        <ele>2079.5</ele>
        <time>2012-10-06T11:31:05Z</time>
      </trkpt>
      <trkpt lat="45.6938" lon="6.19471">
        <ele>2078</ele>
        <time>2012-10-06T11:31:14Z</time>
      </trkpt>
      <trkpt lat="45.69387" lon="6.19466">
        <ele>2075.6</ele>
        <time>2012-10-06T11:31:24Z</time>
      </trkpt>
      <trkpt lat="45.69388" lon="6.19464">
        <ele>2074.7</ele>
        <time>2012-10-06T11:31:26Z</time>
      </trkpt>
      <trkpt lat="45.69395" lon="6.19458">
        <ele>2072.7</ele>
        <time>2012-10-06T11:31:35Z</time>
      </trkpt>
      <trkpt lat="45.694" lon="6.19455">
        <ele>2070.8</ele>
        <time>2012-10-06T11:31:42Z</time>
      </trkpt>
      <trkpt lat="45.69407" lon="6.19448">
        <ele>2069.4</ele>
        <time>2012-10-06T11:31:53Z</time>
      </trkpt>
      <trkpt lat="45.69408" lon="6.19448">
        <ele>2067.9</ele>
        <time>2012-10-06T11:32:01Z</time>
      </trkpt>
      <trkpt lat="45.69401" lon="6.19443">
        <ele>2064.6</ele>
        <time>2012-10-06T11:32:13Z</time>
      </trkpt>
      <trkpt lat="45.694" lon="6.19443">
        <ele>2065</ele>
        <time>2012-10-06T11:32:15Z</time>
      </trkpt>
      <trkpt lat="45.69389" lon="6.19435">
        <ele>2062.2</ele>
        <time>2012-10-06T11:32:28Z</time>
      </trkpt>
      <trkpt lat="45.69379" lon="6.19434">
        <ele>2059.3</ele>
        <time>2012-10-06T11:32:37Z</time>
      </trkpt>
      <trkpt lat="45.6937" lon="6.19432">
        <ele>2055.9</ele>
        <time>2012-10-06T11:32:46Z</time>
      </trkpt>
      <trkpt lat="45.69364" lon="6.19432">
        <ele>2055.4</ele>
        <time>2012-10-06T11:32:56Z</time>
      </trkpt>
      <trkpt lat="45.69364" lon="6.19428">
        <ele>2053.5</ele>
        <time>2012-10-06T11:33:04Z</time>
      </trkpt>
      <trkpt lat="45.69371" lon="6.1942">
        <ele>2051.6</ele>
        <time>2012-10-06T11:33:15Z</time>
      </trkpt>
      <trkpt lat="45.69379" lon="6.19413">
        <ele>2049.2</ele>
        <time>2012-10-06T11:33:29Z</time>
      </trkpt>
      <trkpt lat="45.6938" lon="6.19413">
        <ele>2048.7</ele>
        <time>2012-10-06T11:33:30Z</time>
      </trkpt>
      <trkpt lat="45.69388" lon="6.19406">
        <ele>2045.8</ele>
        <time>2012-10-06T11:33:42Z</time>
      </trkpt>
      <trkpt lat="45.69398" lon="6.19401">
        <ele>2042.5</ele>
        <time>2012-10-06T11:33:55Z</time>
      </trkpt>
      <trkpt lat="45.69404" lon="6.19401">
        <ele>2040.5</ele>
        <time>2012-10-06T11:34:03Z</time>
      </trkpt>
      <trkpt lat="45.69412" lon="6.19395">
        <ele>2037.7</ele>
        <time>2012-10-06T11:34:15Z</time>
      </trkpt>
      <trkpt lat="45.69423" lon="6.19394">
        <ele>2035.2</ele>
        <time>2012-10-06T11:34:29Z</time>
      </trkpt>
      <trkpt lat="45.69431" lon="6.19388">
        <ele>2032.4</ele>
        <time>2012-10-06T11:34:42Z</time>
      </trkpt>
      <trkpt lat="45.69439" lon="6.19389">
        <ele>2030.4</ele>
        <time>2012-10-06T11:34:51Z</time>
      </trkpt>
      <trkpt lat="45.69451" lon="6.19392">
        <ele>2027.1</ele>
        <time>2012-10-06T11:35:02Z</time>
      </trkpt>
      <trkpt lat="45.69455" lon="6.19388">
        <ele>2026.1</ele>
        <time>2012-10-06T11:35:13Z</time>
      </trkpt>
      <trkpt lat="45.69466" lon="6.19388">
        <ele>2023.2</ele>
        <time>2012-10-06T11:35:26Z</time>
      </trkpt>
      <trkpt lat="45.69468" lon="6.19385">
        <ele>2021.3</ele>
        <time>2012-10-06T11:35:35Z</time>
      </trkpt>
      <trkpt lat="45.69466" lon="6.19382">
        <ele>2020.8</ele>
        <time>2012-10-06T11:35:50Z</time>
      </trkpt>
      <trkpt lat="45.69465" lon="6.19379">
        <ele>2021.8</ele>
        <time>2012-10-06T11:37:50Z</time>
      </trkpt>
      <trkpt lat="45.69466" lon="6.19383">
        <ele>2021.8</ele>
        <time>2012-10-06T11:38:11Z</time>
      </trkpt>
      <trkpt lat="45.69466" lon="6.19384">
        <ele>2021.3</ele>
        <time>2012-10-06T11:38:33Z</time>
      </trkpt>
      <trkpt lat="45.69464" lon="6.19378">
        <ele>2019.9</ele>
        <time>2012-10-06T11:39:12Z</time>
      </trkpt>
      <trkpt lat="45.69459" lon="6.19371">
        <ele>2017.9</ele>
        <time>2012-10-06T11:39:27Z</time>
      </trkpt>
      <trkpt lat="45.69451" lon="6.19363">
        <ele>2017</ele>
        <time>2012-10-06T11:39:41Z</time>
      </trkpt>
      <trkpt lat="45.69446" lon="6.19355">
        <ele>2015.5</ele>
        <time>2012-10-06T11:39:53Z</time>
      </trkpt>
      <trkpt lat="45.69444" lon="6.19353">
        <ele>2014.1</ele>
        <time>2012-10-06T11:39:56Z</time>
      </trkpt>
      <trkpt lat="45.69436" lon="6.19343">
        <ele>2011.2</ele>
        <time>2012-10-06T11:40:11Z</time>
      </trkpt>
      <trkpt lat="45.6943" lon="6.19337">
        <ele>2009.3</ele>
        <time>2012-10-06T11:40:21Z</time>
      </trkpt>
      <trkpt lat="45.69426" lon="6.19335">
        <ele>2008.3</ele>
        <time>2012-10-06T11:40:29Z</time>
      </trkpt>
      <trkpt lat="45.69425" lon="6.19332">
        <ele>2008.3</ele>
        <time>2012-10-06T11:40:38Z</time>
      </trkpt>
      <trkpt lat="45.6943" lon="6.19336">
        <ele>2006.4</ele>
        <time>2012-10-06T11:40:44Z</time>
      </trkpt>
      <trkpt lat="45.69436" lon="6.19332">
        <ele>2004.5</ele>
        <time>2012-10-06T11:40:54Z</time>
      </trkpt>
      <trkpt lat="45.6944" lon="6.1933">
        <ele>2003</ele>
        <time>2012-10-06T11:41:09Z</time>
      </trkpt>
      <trkpt lat="45.69446" lon="6.19335">
        <ele>2001.1</ele>
        <time>2012-10-06T11:41:18Z</time>
      </trkpt>
      <trkpt lat="45.69452" lon="6.19336">
        <ele>1998.7</ele>
        <time>2012-10-06T11:41:27Z</time>
      </trkpt>
      <trkpt lat="45.69459" lon="6.19335">
        <ele>1998.2</ele>
        <time>2012-10-06T11:41:38Z</time>
      </trkpt>
      <trkpt lat="45.69464" lon="6.19334">
        <ele>1997.3</ele>
        <time>2012-10-06T11:41:47Z</time>
      </trkpt>
      <trkpt lat="45.69469" lon="6.19332">
        <ele>1995.4</ele>
        <time>2012-10-06T11:41:57Z</time>
      </trkpt>
      <trkpt lat="45.69476" lon="6.19331">
        <ele>1994.4</ele>
        <time>2012-10-06T11:42:09Z</time>
      </trkpt>
      <trkpt lat="45.6948" lon="6.19327">
        <ele>1992.5</ele>
        <time>2012-10-06T11:42:20Z</time>
      </trkpt>
      <trkpt lat="45.69485" lon="6.19324">
        <ele>1991.5</ele>
        <time>2012-10-06T11:42:29Z</time>
      </trkpt>
      <trkpt lat="45.69489" lon="6.19326">
        <ele>1990.1</ele>
        <time>2012-10-06T11:42:34Z</time>
      </trkpt>
      <trkpt lat="45.69495" lon="6.19325">
        <ele>1988.1</ele>
        <time>2012-10-06T11:42:45Z</time>
      </trkpt>
      <trkpt lat="45.69502" lon="6.19326">
        <ele>1986.7</ele>
        <time>2012-10-06T11:42:56Z</time>
      </trkpt>
      <trkpt lat="45.69507" lon="6.19327">
        <ele>1985.3</ele>
        <time>2012-10-06T11:43:04Z</time>
      </trkpt>
      <trkpt lat="45.6951" lon="6.19328">
        <ele>1984.3</ele>
        <time>2012-10-06T11:43:19Z</time>
      </trkpt>
      <trkpt lat="45.69513" lon="6.19327">
        <ele>1983.3</ele>
        <time>2012-10-06T11:43:34Z</time>
      </trkpt>
      <trkpt lat="45.69512" lon="6.19325">
        <ele>1981.9</ele>
        <time>2012-10-06T11:43:47Z</time>
      </trkpt>
      <trkpt lat="45.69506" lon="6.19315">
        <ele>1981.4</ele>
        <time>2012-10-06T11:43:59Z</time>
      </trkpt>
      <trkpt lat="45.69502" lon="6.19312">
        <ele>1979.5</ele>
        <time>2012-10-06T11:44:04Z</time>
      </trkpt>
      <trkpt lat="45.695" lon="6.19311">
        <ele>1978.5</ele>
        <time>2012-10-06T11:44:06Z</time>
      </trkpt>
      <trkpt lat="45.69491" lon="6.19303">
        <ele>1976.1</ele>
        <time>2012-10-06T11:44:18Z</time>
      </trkpt>
      <trkpt lat="45.69483" lon="6.19297">
        <ele>1975.2</ele>
        <time>2012-10-06T11:44:29Z</time>
      </trkpt>
      <trkpt lat="45.69482" lon="6.19296">
        <ele>1975.2</ele>
        <time>2012-10-06T11:44:30Z</time>
      </trkpt>
      <trkpt lat="45.69481" lon="6.19294">
        <ele>1975.2</ele>
        <time>2012-10-06T11:44:32Z</time>
      </trkpt>
      <trkpt lat="45.69474" lon="6.19284">
        <ele>1973.2</ele>
        <time>2012-10-06T11:44:44Z</time>
      </trkpt>
      <trkpt lat="45.69471" lon="6.1928">
        <ele>1971.8</ele>
        <time>2012-10-06T11:45:01Z</time>
      </trkpt>
      <trkpt lat="45.69469" lon="6.19279">
        <ele>1971.3</ele>
        <time>2012-10-06T11:45:04Z</time>
      </trkpt>
      <trkpt lat="45.69464" lon="6.19272">
        <ele>1969.9</ele>
        <time>2012-10-06T11:45:11Z</time>
      </trkpt>
      <trkpt lat="45.69458" lon="6.19272">
        <ele>1968.9</ele>
        <time>2012-10-06T11:45:18Z</time>
      </trkpt>
      <trkpt lat="45.69451" lon="6.19268">
        <ele>1967.5</ele>
        <time>2012-10-06T11:45:28Z</time>
      </trkpt>
      <trkpt lat="45.6944" lon="6.19273">
        <ele>1965.1</ele>
        <time>2012-10-06T11:45:41Z</time>
      </trkpt>
      <trkpt lat="45.69435" lon="6.19274">
        <ele>1963.6</ele>
        <time>2012-10-06T11:45:50Z</time>
      </trkpt>
      <trkpt lat="45.6943" lon="6.19275">
        <ele>1962.7</ele>
        <time>2012-10-06T11:45:57Z</time>
      </trkpt>
      <trkpt lat="45.69429" lon="6.19274">
        <ele>1961.7</ele>
        <time>2012-10-06T11:46:00Z</time>
      </trkpt>
      <trkpt lat="45.69422" lon="6.19273">
        <ele>1958.8</ele>
        <time>2012-10-06T11:46:12Z</time>
      </trkpt>
      <trkpt lat="45.6942" lon="6.19273">
        <ele>1955.9</ele>
        <time>2012-10-06T11:46:17Z</time>
      </trkpt>
      <trkpt lat="45.69413" lon="6.19271">
        <ele>1955.9</ele>
        <time>2012-10-06T11:46:28Z</time>
      </trkpt>
      <trkpt lat="45.6941" lon="6.19271">
        <ele>1955</ele>
        <time>2012-10-06T11:46:32Z</time>
      </trkpt>
      <trkpt lat="45.69412" lon="6.19268">
        <ele>1953.5</ele>
        <time>2012-10-06T11:46:42Z</time>
      </trkpt>
      <trkpt lat="45.69417" lon="6.19262">
        <ele>1951.6</ele>
        <time>2012-10-06T11:46:52Z</time>
      </trkpt>
      <trkpt lat="45.69418" lon="6.19259">
        <ele>1950.7</ele>
        <time>2012-10-06T11:47:08Z</time>
      </trkpt>
      <trkpt lat="45.6942" lon="6.19256">
        <ele>1951.1</ele>
        <time>2012-10-06T11:47:27Z</time>
      </trkpt>
      <trkpt lat="45.69423" lon="6.19252">
        <ele>1948.7</ele>
        <time>2012-10-06T11:47:40Z</time>
      </trkpt>
      <trkpt lat="45.69427" lon="6.19243">
        <ele>1946.8</ele>
        <time>2012-10-06T11:47:52Z</time>
      </trkpt>
      <trkpt lat="45.69433" lon="6.19237">
        <ele>1945.4</ele>
        <time>2012-10-06T11:48:04Z</time>
      </trkpt>
      <trkpt lat="45.69436" lon="6.19232">
        <ele>1942</ele>
        <time>2012-10-06T11:48:13Z</time>
      </trkpt>
      <trkpt lat="45.69439" lon="6.19231">
        <ele>1941</ele>
        <time>2012-10-06T11:48:18Z</time>
      </trkpt>
      <trkpt lat="45.69441" lon="6.19228">
        <ele>1940.1</ele>
        <time>2012-10-06T11:48:21Z</time>
      </trkpt>
      <trkpt lat="45.69447" lon="6.19218">
        <ele>1939.1</ele>
        <time>2012-10-06T11:48:34Z</time>
      </trkpt>
      <trkpt lat="45.69448" lon="6.19209">
        <ele>1937.7</ele>
        <time>2012-10-06T11:48:44Z</time>
      </trkpt>
      <trkpt lat="45.69451" lon="6.19203">
        <ele>1936.2</ele>
        <time>2012-10-06T11:48:50Z</time>
      </trkpt>
      <trkpt lat="45.69455" lon="6.19192">
        <ele>1935.3</ele>
        <time>2012-10-06T11:49:01Z</time>
      </trkpt>
      <trkpt lat="45.69461" lon="6.19186">
        <ele>1932.9</ele>
        <time>2012-10-06T11:49:09Z</time>
      </trkpt>
      <trkpt lat="45.69469" lon="6.19182">
        <ele>1930</ele>
        <time>2012-10-06T11:49:20Z</time>
      </trkpt>
      <trkpt lat="45.69479" lon="6.19177">
        <ele>1927.6</ele>
        <time>2012-10-06T11:49:36Z</time>
      </trkpt>
      <trkpt lat="45.69486" lon="6.19167">
        <ele>1925.2</ele>
        <time>2012-10-06T11:49:49Z</time>
      </trkpt>
      <trkpt lat="45.69488" lon="6.19163">
        <ele>1923.3</ele>
        <time>2012-10-06T11:50:07Z</time>
      </trkpt>
      <trkpt lat="45.69491" lon="6.19152">
        <ele>1922.3</ele>
        <time>2012-10-06T11:50:36Z</time>
      </trkpt>
      <trkpt lat="45.69494" lon="6.19145">
        <ele>1921.3</ele>
        <time>2012-10-06T11:50:42Z</time>
      </trkpt>
      <trkpt lat="45.69512" lon="6.19124">
        <ele>1920.4</ele>
        <time>2012-10-06T11:51:04Z</time>
      </trkpt>
      <trkpt lat="45.69528" lon="6.19107">
        <ele>1920.9</ele>
        <time>2012-10-06T11:51:22Z</time>
      </trkpt>
      <trkpt lat="45.6954" lon="6.19102">
        <ele>1921.3</ele>
        <time>2012-10-06T11:51:36Z</time>
      </trkpt>
      <trkpt lat="45.69546" lon="6.19101">
        <ele>1920.4</ele>
        <time>2012-10-06T11:51:49Z</time>
      </trkpt>
      <trkpt lat="45.69562" lon="6.19096">
        <ele>1918.4</ele>
        <time>2012-10-06T11:52:03Z</time>
      </trkpt>
      <trkpt lat="45.69583" lon="6.19085">
        <ele>1916.5</ele>
        <time>2012-10-06T11:52:23Z</time>
      </trkpt>
      <trkpt lat="45.69591" lon="6.19086">
        <ele>1916</ele>
        <time>2012-10-06T11:52:32Z</time>
      </trkpt>
      <trkpt lat="45.69606" lon="6.19081">
        <ele>1915.1</ele>
        <time>2012-10-06T11:52:47Z</time>
      </trkpt>
      <trkpt lat="45.6961" lon="6.19079">
        <ele>1915.1</ele>
        <time>2012-10-06T11:53:02Z</time>
      </trkpt>
      <trkpt lat="45.69613" lon="6.19079">
        <ele>1914.1</ele>
        <time>2012-10-06T11:53:08Z</time>
      </trkpt>
      <trkpt lat="45.69629" lon="6.19077">
        <ele>1913.2</ele>
        <time>2012-10-06T11:53:24Z</time>
      </trkpt>
      <trkpt lat="45.6964" lon="6.19071">
        <ele>1910.8</ele>
        <time>2012-10-06T11:53:38Z</time>
      </trkpt>
      <trkpt lat="45.69654" lon="6.19062">
        <ele>1908.8</ele>
        <time>2012-10-06T11:53:52Z</time>
      </trkpt>
      <trkpt lat="45.69656" lon="6.19058">
        <ele>1906.9</ele>
        <time>2012-10-06T11:54:04Z</time>
      </trkpt>
      <trkpt lat="45.69658" lon="6.19055">
        <ele>1906.4</ele>
        <time>2012-10-06T11:54:14Z</time>
      </trkpt>
      <trkpt lat="45.69658" lon="6.19056">
        <ele>1907.9</ele>
        <time>2012-10-06T11:54:54Z</time>
      </trkpt>
      <trkpt lat="45.69657" lon="6.19056">
        <ele>1906.4</ele>
        <time>2012-10-06T11:54:57Z</time>
      </trkpt>
      <trkpt lat="45.69659" lon="6.19055">
        <ele>1906.4</ele>
        <time>2012-10-06T11:55:16Z</time>
      </trkpt>
      <trkpt lat="45.69661" lon="6.19058">
        <ele>1903.5</ele>
        <time>2012-10-06T11:55:26Z</time>
      </trkpt>
      <trkpt lat="45.69665" lon="6.19061">
        <ele>1901.6</ele>
        <time>2012-10-06T11:55:36Z</time>
      </trkpt>
      <trkpt lat="45.69669" lon="6.19058">
        <ele>1899.7</ele>
        <time>2012-10-06T11:55:49Z</time>
      </trkpt>
      <trkpt lat="45.6967" lon="6.1905">
        <ele>1897.8</ele>
        <time>2012-10-06T11:56:00Z</time>
      </trkpt>
      <trkpt lat="45.69676" lon="6.19055">
        <ele>1897.3</ele>
        <time>2012-10-06T11:56:12Z</time>
      </trkpt>
      <trkpt lat="45.69683" lon="6.19055">
        <ele>1893.9</ele>
        <time>2012-10-06T11:56:26Z</time>
      </trkpt>
      <trkpt lat="45.69687" lon="6.19052">
        <ele>1892.5</ele>
        <time>2012-10-06T11:56:35Z</time>
      </trkpt>
      <trkpt lat="45.69693" lon="6.19051">
        <ele>1889.1</ele>
        <time>2012-10-06T11:56:47Z</time>
      </trkpt>
      <trkpt lat="45.69699" lon="6.19045">
        <ele>1886.2</ele>
        <time>2012-10-06T11:57:02Z</time>
      </trkpt>
      <trkpt lat="45.69703" lon="6.1904">
        <ele>1885.3</ele>
        <time>2012-10-06T11:57:13Z</time>
      </trkpt>
      <trkpt lat="45.69704" lon="6.1904">
        <ele>1884.3</ele>
        <time>2012-10-06T11:57:32Z</time>
      </trkpt>
      <trkpt lat="45.69708" lon="6.19036">
        <ele>1882.9</ele>
        <time>2012-10-06T11:57:49Z</time>
      </trkpt>
      <trkpt lat="45.69717" lon="6.19035">
        <ele>1881.4</ele>
        <time>2012-10-06T11:58:04Z</time>
      </trkpt>
      <trkpt lat="45.69723" lon="6.19031">
        <ele>1879</ele>
        <time>2012-10-06T11:58:16Z</time>
      </trkpt>
      <trkpt lat="45.69729" lon="6.1903">
        <ele>1875.7</ele>
        <time>2012-10-06T11:58:28Z</time>
      </trkpt>
      <trkpt lat="45.69732" lon="6.19029">
        <ele>1874.7</ele>
        <time>2012-10-06T11:58:33Z</time>
      </trkpt>
      <trkpt lat="45.69733" lon="6.19027">
        <ele>1873.3</ele>
        <time>2012-10-06T11:58:36Z</time>
      </trkpt>
      <trkpt lat="45.6974" lon="6.19024">
        <ele>1871.3</ele>
        <time>2012-10-06T11:58:48Z</time>
      </trkpt>
      <trkpt lat="45.69744" lon="6.19017">
        <ele>1869.9</ele>
        <time>2012-10-06T11:58:58Z</time>
      </trkpt>
      <trkpt lat="45.69752" lon="6.18999">
        <ele>1868</ele>
        <time>2012-10-06T11:59:13Z</time>
      </trkpt>
      <trkpt lat="45.69759" lon="6.1898">
        <ele>1869.4</ele>
        <time>2012-10-06T11:59:28Z</time>
      </trkpt>
      <trkpt lat="45.69763" lon="6.18959">
        <ele>1870.4</ele>
        <time>2012-10-06T11:59:43Z</time>
      </trkpt>
      <trkpt lat="45.69765" lon="6.18947">
        <ele>1871.8</ele>
        <time>2012-10-06T11:59:54Z</time>
      </trkpt>
      <trkpt lat="45.69766" lon="6.18943">
        <ele>1869.9</ele>
        <time>2012-10-06T12:00:00Z</time>
      </trkpt>
      <trkpt lat="45.69766" lon="6.18943">
        <ele>1869.9</ele>
        <time>2012-10-06T12:00:01Z</time>
      </trkpt>
      <trkpt lat="45.69766" lon="6.18935">
        <ele>1868.9</ele>
        <time>2012-10-06T12:00:14Z</time>
      </trkpt>
      <trkpt lat="45.69765" lon="6.1892">
        <ele>1865.6</ele>
        <time>2012-10-06T12:00:29Z</time>
      </trkpt>
      <trkpt lat="45.69766" lon="6.18908">
        <ele>1862.7</ele>
        <time>2012-10-06T12:00:40Z</time>
      </trkpt>
      <trkpt lat="45.69768" lon="6.189">
        <ele>1861.2</ele>
        <time>2012-10-06T12:00:47Z</time>
      </trkpt>
      <trkpt lat="45.6978" lon="6.18885">
        <ele>1861.2</ele>
        <time>2012-10-06T12:01:03Z</time>
      </trkpt>
      <trkpt lat="45.69782" lon="6.18882">
        <ele>1860.8</ele>
        <time>2012-10-06T12:01:06Z</time>
      </trkpt>
      <trkpt lat="45.69792" lon="6.18868">
        <ele>1861.2</ele>
        <time>2012-10-06T12:01:20Z</time>
      </trkpt>
      <trkpt lat="45.69805" lon="6.18855">
        <ele>1860.3</ele>
        <time>2012-10-06T12:01:36Z</time>
      </trkpt>
      <trkpt lat="45.69815" lon="6.18843">
        <ele>1860.3</ele>
        <time>2012-10-06T12:01:49Z</time>
      </trkpt>
      <trkpt lat="45.69814" lon="6.18836">
        <ele>1859.8</ele>
        <time>2012-10-06T12:02:02Z</time>
      </trkpt>
      <trkpt lat="45.69813" lon="6.18837">
        <ele>1859.3</ele>
        <time>2012-10-06T12:02:03Z</time>
      </trkpt>
      <trkpt lat="45.69805" lon="6.18838">
        <ele>1858.4</ele>
        <time>2012-10-06T12:02:18Z</time>
      </trkpt>
      <trkpt lat="45.69808" lon="6.18838">
        <ele>1858.4</ele>
        <time>2012-10-06T12:02:33Z</time>
      </trkpt>
      <trkpt lat="45.69809" lon="6.18837">
        <ele>1858.4</ele>
        <time>2012-10-06T12:02:44Z</time>
      </trkpt>
      <trkpt lat="45.6981" lon="6.18837">
        <ele>1857.9</ele>
        <time>2012-10-06T12:03:12Z</time>
      </trkpt>
      <trkpt lat="45.69807" lon="6.18839">
        <ele>1857.4</ele>
        <time>2012-10-06T12:03:28Z</time>
      </trkpt>
      <trkpt lat="45.69803" lon="6.18842">
        <ele>1857.9</ele>
        <time>2012-10-06T12:03:39Z</time>
      </trkpt>
      <trkpt lat="45.69796" lon="6.18845">
        <ele>1856.9</ele>
        <time>2012-10-06T12:03:50Z</time>
      </trkpt>
      <trkpt lat="45.69789" lon="6.18844">
        <ele>1855.5</ele>
        <time>2012-10-06T12:03:56Z</time>
      </trkpt>
      <trkpt lat="45.69786" lon="6.18841">
        <ele>1855.5</ele>
        <time>2012-10-06T12:04:12Z</time>
      </trkpt>
      <trkpt lat="45.69786" lon="6.1884">
        <ele>1855</ele>
        <time>2012-10-06T12:04:32Z</time>
      </trkpt>
      <trkpt lat="45.69788" lon="6.18844">
        <ele>1856.4</ele>
        <time>2012-10-06T12:04:42Z</time>
      </trkpt>
      <trkpt lat="45.69797" lon="6.18844">
        <ele>1855.5</ele>
        <time>2012-10-06T12:04:53Z</time>
      </trkpt>
      <trkpt lat="45.69797" lon="6.18843">
        <ele>1856</ele>
        <time>2012-10-06T12:05:12Z</time>
      </trkpt>
      <trkpt lat="45.698" lon="6.18842">
        <ele>1856.4</ele>
        <time>2012-10-06T12:05:27Z</time>
      </trkpt>
      <trkpt lat="45.69803" lon="6.1884">
        <ele>1857.4</ele>
        <time>2012-10-06T12:06:07Z</time>
      </trkpt>
      <trkpt lat="45.69809" lon="6.18838">
        <ele>1858.8</ele>
        <time>2012-10-06T12:06:20Z</time>
      </trkpt>
      <trkpt lat="45.69815" lon="6.18841">
        <ele>1859.8</ele>
        <time>2012-10-06T12:06:35Z</time>
      </trkpt>
      <trkpt lat="45.69818" lon="6.18844">
        <ele>1859.8</ele>
        <time>2012-10-06T12:06:47Z</time>
      </trkpt>
      <trkpt lat="45.69819" lon="6.18845">
        <ele>1858.8</ele>
        <time>2012-10-06T12:07:23Z</time>
      </trkpt>
      <trkpt lat="45.69818" lon="6.18845">
        <ele>1858.8</ele>
        <time>2012-10-06T12:07:46Z</time>
      </trkpt>
      <trkpt lat="45.69818" lon="6.18849">
        <ele>1858.4</ele>
        <time>2012-10-06T12:08:04Z</time>
      </trkpt>
      <trkpt lat="45.6982" lon="6.18848">
        <ele>1860.3</ele>
        <time>2012-10-06T12:08:17Z</time>
      </trkpt>
      <trkpt lat="45.69822" lon="6.18856">
        <ele>1857.4</ele>
        <time>2012-10-06T12:08:28Z</time>
      </trkpt>
      <trkpt lat="45.69824" lon="6.18861">
        <ele>1856.9</ele>
        <time>2012-10-06T12:08:33Z</time>
      </trkpt>
      <trkpt lat="45.69831" lon="6.18874">
        <ele>1855</ele>
        <time>2012-10-06T12:08:47Z</time>
      </trkpt>
      <trkpt lat="45.69842" lon="6.18877">
        <ele>1852.6</ele>
        <time>2012-10-06T12:09:04Z</time>
      </trkpt>
      <trkpt lat="45.69849" lon="6.18881">
        <ele>1851.2</ele>
        <time>2012-10-06T12:09:13Z</time>
      </trkpt>
      <trkpt lat="45.69856" lon="6.18888">
        <ele>1850.2</ele>
        <time>2012-10-06T12:09:24Z</time>
      </trkpt>
      <trkpt lat="45.69863" lon="6.18901">
        <ele>1848.3</ele>
        <time>2012-10-06T12:09:38Z</time>
      </trkpt>
      <trkpt lat="45.69867" lon="6.18912">
        <ele>1846.3</ele>
        <time>2012-10-06T12:09:50Z</time>
      </trkpt>
      <trkpt lat="45.69869" lon="6.18915">
        <ele>1844.4</ele>
        <time>2012-10-06T12:09:55Z</time>
      </trkpt>
      <trkpt lat="45.69879" lon="6.18917">
        <ele>1842.5</ele>
        <time>2012-10-06T12:10:08Z</time>
      </trkpt>
      <trkpt lat="45.69888" lon="6.18917">
        <ele>1839.6</ele>
        <time>2012-10-06T12:10:21Z</time>
      </trkpt>
      <trkpt lat="45.699" lon="6.18919">
        <ele>1839.1</ele>
        <time>2012-10-06T12:10:35Z</time>
      </trkpt>
      <trkpt lat="45.69907" lon="6.18918">
        <ele>1837.7</ele>
        <time>2012-10-06T12:10:45Z</time>
      </trkpt>
      <trkpt lat="45.69922" lon="6.18921">
        <ele>1837.2</ele>
        <time>2012-10-06T12:10:59Z</time>
      </trkpt>
      <trkpt lat="45.69926" lon="6.18923">
        <ele>1836.7</ele>
        <time>2012-10-06T12:11:03Z</time>
      </trkpt>
      <trkpt lat="45.69927" lon="6.18924">
        <ele>1836.7</ele>
        <time>2012-10-06T12:11:04Z</time>
      </trkpt>
      <trkpt lat="45.69938" lon="6.18924">
        <ele>1834.8</ele>
        <time>2012-10-06T12:11:16Z</time>
      </trkpt>
      <trkpt lat="45.69946" lon="6.18928">
        <ele>1832.4</ele>
        <time>2012-10-06T12:11:25Z</time>
      </trkpt>
      <trkpt lat="45.69958" lon="6.18929">
        <ele>1829</ele>
        <time>2012-10-06T12:11:41Z</time>
      </trkpt>
      <trkpt lat="45.69966" lon="6.18931">
        <ele>1827.1</ele>
        <time>2012-10-06T12:11:52Z</time>
      </trkpt>
      <trkpt lat="45.69969" lon="6.18931">
        <ele>1826.6</ele>
        <time>2012-10-06T12:11:56Z</time>
      </trkpt>
      <trkpt lat="45.69984" lon="6.18933">
        <ele>1824.7</ele>
        <time>2012-10-06T12:12:11Z</time>
      </trkpt>
      <trkpt lat="45.69992" lon="6.18938">
        <ele>1822.8</ele>
        <time>2012-10-06T12:12:20Z</time>
      </trkpt>
      <trkpt lat="45.70008" lon="6.18943">
        <ele>1822.8</ele>
        <time>2012-10-06T12:12:35Z</time>
      </trkpt>
      <trkpt lat="45.7001" lon="6.18943">
        <ele>1821.8</ele>
        <time>2012-10-06T12:12:37Z</time>
      </trkpt>
      <trkpt lat="45.70024" lon="6.18945">
        <ele>1820.4</ele>
        <time>2012-10-06T12:12:50Z</time>
      </trkpt>
      <trkpt lat="45.70029" lon="6.18944">
        <ele>1819.9</ele>
        <time>2012-10-06T12:12:54Z</time>
      </trkpt>
      <trkpt lat="45.70048" lon="6.18954">
        <ele>1819.4</ele>
        <time>2012-10-06T12:13:12Z</time>
      </trkpt>
      <trkpt lat="45.70057" lon="6.18962">
        <ele>1819.4</ele>
        <time>2012-10-06T12:13:23Z</time>
      </trkpt>
      <trkpt lat="45.70073" lon="6.1897">
        <ele>1819</ele>
        <time>2012-10-06T12:13:39Z</time>
      </trkpt>
      <trkpt lat="45.70082" lon="6.18969">
        <ele>1816.1</ele>
        <time>2012-10-06T12:13:50Z</time>
      </trkpt>
      <trkpt lat="45.70091" lon="6.18968">
        <ele>1815.1</ele>
        <time>2012-10-06T12:14:01Z</time>
      </trkpt>
      <trkpt lat="45.70093" lon="6.18968">
        <ele>1813.7</ele>
        <time>2012-10-06T12:14:03Z</time>
      </trkpt>
      <trkpt lat="45.70105" lon="6.18971">
        <ele>1812.2</ele>
        <time>2012-10-06T12:14:16Z</time>
      </trkpt>
      <trkpt lat="45.7011" lon="6.18977">
        <ele>1812.2</ele>
        <time>2012-10-06T12:14:22Z</time>
      </trkpt>
      <trkpt lat="45.70122" lon="6.18988">
        <ele>1816.1</ele>
        <time>2012-10-06T12:14:37Z</time>
      </trkpt>
      <trkpt lat="45.70123" lon="6.18989">
        <ele>1817</ele>
        <time>2012-10-06T12:14:44Z</time>
      </trkpt>
      <trkpt lat="45.70123" lon="6.1899">
        <ele>1815.6</ele>
        <time>2012-10-06T12:14:47Z</time>
      </trkpt>
      <trkpt lat="45.70126" lon="6.18991">
        <ele>1818</ele>
        <time>2012-10-06T12:14:54Z</time>
      </trkpt>
      <trkpt lat="45.70126" lon="6.18992">
        <ele>1818</ele>
        <time>2012-10-06T12:14:55Z</time>
      </trkpt>
      <trkpt lat="45.70129" lon="6.18996">
        <ele>1819</ele>
        <time>2012-10-06T12:15:06Z</time>
      </trkpt>
      <trkpt lat="45.70136" lon="6.18997">
        <ele>1818.5</ele>
        <time>2012-10-06T12:15:17Z</time>
      </trkpt>
      <trkpt lat="45.7014" lon="6.18994">
        <ele>1818.5</ele>
        <time>2012-10-06T12:15:28Z</time>
      </trkpt>
      <trkpt lat="45.70157" lon="6.18989">
        <ele>1821.4</ele>
        <time>2012-10-06T12:15:46Z</time>
      </trkpt>
      <trkpt lat="45.7017" lon="6.18994">
        <ele>1825.2</ele>
        <time>2012-10-06T12:16:01Z</time>
      </trkpt>
      <trkpt lat="45.70171" lon="6.18997">
        <ele>1825.7</ele>
        <time>2012-10-06T12:16:03Z</time>
      </trkpt>
      <trkpt lat="45.70179" lon="6.19007">
        <ele>1827.1</ele>
        <time>2012-10-06T12:16:16Z</time>
      </trkpt>
      <trkpt lat="45.70191" lon="6.19013">
        <ele>1830.5</ele>
        <time>2012-10-06T12:16:30Z</time>
      </trkpt>
      <trkpt lat="45.70193" lon="6.19011">
        <ele>1831.4</ele>
        <time>2012-10-06T12:16:34Z</time>
      </trkpt>
      <trkpt lat="45.702" lon="6.19015">
        <ele>1831.9</ele>
        <time>2012-10-06T12:16:41Z</time>
      </trkpt>
      <trkpt lat="45.70216" lon="6.19024">
        <ele>1833.4</ele>
        <time>2012-10-06T12:16:59Z</time>
      </trkpt>
      <trkpt lat="45.70231" lon="6.19034">
        <ele>1833.9</ele>
        <time>2012-10-06T12:17:14Z</time>
      </trkpt>
      <trkpt lat="45.70245" lon="6.19042">
        <ele>1835.3</ele>
        <time>2012-10-06T12:17:28Z</time>
      </trkpt>
      <trkpt lat="45.70246" lon="6.19043">
        <ele>1835.8</ele>
        <time>2012-10-06T12:17:29Z</time>
      </trkpt>
      <trkpt lat="45.70247" lon="6.19043">
        <ele>1834.8</ele>
        <time>2012-10-06T12:17:30Z</time>
      </trkpt>
      <trkpt lat="45.7025" lon="6.19043">
        <ele>1834.3</ele>
        <time>2012-10-06T12:17:32Z</time>
      </trkpt>
      <trkpt lat="45.70265" lon="6.19043">
        <ele>1835.3</ele>
        <time>2012-10-06T12:17:46Z</time>
      </trkpt>
      <trkpt lat="45.70284" lon="6.19049">
        <ele>1835.3</ele>
        <time>2012-10-06T12:18:02Z</time>
      </trkpt>
      <trkpt lat="45.70291" lon="6.1905">
        <ele>1835.8</ele>
        <time>2012-10-06T12:18:08Z</time>
      </trkpt>
      <trkpt lat="45.70298" lon="6.19068">
        <ele>1837.7</ele>
        <time>2012-10-06T12:18:20Z</time>
      </trkpt>
      <trkpt lat="45.70306" lon="6.1908">
        <ele>1840.1</ele>
        <time>2012-10-06T12:18:31Z</time>
      </trkpt>
      <trkpt lat="45.70319" lon="6.19098">
        <ele>1841.1</ele>
        <time>2012-10-06T12:18:47Z</time>
      </trkpt>
      <trkpt lat="45.70327" lon="6.19111">
        <ele>1843</ele>
        <time>2012-10-06T12:18:58Z</time>
      </trkpt>
      <trkpt lat="45.70334" lon="6.1912">
        <ele>1844.4</ele>
        <time>2012-10-06T12:19:11Z</time>
      </trkpt>
      <trkpt lat="45.70341" lon="6.19119">
        <ele>1845.4</ele>
        <time>2012-10-06T12:19:22Z</time>
      </trkpt>
      <trkpt lat="45.70345" lon="6.19121">
        <ele>1846.3</ele>
        <time>2012-10-06T12:19:30Z</time>
      </trkpt>
      <trkpt lat="45.70346" lon="6.19122">
        <ele>1845.9</ele>
        <time>2012-10-06T12:19:32Z</time>
      </trkpt>
      <trkpt lat="45.70351" lon="6.19123">
        <ele>1847.3</ele>
        <time>2012-10-06T12:19:43Z</time>
      </trkpt>
      <trkpt lat="45.7035" lon="6.19114">
        <ele>1849.7</ele>
        <time>2012-10-06T12:19:54Z</time>
      </trkpt>
      <trkpt lat="45.70346" lon="6.19098">
        <ele>1853.1</ele>
        <time>2012-10-06T12:20:09Z</time>
      </trkpt>
      <trkpt lat="45.70338" lon="6.19086">
        <ele>1854.5</ele>
        <time>2012-10-06T12:20:23Z</time>
      </trkpt>
      <trkpt lat="45.70336" lon="6.19069">
        <ele>1857.9</ele>
        <time>2012-10-06T12:20:38Z</time>
      </trkpt>
      <trkpt lat="45.7034" lon="6.19059">
        <ele>1860.3</ele>
        <time>2012-10-06T12:20:50Z</time>
      </trkpt>
      <trkpt lat="45.70344" lon="6.19046">
        <ele>1863.7</ele>
        <time>2012-10-06T12:21:03Z</time>
      </trkpt>
      <trkpt lat="45.70352" lon="6.19045">
        <ele>1865.6</ele>
        <time>2012-10-06T12:21:17Z</time>
      </trkpt>
      <trkpt lat="45.70358" lon="6.19046">
        <ele>1866.5</ele>
        <time>2012-10-06T12:21:29Z</time>
      </trkpt>
      <trkpt lat="45.70366" lon="6.19045">
        <ele>1868.9</ele>
        <time>2012-10-06T12:21:42Z</time>
      </trkpt>
      <trkpt lat="45.70372" lon="6.1904">
        <ele>1872.3</ele>
        <time>2012-10-06T12:21:55Z</time>
      </trkpt>
      <trkpt lat="45.70377" lon="6.19036">
        <ele>1875.7</ele>
        <time>2012-10-06T12:22:06Z</time>
      </trkpt>
      <trkpt lat="45.70377" lon="6.19035">
        <ele>1875.7</ele>
        <time>2012-10-06T12:22:07Z</time>
      </trkpt>
      <trkpt lat="45.70383" lon="6.19029">
        <ele>1877.6</ele>
        <time>2012-10-06T12:22:22Z</time>
      </trkpt>
      <trkpt lat="45.70391" lon="6.1903">
        <ele>1880</ele>
        <time>2012-10-06T12:22:35Z</time>
      </trkpt>
      <trkpt lat="45.70397" lon="6.19026">
        <ele>1881.9</ele>
        <time>2012-10-06T12:22:47Z</time>
      </trkpt>
      <trkpt lat="45.70403" lon="6.19022">
        <ele>1884.3</ele>
        <time>2012-10-06T12:23:00Z</time>
      </trkpt>
      <trkpt lat="45.70409" lon="6.19021">
        <ele>1886.2</ele>
        <time>2012-10-06T12:23:11Z</time>
      </trkpt>
      <trkpt lat="45.70413" lon="6.19012">
        <ele>1888.2</ele>
        <time>2012-10-06T12:23:22Z</time>
      </trkpt>
      <trkpt lat="45.70421" lon="6.19008">
        <ele>1889.6</ele>
        <time>2012-10-06T12:23:34Z</time>
      </trkpt>
      <trkpt lat="45.70427" lon="6.19004">
        <ele>1893</ele>
        <time>2012-10-06T12:23:45Z</time>
      </trkpt>
      <trkpt lat="45.7043" lon="6.18998">
        <ele>1894.9</ele>
        <time>2012-10-06T12:23:57Z</time>
      </trkpt>
      <trkpt lat="45.70428" lon="6.18997">
        <ele>1894.9</ele>
        <time>2012-10-06T12:24:08Z</time>
      </trkpt>
      <trkpt lat="45.70428" lon="6.18998">
        <ele>1894.4</ele>
        <time>2012-10-06T12:24:25Z</time>
      </trkpt>
      <trkpt lat="45.70428" lon="6.18997">
        <ele>1895.4</ele>
        <time>2012-10-06T12:26:49Z</time>
      </trkpt>
      <trkpt lat="45.70427" lon="6.18999">
        <ele>1895.4</ele>
        <time>2012-10-06T12:31:17Z</time>
      </trkpt>
      <trkpt lat="45.70426" lon="6.18998">
        <ele>1895.4</ele>
        <time>2012-10-06T12:31:31Z</time>
      </trkpt>
      <trkpt lat="45.70426" lon="6.18999">
        <ele>1895.4</ele>
        <time>2012-10-06T12:31:44Z</time>
      </trkpt>
      <trkpt lat="45.70427" lon="6.18999">
        <ele>1895.9</ele>
        <time>2012-10-06T12:31:59Z</time>
      </trkpt>
      <trkpt lat="45.70424" lon="6.18991">
        <ele>1895.4</ele>
        <time>2012-10-06T12:32:11Z</time>
      </trkpt>
      <trkpt lat="45.70425" lon="6.18985">
        <ele>1893.5</ele>
        <time>2012-10-06T12:32:23Z</time>
      </trkpt>
      <trkpt lat="45.70433" lon="6.18983">
        <ele>1891.1</ele>
        <time>2012-10-06T12:32:37Z</time>
      </trkpt>
      <trkpt lat="45.70439" lon="6.18984">
        <ele>1889.6</ele>
        <time>2012-10-06T12:32:49Z</time>
      </trkpt>
      <trkpt lat="45.70447" lon="6.18982">
        <ele>1888.6</ele>
        <time>2012-10-06T12:33:01Z</time>
      </trkpt>
      <trkpt lat="45.70455" lon="6.18982">
        <ele>1887.2</ele>
        <time>2012-10-06T12:33:11Z</time>
      </trkpt>
      <trkpt lat="45.70464" lon="6.18979">
        <ele>1884.8</ele>
        <time>2012-10-06T12:33:26Z</time>
      </trkpt>
      <trkpt lat="45.70469" lon="6.18979">
        <ele>1883.4</ele>
        <time>2012-10-06T12:33:38Z</time>
      </trkpt>
      <trkpt lat="45.7047" lon="6.18979">
        <ele>1883.4</ele>
        <time>2012-10-06T12:33:39Z</time>
      </trkpt>
      <trkpt lat="45.70488" lon="6.18977">
        <ele>1880.5</ele>
        <time>2012-10-06T12:33:58Z</time>
      </trkpt>
      <trkpt lat="45.70501" lon="6.18979">
        <ele>1878.6</ele>
        <time>2012-10-06T12:34:11Z</time>
      </trkpt>
      <trkpt lat="45.70517" lon="6.18979">
        <ele>1875.2</ele>
        <time>2012-10-06T12:34:28Z</time>
      </trkpt>
      <trkpt lat="45.70522" lon="6.18979">
        <ele>1875.2</ele>
        <time>2012-10-06T12:34:33Z</time>
      </trkpt>
      <trkpt lat="45.70523" lon="6.18977">
        <ele>1874.2</ele>
        <time>2012-10-06T12:34:35Z</time>
      </trkpt>
      <trkpt lat="45.70538" lon="6.18976">
        <ele>1872.8</ele>
        <time>2012-10-06T12:34:49Z</time>
      </trkpt>
      <trkpt lat="45.70551" lon="6.18976">
        <ele>1871.8</ele>
        <time>2012-10-06T12:35:03Z</time>
      </trkpt>
      <trkpt lat="45.70568" lon="6.18981">
        <ele>1868.9</ele>
        <time>2012-10-06T12:35:21Z</time>
      </trkpt>
      <trkpt lat="45.70579" lon="6.18981">
        <ele>1866.1</ele>
        <time>2012-10-06T12:35:34Z</time>
      </trkpt>
      <trkpt lat="45.7059" lon="6.18983">
        <ele>1863.7</ele>
        <time>2012-10-06T12:35:47Z</time>
      </trkpt>
      <trkpt lat="45.70596" lon="6.18986">
        <ele>1862.2</ele>
        <time>2012-10-06T12:36:02Z</time>
      </trkpt>
      <trkpt lat="45.70604" lon="6.18989">
        <ele>1860.8</ele>
        <time>2012-10-06T12:36:16Z</time>
      </trkpt>
      <trkpt lat="45.70605" lon="6.1899">
        <ele>1860.8</ele>
        <time>2012-10-06T12:36:17Z</time>
      </trkpt>
      <trkpt lat="45.70622" lon="6.18996">
        <ele>1859.3</ele>
        <time>2012-10-06T12:36:35Z</time>
      </trkpt>
      <trkpt lat="45.7063" lon="6.18999">
        <ele>1859.3</ele>
        <time>2012-10-06T12:36:43Z</time>
      </trkpt>
      <trkpt lat="45.7064" lon="6.18998">
        <ele>1858.8</ele>
        <time>2012-10-06T12:36:54Z</time>
      </trkpt>
      <trkpt lat="45.70653" lon="6.18997">
        <ele>1858.4</ele>
        <time>2012-10-06T12:37:08Z</time>
      </trkpt>
      <trkpt lat="45.70665" lon="6.18995">
        <ele>1857.4</ele>
        <time>2012-10-06T12:37:21Z</time>
      </trkpt>
      <trkpt lat="45.70679" lon="6.18992">
        <ele>1855.5</ele>
        <time>2012-10-06T12:37:35Z</time>
      </trkpt>
      <trkpt lat="45.70692" lon="6.18987">
        <ele>1854</ele>
        <time>2012-10-06T12:37:48Z</time>
      </trkpt>
      <trkpt lat="45.70706" lon="6.18982">
        <ele>1854</ele>
        <time>2012-10-06T12:38:03Z</time>
      </trkpt>
      <trkpt lat="45.70725" lon="6.18976">
        <ele>1851.2</ele>
        <time>2012-10-06T12:38:19Z</time>
      </trkpt>
      <trkpt lat="45.7074" lon="6.1897">
        <ele>1850.7</ele>
        <time>2012-10-06T12:38:34Z</time>
      </trkpt>
      <trkpt lat="45.70757" lon="6.18961">
        <ele>1852.1</ele>
        <time>2012-10-06T12:38:50Z</time>
      </trkpt>
      <trkpt lat="45.7077" lon="6.18953">
        <ele>1851.6</ele>
        <time>2012-10-06T12:39:03Z</time>
      </trkpt>
      <trkpt lat="45.70783" lon="6.18946">
        <ele>1851.6</ele>
        <time>2012-10-06T12:39:16Z</time>
      </trkpt>
      <trkpt lat="45.70796" lon="6.18939">
        <ele>1851.6</ele>
        <time>2012-10-06T12:39:30Z</time>
      </trkpt>
      <trkpt lat="45.70811" lon="6.18927">
        <ele>1851.2</ele>
        <time>2012-10-06T12:39:45Z</time>
      </trkpt>
      <trkpt lat="45.70824" lon="6.18915">
        <ele>1852.6</ele>
        <time>2012-10-06T12:40:00Z</time>
      </trkpt>
      <trkpt lat="45.70834" lon="6.18914">
        <ele>1850.7</ele>
        <time>2012-10-06T12:40:12Z</time>
      </trkpt>
      <trkpt lat="45.70849" lon="6.1892">
        <ele>1850.2</ele>
        <time>2012-10-06T12:40:27Z</time>
      </trkpt>
      <trkpt lat="45.70851" lon="6.18921">
        <ele>1848.8</ele>
        <time>2012-10-06T12:40:29Z</time>
      </trkpt>
      <trkpt lat="45.7086" lon="6.18931">
        <ele>1847.3</ele>
        <time>2012-10-06T12:40:43Z</time>
      </trkpt>
      <trkpt lat="45.70865" lon="6.18936">
        <ele>1843.9</ele>
        <time>2012-10-06T12:40:53Z</time>
      </trkpt>
      <trkpt lat="45.70876" lon="6.1895">
        <ele>1842</ele>
        <time>2012-10-06T12:41:06Z</time>
      </trkpt>
      <trkpt lat="45.70886" lon="6.18956">
        <ele>1839.6</ele>
        <time>2012-10-06T12:41:22Z</time>
      </trkpt>
      <trkpt lat="45.70889" lon="6.18959">
        <ele>1838.7</ele>
        <time>2012-10-06T12:41:26Z</time>
      </trkpt>
      <trkpt lat="45.70891" lon="6.18959">
        <ele>1837.7</ele>
        <time>2012-10-06T12:41:28Z</time>
      </trkpt>
      <trkpt lat="45.70906" lon="6.18955">
        <ele>1836.7</ele>
        <time>2012-10-06T12:41:37Z</time>
      </trkpt>
      <trkpt lat="45.70926" lon="6.18956">
        <ele>1837.2</ele>
        <time>2012-10-06T12:41:54Z</time>
      </trkpt>
      <trkpt lat="45.70934" lon="6.18959">
        <ele>1839.1</ele>
        <time>2012-10-06T12:42:02Z</time>
      </trkpt>
      <trkpt lat="45.70944" lon="6.18962">
        <ele>1836.7</ele>
        <time>2012-10-06T12:42:16Z</time>
      </trkpt>
      <trkpt lat="45.7095" lon="6.18963">
        <ele>1834.8</ele>
        <time>2012-10-06T12:42:26Z</time>
      </trkpt>
      <trkpt lat="45.70961" lon="6.18965">
        <ele>1833.9</ele>
        <time>2012-10-06T12:42:40Z</time>
      </trkpt>
      <trkpt lat="45.70962" lon="6.18963">
        <ele>1832.9</ele>
        <time>2012-10-06T12:42:54Z</time>
      </trkpt>
      <trkpt lat="45.70963" lon="6.18963">
        <ele>1833.9</ele>
        <time>2012-10-06T12:43:17Z</time>
      </trkpt>
      <trkpt lat="45.70971" lon="6.1897">
        <ele>1831.9</ele>
        <time>2012-10-06T12:43:31Z</time>
      </trkpt>
      <trkpt lat="45.70976" lon="6.18965">
        <ele>1829</ele>
        <time>2012-10-06T12:43:44Z</time>
      </trkpt>
      <trkpt lat="45.70973" lon="6.18956">
        <ele>1828.1</ele>
        <time>2012-10-06T12:43:56Z</time>
      </trkpt>
      <trkpt lat="45.70971" lon="6.18949">
        <ele>1824.7</ele>
        <time>2012-10-06T12:44:06Z</time>
      </trkpt>
      <trkpt lat="45.70971" lon="6.18948">
        <ele>1824.7</ele>
        <time>2012-10-06T12:44:07Z</time>
      </trkpt>
      <trkpt lat="45.70969" lon="6.18942">
        <ele>1821.8</ele>
        <time>2012-10-06T12:44:17Z</time>
      </trkpt>
      <trkpt lat="45.70969" lon="6.18942">
        <ele>1821.8</ele>
        <time>2012-10-06T12:44:18Z</time>
      </trkpt>
      <trkpt lat="45.70968" lon="6.18939">
        <ele>1821.4</ele>
        <time>2012-10-06T12:44:21Z</time>
      </trkpt>
      <trkpt lat="45.7097" lon="6.18934">
        <ele>1820.4</ele>
        <time>2012-10-06T12:44:25Z</time>
      </trkpt>
      <trkpt lat="45.70974" lon="6.18936">
        <ele>1819.9</ele>
        <time>2012-10-06T12:44:29Z</time>
      </trkpt>
      <trkpt lat="45.70983" lon="6.18943">
        <ele>1818</ele>
        <time>2012-10-06T12:44:41Z</time>
      </trkpt>
      <trkpt lat="45.70988" lon="6.18946">
        <ele>1815.6</ele>
        <time>2012-10-06T12:44:50Z</time>
      </trkpt>
      <trkpt lat="45.70993" lon="6.18947">
        <ele>1812.7</ele>
        <time>2012-10-06T12:44:58Z</time>
      </trkpt>
      <trkpt lat="45.70991" lon="6.1894">
        <ele>1810.8</ele>
        <time>2012-10-06T12:45:08Z</time>
      </trkpt>
      <trkpt lat="45.70988" lon="6.18936">
        <ele>1807.9</ele>
        <time>2012-10-06T12:45:17Z</time>
      </trkpt>
      <trkpt lat="45.70992" lon="6.18931">
        <ele>1806</ele>
        <time>2012-10-06T12:45:28Z</time>
      </trkpt>
      <trkpt lat="45.70999" lon="6.18932">
        <ele>1805</ele>
        <time>2012-10-06T12:45:41Z</time>
      </trkpt>
      <trkpt lat="45.71004" lon="6.1893">
        <ele>1803.1</ele>
        <time>2012-10-06T12:45:50Z</time>
      </trkpt>
      <trkpt lat="45.71011" lon="6.1893">
        <ele>1800.2</ele>
        <time>2012-10-06T12:46:02Z</time>
      </trkpt>
      <trkpt lat="45.71014" lon="6.18927">
        <ele>1798.3</ele>
        <time>2012-10-06T12:46:08Z</time>
      </trkpt>
      <trkpt lat="45.71021" lon="6.18929">
        <ele>1796.8</ele>
        <time>2012-10-06T12:46:20Z</time>
      </trkpt>
      <trkpt lat="45.71024" lon="6.18924">
        <ele>1793.5</ele>
        <time>2012-10-06T12:46:31Z</time>
      </trkpt>
      <trkpt lat="45.71024" lon="6.18918">
        <ele>1791.6</ele>
        <time>2012-10-06T12:46:40Z</time>
      </trkpt>
      <trkpt lat="45.71029" lon="6.18924">
        <ele>1791.6</ele>
        <time>2012-10-06T12:47:14Z</time>
      </trkpt>
      <trkpt lat="45.71032" lon="6.1892">
        <ele>1790.1</ele>
        <time>2012-10-06T12:47:26Z</time>
      </trkpt>
      <trkpt lat="45.71034" lon="6.18916">
        <ele>1786.7</ele>
        <time>2012-10-06T12:47:32Z</time>
      </trkpt>
      <trkpt lat="45.71037" lon="6.18915">
        <ele>1784.8</ele>
        <time>2012-10-06T12:47:42Z</time>
      </trkpt>
      <trkpt lat="45.71041" lon="6.18912">
        <ele>1784.8</ele>
        <time>2012-10-06T12:47:53Z</time>
      </trkpt>
      <trkpt lat="45.71049" lon="6.18911">
        <ele>1781.9</ele>
        <time>2012-10-06T12:48:06Z</time>
      </trkpt>
      <trkpt lat="45.71055" lon="6.1891">
        <ele>1778.6</ele>
        <time>2012-10-06T12:48:17Z</time>
      </trkpt>
      <trkpt lat="45.71056" lon="6.18909">
        <ele>1778.6</ele>
        <time>2012-10-06T12:48:18Z</time>
      </trkpt>
      <trkpt lat="45.71058" lon="6.18909">
        <ele>1778.6</ele>
        <time>2012-10-06T12:48:22Z</time>
      </trkpt>
      <trkpt lat="45.71069" lon="6.18906">
        <ele>1775.2</ele>
        <time>2012-10-06T12:48:34Z</time>
      </trkpt>
      <trkpt lat="45.71084" lon="6.18901">
        <ele>1773.8</ele>
        <time>2012-10-06T12:48:47Z</time>
      </trkpt>
      <trkpt lat="45.71092" lon="6.18899">
        <ele>1771.4</ele>
        <time>2012-10-06T12:48:57Z</time>
      </trkpt>
      <trkpt lat="45.71098" lon="6.18898">
        <ele>1769.4</ele>
        <time>2012-10-06T12:49:07Z</time>
      </trkpt>
      <trkpt lat="45.71102" lon="6.18893">
        <ele>1768.5</ele>
        <time>2012-10-06T12:49:16Z</time>
      </trkpt>
      <trkpt lat="45.71105" lon="6.18887">
        <ele>1767</ele>
        <time>2012-10-06T12:49:26Z</time>
      </trkpt>
      <trkpt lat="45.7111" lon="6.1888">
        <ele>1764.2</ele>
        <time>2012-10-06T12:49:36Z</time>
      </trkpt>
      <trkpt lat="45.71114" lon="6.18876">
        <ele>1763.7</ele>
        <time>2012-10-06T12:49:46Z</time>
      </trkpt>
      <trkpt lat="45.71115" lon="6.18874">
        <ele>1762.7</ele>
        <time>2012-10-06T12:49:48Z</time>
      </trkpt>
      <trkpt lat="45.71123" lon="6.18868">
        <ele>1761.8</ele>
        <time>2012-10-06T12:49:55Z</time>
      </trkpt>
      <trkpt lat="45.71141" lon="6.18863">
        <ele>1760.8</ele>
        <time>2012-10-06T12:50:13Z</time>
      </trkpt>
      <trkpt lat="45.71143" lon="6.18864">
        <ele>1758.9</ele>
        <time>2012-10-06T12:50:26Z</time>
      </trkpt>
      <trkpt lat="45.71136" lon="6.18863">
        <ele>1756.5</ele>
        <time>2012-10-06T12:50:41Z</time>
      </trkpt>
      <trkpt lat="45.71136" lon="6.18863">
        <ele>1756</ele>
        <time>2012-10-06T12:51:02Z</time>
      </trkpt>
      <trkpt lat="45.71133" lon="6.18862">
        <ele>1755</ele>
        <time>2012-10-06T12:51:06Z</time>
      </trkpt>
      <trkpt lat="45.71126" lon="6.18868">
        <ele>1752.6</ele>
        <time>2012-10-06T12:51:20Z</time>
      </trkpt>
      <trkpt lat="45.71116" lon="6.18871">
        <ele>1751.2</ele>
        <time>2012-10-06T12:51:31Z</time>
      </trkpt>
      <trkpt lat="45.71106" lon="6.18873">
        <ele>1749.3</ele>
        <time>2012-10-06T12:51:44Z</time>
      </trkpt>
      <trkpt lat="45.71098" lon="6.18876">
        <ele>1746.4</ele>
        <time>2012-10-06T12:51:55Z</time>
      </trkpt>
      <trkpt lat="45.7109" lon="6.18877">
        <ele>1745.4</ele>
        <time>2012-10-06T12:52:06Z</time>
      </trkpt>
      <trkpt lat="45.71089" lon="6.18876">
        <ele>1744.4</ele>
        <time>2012-10-06T12:52:07Z</time>
      </trkpt>
      <trkpt lat="45.7109" lon="6.1886">
        <ele>1744.4</ele>
        <time>2012-10-06T12:52:19Z</time>
      </trkpt>
      <trkpt lat="45.71092" lon="6.18858">
        <ele>1743</ele>
        <time>2012-10-06T12:52:23Z</time>
      </trkpt>
      <trkpt lat="45.71096" lon="6.18851">
        <ele>1741.1</ele>
        <time>2012-10-06T12:52:33Z</time>
      </trkpt>
      <trkpt lat="45.71101" lon="6.18841">
        <ele>1737.7</ele>
        <time>2012-10-06T12:52:47Z</time>
      </trkpt>
      <trkpt lat="45.71104" lon="6.18836">
        <ele>1735.3</ele>
        <time>2012-10-06T12:52:53Z</time>
      </trkpt>
      <trkpt lat="45.71107" lon="6.18831">
        <ele>1734.8</ele>
        <time>2012-10-06T12:53:01Z</time>
      </trkpt>
      <trkpt lat="45.71112" lon="6.18826">
        <ele>1732.9</ele>
        <time>2012-10-06T12:53:10Z</time>
      </trkpt>
      <trkpt lat="45.71119" lon="6.18819">
        <ele>1729.5</ele>
        <time>2012-10-06T12:53:23Z</time>
      </trkpt>
      <trkpt lat="45.71127" lon="6.18812">
        <ele>1727.1</ele>
        <time>2012-10-06T12:53:37Z</time>
      </trkpt>
      <trkpt lat="45.71131" lon="6.18809">
        <ele>1725.7</ele>
        <time>2012-10-06T12:53:42Z</time>
      </trkpt>
      <trkpt lat="45.71139" lon="6.18801">
        <ele>1723.3</ele>
        <time>2012-10-06T12:53:53Z</time>
      </trkpt>
      <trkpt lat="45.71149" lon="6.18791">
        <ele>1723.3</ele>
        <time>2012-10-06T12:54:07Z</time>
      </trkpt>
      <trkpt lat="45.7116" lon="6.18784">
        <ele>1720.4</ele>
        <time>2012-10-06T12:54:20Z</time>
      </trkpt>
      <trkpt lat="45.71168" lon="6.18778">
        <ele>1717.5</ele>
        <time>2012-10-06T12:54:30Z</time>
      </trkpt>
      <trkpt lat="45.71178" lon="6.18772">
        <ele>1715.1</ele>
        <time>2012-10-06T12:54:44Z</time>
      </trkpt>
      <trkpt lat="45.71191" lon="6.18764">
        <ele>1712.2</ele>
        <time>2012-10-06T12:54:58Z</time>
      </trkpt>
      <trkpt lat="45.71206" lon="6.18757">
        <ele>1709.8</ele>
        <time>2012-10-06T12:55:13Z</time>
      </trkpt>
      <trkpt lat="45.71212" lon="6.18751">
        <ele>1707.4</ele>
        <time>2012-10-06T12:55:25Z</time>
      </trkpt>
      <trkpt lat="45.71202" lon="6.18749">
        <ele>1704.6</ele>
        <time>2012-10-06T12:55:40Z</time>
      </trkpt>
      <trkpt lat="45.71189" lon="6.18746">
        <ele>1701.2</ele>
        <time>2012-10-06T12:55:54Z</time>
      </trkpt>
      <trkpt lat="45.71182" lon="6.18742">
        <ele>1699.3</ele>
        <time>2012-10-06T12:56:03Z</time>
      </trkpt>
      <trkpt lat="45.71174" lon="6.18737">
        <ele>1697.8</ele>
        <time>2012-10-06T12:56:17Z</time>
      </trkpt>
      <trkpt lat="45.7117" lon="6.18736">
        <ele>1695.9</ele>
        <time>2012-10-06T12:56:25Z</time>
      </trkpt>
      <trkpt lat="45.71162" lon="6.18735">
        <ele>1692.5</ele>
        <time>2012-10-06T12:56:37Z</time>
      </trkpt>
      <trkpt lat="45.71158" lon="6.18734">
        <ele>1691.6</ele>
        <time>2012-10-06T12:56:50Z</time>
      </trkpt>
      <trkpt lat="45.71157" lon="6.18734">
        <ele>1689.7</ele>
        <time>2012-10-06T12:57:22Z</time>
      </trkpt>
      <trkpt lat="45.71162" lon="6.18726">
        <ele>1690.1</ele>
        <time>2012-10-06T12:57:36Z</time>
      </trkpt>
      <trkpt lat="45.71171" lon="6.18716">
        <ele>1687.3</ele>
        <time>2012-10-06T12:57:52Z</time>
      </trkpt>
      <trkpt lat="45.71171" lon="6.18712">
        <ele>1686.3</ele>
        <time>2012-10-06T12:58:02Z</time>
      </trkpt>
      <trkpt lat="45.71163" lon="6.18711">
        <ele>1683.4</ele>
        <time>2012-10-06T12:58:16Z</time>
      </trkpt>
      <trkpt lat="45.71158" lon="6.18711">
        <ele>1680</ele>
        <time>2012-10-06T12:58:28Z</time>
      </trkpt>
      <trkpt lat="45.71151" lon="6.18708">
        <ele>1678.6</ele>
        <time>2012-10-06T12:58:41Z</time>
      </trkpt>
      <trkpt lat="45.7115" lon="6.18706">
        <ele>1679.1</ele>
        <time>2012-10-06T12:58:58Z</time>
      </trkpt>
      <trkpt lat="45.71151" lon="6.187">
        <ele>1676.2</ele>
        <time>2012-10-06T12:59:13Z</time>
      </trkpt>
      <trkpt lat="45.71153" lon="6.18694">
        <ele>1675.2</ele>
        <time>2012-10-06T12:59:23Z</time>
      </trkpt>
      <trkpt lat="45.7116" lon="6.18685">
        <ele>1672.8</ele>
        <time>2012-10-06T12:59:35Z</time>
      </trkpt>
      <trkpt lat="45.71162" lon="6.18679">
        <ele>1670.9</ele>
        <time>2012-10-06T12:59:46Z</time>
      </trkpt>
      <trkpt lat="45.7116" lon="6.18678">
        <ele>1667.5</ele>
        <time>2012-10-06T12:59:56Z</time>
      </trkpt>
      <trkpt lat="45.71152" lon="6.18674">
        <ele>1666.6</ele>
        <time>2012-10-06T13:00:08Z</time>
      </trkpt>
      <trkpt lat="45.71144" lon="6.18669">
        <ele>1663.7</ele>
        <time>2012-10-06T13:00:22Z</time>
      </trkpt>
      <trkpt lat="45.71143" lon="6.18668">
        <ele>1663.7</ele>
        <time>2012-10-06T13:00:23Z</time>
      </trkpt>
      <trkpt lat="45.71137" lon="6.18664">
        <ele>1661.8</ele>
        <time>2012-10-06T13:00:35Z</time>
      </trkpt>
      <trkpt lat="45.71134" lon="6.1866">
        <ele>1658.9</ele>
        <time>2012-10-06T13:00:46Z</time>
      </trkpt>
      <trkpt lat="45.71128" lon="6.18656">
        <ele>1656.5</ele>
        <time>2012-10-06T13:00:55Z</time>
      </trkpt>
      <trkpt lat="45.71125" lon="6.18654">
        <ele>1655</ele>
        <time>2012-10-06T13:00:58Z</time>
      </trkpt>
      <trkpt lat="45.71122" lon="6.18652">
        <ele>1653.6</ele>
        <time>2012-10-06T13:01:01Z</time>
      </trkpt>
      <trkpt lat="45.71114" lon="6.18649">
        <ele>1651.7</ele>
        <time>2012-10-06T13:01:10Z</time>
      </trkpt>
      <trkpt lat="45.7111" lon="6.18648">
        <ele>1650.2</ele>
        <time>2012-10-06T13:01:15Z</time>
      </trkpt>
      <trkpt lat="45.71105" lon="6.18646">
        <ele>1649.8</ele>
        <time>2012-10-06T13:01:29Z</time>
      </trkpt>
      <trkpt lat="45.71096" lon="6.18643">
        <ele>1647.4</ele>
        <time>2012-10-06T13:02:04Z</time>
      </trkpt>
      <trkpt lat="45.71088" lon="6.18643">
        <ele>1645.9</ele>
        <time>2012-10-06T13:02:16Z</time>
      </trkpt>
      <trkpt lat="45.71086" lon="6.18642">
        <ele>1645.4</ele>
        <time>2012-10-06T13:02:19Z</time>
      </trkpt>
      <trkpt lat="45.71073" lon="6.18642">
        <ele>1642.1</ele>
        <time>2012-10-06T13:02:32Z</time>
      </trkpt>
      <trkpt lat="45.71063" lon="6.1864">
        <ele>1640.6</ele>
        <time>2012-10-06T13:02:45Z</time>
      </trkpt>
      <trkpt lat="45.71055" lon="6.18639">
        <ele>1637.3</ele>
        <time>2012-10-06T13:02:55Z</time>
      </trkpt>
      <trkpt lat="45.71046" lon="6.1864">
        <ele>1636.3</ele>
        <time>2012-10-06T13:03:04Z</time>
      </trkpt>
      <trkpt lat="45.71044" lon="6.18636">
        <ele>1636.3</ele>
        <time>2012-10-06T13:03:08Z</time>
      </trkpt>
      <trkpt lat="45.71049" lon="6.18624">
        <ele>1632.5</ele>
        <time>2012-10-06T13:03:20Z</time>
      </trkpt>
      <trkpt lat="45.71057" lon="6.1861">
        <ele>1629.6</ele>
        <time>2012-10-06T13:03:33Z</time>
      </trkpt>
      <trkpt lat="45.71065" lon="6.18598">
        <ele>1626.7</ele>
        <time>2012-10-06T13:03:46Z</time>
      </trkpt>
      <trkpt lat="45.7107" lon="6.1859">
        <ele>1623.8</ele>
        <time>2012-10-06T13:03:58Z</time>
      </trkpt>
      <trkpt lat="45.71076" lon="6.18583">
        <ele>1622.4</ele>
        <time>2012-10-06T13:04:08Z</time>
      </trkpt>
      <trkpt lat="45.71084" lon="6.18575">
        <ele>1620.4</ele>
        <time>2012-10-06T13:04:17Z</time>
      </trkpt>
      <trkpt lat="45.7109" lon="6.18568">
        <ele>1618</ele>
        <time>2012-10-06T13:04:28Z</time>
      </trkpt>
      <trkpt lat="45.71097" lon="6.18561">
        <ele>1615.2</ele>
        <time>2012-10-06T13:04:39Z</time>
      </trkpt>
      <trkpt lat="45.711" lon="6.18559">
        <ele>1614.2</ele>
        <time>2012-10-06T13:04:43Z</time>
      </trkpt>
      <trkpt lat="45.71101" lon="6.18558">
        <ele>1612.3</ele>
        <time>2012-10-06T13:04:54Z</time>
      </trkpt>
      <trkpt lat="45.71096" lon="6.18555">
        <ele>1609.4</ele>
        <time>2012-10-06T13:05:06Z</time>
      </trkpt>
      <trkpt lat="45.7109" lon="6.18553">
        <ele>1607</ele>
        <time>2012-10-06T13:05:17Z</time>
      </trkpt>
      <trkpt lat="45.71085" lon="6.18551">
        <ele>1605.5</ele>
        <time>2012-10-06T13:05:23Z</time>
      </trkpt>
      <trkpt lat="45.71078" lon="6.18548">
        <ele>1602.7</ele>
        <time>2012-10-06T13:05:35Z</time>
      </trkpt>
      <trkpt lat="45.7107" lon="6.18545">
        <ele>1600.3</ele>
        <time>2012-10-06T13:05:48Z</time>
      </trkpt>
      <trkpt lat="45.71064" lon="6.18539">
        <ele>1597.4</ele>
        <time>2012-10-06T13:06:01Z</time>
      </trkpt>
      <trkpt lat="45.71068" lon="6.18534">
        <ele>1595.9</ele>
        <time>2012-10-06T13:06:06Z</time>
      </trkpt>
      <trkpt lat="45.71079" lon="6.18526">
        <ele>1595.4</ele>
        <time>2012-10-06T13:06:19Z</time>
      </trkpt>
      <trkpt lat="45.71085" lon="6.1852">
        <ele>1592.6</ele>
        <time>2012-10-06T13:06:28Z</time>
      </trkpt>
      <trkpt lat="45.71092" lon="6.18509">
        <ele>1589.7</ele>
        <time>2012-10-06T13:06:40Z</time>
      </trkpt>
      <trkpt lat="45.71099" lon="6.18503">
        <ele>1586.3</ele>
        <time>2012-10-06T13:06:51Z</time>
      </trkpt>
      <trkpt lat="45.711" lon="6.185">
        <ele>1585.8</ele>
        <time>2012-10-06T13:06:55Z</time>
      </trkpt>
      <trkpt lat="45.71097" lon="6.18499">
        <ele>1583.9</ele>
        <time>2012-10-06T13:07:03Z</time>
      </trkpt>
      <trkpt lat="45.71094" lon="6.18497">
        <ele>1581.5</ele>
        <time>2012-10-06T13:07:11Z</time>
      </trkpt>
      <trkpt lat="45.7109" lon="6.18493">
        <ele>1581</ele>
        <time>2012-10-06T13:07:16Z</time>
      </trkpt>
      <trkpt lat="45.71084" lon="6.1849">
        <ele>1579.1</ele>
        <time>2012-10-06T13:07:25Z</time>
      </trkpt>
      <trkpt lat="45.71077" lon="6.18487">
        <ele>1576.7</ele>
        <time>2012-10-06T13:07:34Z</time>
      </trkpt>
      <trkpt lat="45.71073" lon="6.18484">
        <ele>1574.3</ele>
        <time>2012-10-06T13:07:44Z</time>
      </trkpt>
      <trkpt lat="45.71066" lon="6.18481">
        <ele>1572.9</ele>
        <time>2012-10-06T13:07:49Z</time>
      </trkpt>
      <trkpt lat="45.71057" lon="6.1848">
        <ele>1571.9</ele>
        <time>2012-10-06T13:07:59Z</time>
      </trkpt>
      <trkpt lat="45.71048" lon="6.18476">
        <ele>1568.5</ele>
        <time>2012-10-06T13:08:07Z</time>
      </trkpt>
      <trkpt lat="45.71042" lon="6.18474">
        <ele>1566.1</ele>
        <time>2012-10-06T13:08:13Z</time>
      </trkpt>
      <trkpt lat="45.71033" lon="6.1847">
        <ele>1564.7</ele>
        <time>2012-10-06T13:08:22Z</time>
      </trkpt>
      <trkpt lat="45.71028" lon="6.18468">
        <ele>1561.3</ele>
        <time>2012-10-06T13:08:32Z</time>
      </trkpt>
      <trkpt lat="45.7102" lon="6.18465">
        <ele>1559.9</ele>
        <time>2012-10-06T13:08:41Z</time>
      </trkpt>
      <trkpt lat="45.71016" lon="6.18465">
        <ele>1558.9</ele>
        <time>2012-10-06T13:08:50Z</time>
      </trkpt>
      <trkpt lat="45.71012" lon="6.1846">
        <ele>1557.5</ele>
        <time>2012-10-06T13:08:59Z</time>
      </trkpt>
      <trkpt lat="45.71014" lon="6.18448">
        <ele>1555.6</ele>
        <time>2012-10-06T13:09:09Z</time>
      </trkpt>
      <trkpt lat="45.71016" lon="6.18441">
        <ele>1554.6</ele>
        <time>2012-10-06T13:09:18Z</time>
      </trkpt>
      <trkpt lat="45.71025" lon="6.1843">
        <ele>1550.7</ele>
        <time>2012-10-06T13:09:31Z</time>
      </trkpt>
      <trkpt lat="45.71027" lon="6.18428">
        <ele>1550.7</ele>
        <time>2012-10-06T13:09:33Z</time>
      </trkpt>
      <trkpt lat="45.71037" lon="6.18417">
        <ele>1547.9</ele>
        <time>2012-10-06T13:09:46Z</time>
      </trkpt>
      <trkpt lat="45.71043" lon="6.18411">
        <ele>1545.9</ele>
        <time>2012-10-06T13:09:53Z</time>
      </trkpt>
      <trkpt lat="45.71053" lon="6.18403">
        <ele>1544</ele>
        <time>2012-10-06T13:10:03Z</time>
      </trkpt>
      <trkpt lat="45.71054" lon="6.184">
        <ele>1543.5</ele>
        <time>2012-10-06T13:10:12Z</time>
      </trkpt>
      <trkpt lat="45.71053" lon="6.18401">
        <ele>1541.1</ele>
        <time>2012-10-06T13:10:17Z</time>
      </trkpt>
      <trkpt lat="45.71052" lon="6.18399">
        <ele>1538.2</ele>
        <time>2012-10-06T13:10:30Z</time>
      </trkpt>
      <trkpt lat="45.71044" lon="6.18396">
        <ele>1535.8</ele>
        <time>2012-10-06T13:10:43Z</time>
      </trkpt>
      <trkpt lat="45.71041" lon="6.18396">
        <ele>1532.5</ele>
        <time>2012-10-06T13:10:49Z</time>
      </trkpt>
      <trkpt lat="45.71033" lon="6.1839">
        <ele>1531</ele>
        <time>2012-10-06T13:11:00Z</time>
      </trkpt>
      <trkpt lat="45.71028" lon="6.18384">
        <ele>1529.6</ele>
        <time>2012-10-06T13:11:09Z</time>
      </trkpt>
      <trkpt lat="45.71021" lon="6.18378">
        <ele>1526.7</ele>
        <time>2012-10-06T13:11:20Z</time>
      </trkpt>
      <trkpt lat="45.71021" lon="6.18378">
        <ele>1526.2</ele>
        <time>2012-10-06T13:11:21Z</time>
      </trkpt>
      <trkpt lat="45.71016" lon="6.18374">
        <ele>1524.3</ele>
        <time>2012-10-06T13:11:27Z</time>
      </trkpt>
      <trkpt lat="45.71009" lon="6.18367">
        <ele>1521.4</ele>
        <time>2012-10-06T13:11:36Z</time>
      </trkpt>
      <trkpt lat="45.71005" lon="6.18365">
        <ele>1520.5</ele>
        <time>2012-10-06T13:11:44Z</time>
      </trkpt>
      <trkpt lat="45.70997" lon="6.18361">
        <ele>1518.5</ele>
        <time>2012-10-06T13:11:54Z</time>
      </trkpt>
      <trkpt lat="45.70997" lon="6.18361">
        <ele>1518.1</ele>
        <time>2012-10-06T13:11:55Z</time>
      </trkpt>
      <trkpt lat="45.70991" lon="6.18356">
        <ele>1515.7</ele>
        <time>2012-10-06T13:12:05Z</time>
      </trkpt>
      <trkpt lat="45.70984" lon="6.18355">
        <ele>1514.7</ele>
        <time>2012-10-06T13:12:13Z</time>
      </trkpt>
      <trkpt lat="45.70972" lon="6.18354">
        <ele>1511.8</ele>
        <time>2012-10-06T13:12:24Z</time>
      </trkpt>
      <trkpt lat="45.70962" lon="6.18352">
        <ele>1508</ele>
        <time>2012-10-06T13:12:34Z</time>
      </trkpt>
      <trkpt lat="45.7095" lon="6.18352">
        <ele>1504.6</ele>
        <time>2012-10-06T13:12:48Z</time>
      </trkpt>
      <trkpt lat="45.70949" lon="6.18351">
        <ele>1504.6</ele>
        <time>2012-10-06T13:12:49Z</time>
      </trkpt>
      <trkpt lat="45.70938" lon="6.18347">
        <ele>1502.7</ele>
        <time>2012-10-06T13:13:02Z</time>
      </trkpt>
      <trkpt lat="45.70927" lon="6.1834">
        <ele>1500.8</ele>
        <time>2012-10-06T13:13:14Z</time>
      </trkpt>
      <trkpt lat="45.70922" lon="6.1833">
        <ele>1497.4</ele>
        <time>2012-10-06T13:13:29Z</time>
      </trkpt>
      <trkpt lat="45.70913" lon="6.18326">
        <ele>1495</ele>
        <time>2012-10-06T13:13:41Z</time>
      </trkpt>
      <trkpt lat="45.70911" lon="6.18326">
        <ele>1495</ele>
        <time>2012-10-06T13:13:42Z</time>
      </trkpt>
      <trkpt lat="45.70904" lon="6.18327">
        <ele>1492.6</ele>
        <time>2012-10-06T13:13:52Z</time>
      </trkpt>
      <trkpt lat="45.70892" lon="6.18321">
        <ele>1490.7</ele>
        <time>2012-10-06T13:14:03Z</time>
      </trkpt>
      <trkpt lat="45.70888" lon="6.18318">
        <ele>1489.2</ele>
        <time>2012-10-06T13:14:10Z</time>
      </trkpt>
      <trkpt lat="45.7088" lon="6.18316">
        <ele>1485.4</ele>
        <time>2012-10-06T13:14:16Z</time>
      </trkpt>
      <trkpt lat="45.70879" lon="6.18316">
        <ele>1485.4</ele>
        <time>2012-10-06T13:14:17Z</time>
      </trkpt>
      <trkpt lat="45.70873" lon="6.18312">
        <ele>1484.4</ele>
        <time>2012-10-06T13:14:25Z</time>
      </trkpt>
      <trkpt lat="45.70868" lon="6.1831">
        <ele>1484.4</ele>
        <time>2012-10-06T13:14:29Z</time>
      </trkpt>
      <trkpt lat="45.70859" lon="6.18305">
        <ele>1481</ele>
        <time>2012-10-06T13:14:38Z</time>
      </trkpt>
      <trkpt lat="45.70845" lon="6.18303">
        <ele>1479.6</ele>
        <time>2012-10-06T13:14:48Z</time>
      </trkpt>
      <trkpt lat="45.70838" lon="6.18301">
        <ele>1476.2</ele>
        <time>2012-10-06T13:14:57Z</time>
      </trkpt>
      <trkpt lat="45.70827" lon="6.18293">
        <ele>1473.4</ele>
        <time>2012-10-06T13:15:07Z</time>
      </trkpt>
      <trkpt lat="45.70822" lon="6.18291">
        <ele>1471.9</ele>
        <time>2012-10-06T13:15:12Z</time>
      </trkpt>
      <trkpt lat="45.7081" lon="6.18284">
        <ele>1471.4</ele>
        <time>2012-10-06T13:15:23Z</time>
      </trkpt>
      <trkpt lat="45.708" lon="6.18281">
        <ele>1470.5</ele>
        <time>2012-10-06T13:15:34Z</time>
      </trkpt>
      <trkpt lat="45.70792" lon="6.18282">
        <ele>1467.1</ele>
        <time>2012-10-06T13:15:44Z</time>
      </trkpt>
      <trkpt lat="45.70782" lon="6.18281">
        <ele>1466.1</ele>
        <time>2012-10-06T13:15:53Z</time>
      </trkpt>
      <trkpt lat="45.70778" lon="6.18277">
        <ele>1462.8</ele>
        <time>2012-10-06T13:16:00Z</time>
      </trkpt>
      <trkpt lat="45.70778" lon="6.18276">
        <ele>1462.8</ele>
        <time>2012-10-06T13:16:01Z</time>
      </trkpt>
      <trkpt lat="45.70781" lon="6.18266">
        <ele>1461.8</ele>
        <time>2012-10-06T13:16:10Z</time>
      </trkpt>
      <trkpt lat="45.7078" lon="6.18266">
        <ele>1460.4</ele>
        <time>2012-10-06T13:16:13Z</time>
      </trkpt>
      <trkpt lat="45.70777" lon="6.18268">
        <ele>1458</ele>
        <time>2012-10-06T13:16:24Z</time>
      </trkpt>
      <trkpt lat="45.70773" lon="6.18271">
        <ele>1456.5</ele>
        <time>2012-10-06T13:16:34Z</time>
      </trkpt>
      <trkpt lat="45.70767" lon="6.18269">
        <ele>1453.7</ele>
        <time>2012-10-06T13:16:42Z</time>
      </trkpt>
      <trkpt lat="45.70761" lon="6.18268">
        <ele>1453.2</ele>
        <time>2012-10-06T13:16:51Z</time>
      </trkpt>
      <trkpt lat="45.70756" lon="6.18263">
        <ele>1451.2</ele>
        <time>2012-10-06T13:17:08Z</time>
      </trkpt>
      <trkpt lat="45.70756" lon="6.18262">
        <ele>1450.3</ele>
        <time>2012-10-06T13:17:10Z</time>
      </trkpt>
      <trkpt lat="45.70756" lon="6.18254">
        <ele>1447.4</ele>
        <time>2012-10-06T13:17:19Z</time>
      </trkpt>
      <trkpt lat="45.70759" lon="6.18246">
        <ele>1446.4</ele>
        <time>2012-10-06T13:17:28Z</time>
      </trkpt>
      <trkpt lat="45.70762" lon="6.18237">
        <ele>1444.5</ele>
        <time>2012-10-06T13:17:37Z</time>
      </trkpt>
      <trkpt lat="45.70762" lon="6.18235">
        <ele>1444</ele>
        <time>2012-10-06T13:17:39Z</time>
      </trkpt>
      <trkpt lat="45.70765" lon="6.18225">
        <ele>1442.6</ele>
        <time>2012-10-06T13:17:48Z</time>
      </trkpt>
      <trkpt lat="45.70766" lon="6.18222">
        <ele>1440.7</ele>
        <time>2012-10-06T13:17:51Z</time>
      </trkpt>
      <trkpt lat="45.70766" lon="6.18214">
        <ele>1438.3</ele>
        <time>2012-10-06T13:17:57Z</time>
      </trkpt>
      <trkpt lat="45.70776" lon="6.18199">
        <ele>1436.3</ele>
        <time>2012-10-06T13:18:08Z</time>
      </trkpt>
      <trkpt lat="45.70779" lon="6.18193">
        <ele>1435.4</ele>
        <time>2012-10-06T13:18:13Z</time>
      </trkpt>
      <trkpt lat="45.7078" lon="6.18183">
        <ele>1434.9</ele>
        <time>2012-10-06T13:18:22Z</time>
      </trkpt>
      <trkpt lat="45.70782" lon="6.18175">
        <ele>1433</ele>
        <time>2012-10-06T13:18:33Z</time>
      </trkpt>
      <trkpt lat="45.70785" lon="6.18169">
        <ele>1431.5</ele>
        <time>2012-10-06T13:18:39Z</time>
      </trkpt>
      <trkpt lat="45.70788" lon="6.18162">
        <ele>1429.1</ele>
        <time>2012-10-06T13:18:45Z</time>
      </trkpt>
      <trkpt lat="45.70798" lon="6.18153">
        <ele>1428.7</ele>
        <time>2012-10-06T13:18:54Z</time>
      </trkpt>
      <trkpt lat="45.70799" lon="6.18145">
        <ele>1426.3</ele>
        <time>2012-10-06T13:19:06Z</time>
      </trkpt>
      <trkpt lat="45.70799" lon="6.18144">
        <ele>1425.3</ele>
        <time>2012-10-06T13:19:08Z</time>
      </trkpt>
      <trkpt lat="45.70802" lon="6.18143">
        <ele>1423.4</ele>
        <time>2012-10-06T13:19:13Z</time>
      </trkpt>
      <trkpt lat="45.70799" lon="6.18139">
        <ele>1421.4</ele>
        <time>2012-10-06T13:19:22Z</time>
      </trkpt>
      <trkpt lat="45.708" lon="6.18135">
        <ele>1421</ele>
        <time>2012-10-06T13:19:39Z</time>
      </trkpt>
      <trkpt lat="45.70799" lon="6.18146">
        <ele>1421</ele>
        <time>2012-10-06T13:20:04Z</time>
      </trkpt>
      <trkpt lat="45.70799" lon="6.18142">
        <ele>1419</ele>
        <time>2012-10-06T13:20:20Z</time>
      </trkpt>
      <trkpt lat="45.70791" lon="6.18145">
        <ele>1417.6</ele>
        <time>2012-10-06T13:20:32Z</time>
      </trkpt>
      <trkpt lat="45.70787" lon="6.18148">
        <ele>1415.7</ele>
        <time>2012-10-06T13:20:41Z</time>
      </trkpt>
      <trkpt lat="45.70777" lon="6.18146">
        <ele>1413.3</ele>
        <time>2012-10-06T13:20:52Z</time>
      </trkpt>
      <trkpt lat="45.70773" lon="6.1815">
        <ele>1412.8</ele>
        <time>2012-10-06T13:21:10Z</time>
      </trkpt>
      <trkpt lat="45.70767" lon="6.18143">
        <ele>1410.9</ele>
        <time>2012-10-06T13:21:24Z</time>
      </trkpt>
      <trkpt lat="45.70767" lon="6.18131">
        <ele>1408.5</ele>
        <time>2012-10-06T13:21:42Z</time>
      </trkpt>
      <trkpt lat="45.70779" lon="6.18122">
        <ele>1407.5</ele>
        <time>2012-10-06T13:21:49Z</time>
      </trkpt>
      <trkpt lat="45.70784" lon="6.18115">
        <ele>1408</ele>
        <time>2012-10-06T13:21:54Z</time>
      </trkpt>
      <trkpt lat="45.70792" lon="6.18101">
        <ele>1408</ele>
        <time>2012-10-06T13:22:03Z</time>
      </trkpt>
      <trkpt lat="45.70793" lon="6.18094">
        <ele>1407</ele>
        <time>2012-10-06T13:22:09Z</time>
      </trkpt>
      <trkpt lat="45.70791" lon="6.18088">
        <ele>1405.6</ele>
        <time>2012-10-06T13:22:15Z</time>
      </trkpt>
      <trkpt lat="45.70792" lon="6.1808">
        <ele>1404.1</ele>
        <time>2012-10-06T13:22:24Z</time>
      </trkpt>
      <trkpt lat="45.70793" lon="6.18074">
        <ele>1404.1</ele>
        <time>2012-10-06T13:22:28Z</time>
      </trkpt>
      <trkpt lat="45.70793" lon="6.18062">
        <ele>1402.2</ele>
        <time>2012-10-06T13:22:36Z</time>
      </trkpt>
      <trkpt lat="45.70802" lon="6.18046">
        <ele>1402.2</ele>
        <time>2012-10-06T13:22:46Z</time>
      </trkpt>
      <trkpt lat="45.70808" lon="6.18033">
        <ele>1399.3</ele>
        <time>2012-10-06T13:22:55Z</time>
      </trkpt>
      <trkpt lat="45.70811" lon="6.18024">
        <ele>1398.4</ele>
        <time>2012-10-06T13:23:03Z</time>
      </trkpt>
      <trkpt lat="45.7081" lon="6.18012">
        <ele>1395</ele>
        <time>2012-10-06T13:23:16Z</time>
      </trkpt>
      <trkpt lat="45.70809" lon="6.18011">
        <ele>1393.6</ele>
        <time>2012-10-06T13:23:20Z</time>
      </trkpt>
      <trkpt lat="45.70809" lon="6.1801">
        <ele>1393.6</ele>
        <time>2012-10-06T13:23:21Z</time>
      </trkpt>
      <trkpt lat="45.70804" lon="6.18003">
        <ele>1392.1</ele>
        <time>2012-10-06T13:23:32Z</time>
      </trkpt>
      <trkpt lat="45.70804" lon="6.17995">
        <ele>1389.7</ele>
        <time>2012-10-06T13:23:42Z</time>
      </trkpt>
      <trkpt lat="45.70798" lon="6.1798">
        <ele>1386.8</ele>
        <time>2012-10-06T13:23:55Z</time>
      </trkpt>
      <trkpt lat="45.70797" lon="6.17975">
        <ele>1384.9</ele>
        <time>2012-10-06T13:24:00Z</time>
      </trkpt>
      <trkpt lat="45.70794" lon="6.17971">
        <ele>1383</ele>
        <time>2012-10-06T13:24:05Z</time>
      </trkpt>
      <trkpt lat="45.70787" lon="6.1796">
        <ele>1380.1</ele>
        <time>2012-10-06T13:24:16Z</time>
      </trkpt>
      <trkpt lat="45.70782" lon="6.17947">
        <ele>1376.3</ele>
        <time>2012-10-06T13:24:27Z</time>
      </trkpt>
      <trkpt lat="45.70777" lon="6.17939">
        <ele>1372.9</ele>
        <time>2012-10-06T13:24:37Z</time>
      </trkpt>
      <trkpt lat="45.70774" lon="6.17924">
        <ele>1371</ele>
        <time>2012-10-06T13:24:51Z</time>
      </trkpt>
      <trkpt lat="45.70769" lon="6.17916">
        <ele>1368.6</ele>
        <time>2012-10-06T13:25:02Z</time>
      </trkpt>
      <trkpt lat="45.70762" lon="6.17908">
        <ele>1365.2</ele>
        <time>2012-10-06T13:25:12Z</time>
      </trkpt>
      <trkpt lat="45.70756" lon="6.17893">
        <ele>1362.8</ele>
        <time>2012-10-06T13:25:23Z</time>
      </trkpt>
      <trkpt lat="45.70754" lon="6.17881">
        <ele>1359.9</ele>
        <time>2012-10-06T13:25:31Z</time>
      </trkpt>
      <trkpt lat="45.70751" lon="6.17874">
        <ele>1358.5</ele>
        <time>2012-10-06T13:25:37Z</time>
      </trkpt>
      <trkpt lat="45.70746" lon="6.17858">
        <ele>1356.1</ele>
        <time>2012-10-06T13:25:50Z</time>
      </trkpt>
      <trkpt lat="45.7074" lon="6.17841">
        <ele>1352.7</ele>
        <time>2012-10-06T13:26:03Z</time>
      </trkpt>
      <trkpt lat="45.70737" lon="6.17829">
        <ele>1350.8</ele>
        <time>2012-10-06T13:26:15Z</time>
      </trkpt>
      <trkpt lat="45.70736" lon="6.17825">
        <ele>1349.8</ele>
        <time>2012-10-06T13:26:17Z</time>
      </trkpt>
      <trkpt lat="45.70729" lon="6.1781">
        <ele>1346.5</ele>
        <time>2012-10-06T13:26:29Z</time>
      </trkpt>
      <trkpt lat="45.70726" lon="6.17797">
        <ele>1344.5</ele>
        <time>2012-10-06T13:26:36Z</time>
      </trkpt>
      <trkpt lat="45.70719" lon="6.17779">
        <ele>1343.1</ele>
        <time>2012-10-06T13:26:51Z</time>
      </trkpt>
      <trkpt lat="45.70718" lon="6.17775">
        <ele>1342.1</ele>
        <time>2012-10-06T13:26:54Z</time>
      </trkpt>
      <trkpt lat="45.70717" lon="6.17767">
        <ele>1340.2</ele>
        <time>2012-10-06T13:26:59Z</time>
      </trkpt>
      <trkpt lat="45.7071" lon="6.17752">
        <ele>1337.3</ele>
        <time>2012-10-06T13:27:10Z</time>
      </trkpt>
      <trkpt lat="45.70705" lon="6.17736">
        <ele>1335.4</ele>
        <time>2012-10-06T13:27:22Z</time>
      </trkpt>
      <trkpt lat="45.70698" lon="6.17711">
        <ele>1333</ele>
        <time>2012-10-06T13:27:38Z</time>
      </trkpt>
      <trkpt lat="45.70692" lon="6.17684">
        <ele>1330.1</ele>
        <time>2012-10-06T13:27:54Z</time>
      </trkpt>
      <trkpt lat="45.70685" lon="6.17665">
        <ele>1327.7</ele>
        <time>2012-10-06T13:28:07Z</time>
      </trkpt>
      <trkpt lat="45.70675" lon="6.1765">
        <ele>1324.4</ele>
        <time>2012-10-06T13:28:22Z</time>
      </trkpt>
      <trkpt lat="45.70669" lon="6.17636">
        <ele>1321.9</ele>
        <time>2012-10-06T13:28:34Z</time>
      </trkpt>
      <trkpt lat="45.70664" lon="6.17618">
        <ele>1319.1</ele>
        <time>2012-10-06T13:28:46Z</time>
      </trkpt>
      <trkpt lat="45.70661" lon="6.17607">
        <ele>1317.1</ele>
        <time>2012-10-06T13:28:56Z</time>
      </trkpt>
      <trkpt lat="45.7066" lon="6.17604">
        <ele>1316.2</ele>
        <time>2012-10-06T13:28:58Z</time>
      </trkpt>
      <trkpt lat="45.70656" lon="6.17585">
        <ele>1314.3</ele>
        <time>2012-10-06T13:29:11Z</time>
      </trkpt>
      <trkpt lat="45.70654" lon="6.17573">
        <ele>1311.4</ele>
        <time>2012-10-06T13:29:19Z</time>
      </trkpt>
      <trkpt lat="45.70652" lon="6.17553">
        <ele>1309</ele>
        <time>2012-10-06T13:29:33Z</time>
      </trkpt>
      <trkpt lat="45.70653" lon="6.17542">
        <ele>1306.1</ele>
        <time>2012-10-06T13:29:42Z</time>
      </trkpt>
      <trkpt lat="45.70648" lon="6.17529">
        <ele>1303.7</ele>
        <time>2012-10-06T13:29:55Z</time>
      </trkpt>
      <trkpt lat="45.70646" lon="6.17518">
        <ele>1301.8</ele>
        <time>2012-10-06T13:30:04Z</time>
      </trkpt>
      <trkpt lat="45.70649" lon="6.17508">
        <ele>1300.8</ele>
        <time>2012-10-06T13:30:11Z</time>
      </trkpt>
      <trkpt lat="45.70651" lon="6.17504">
        <ele>1299.8</ele>
        <time>2012-10-06T13:30:14Z</time>
      </trkpt>
      <trkpt lat="45.70653" lon="6.17495">
        <ele>1296.5</ele>
        <time>2012-10-06T13:30:22Z</time>
      </trkpt>
      <trkpt lat="45.70653" lon="6.17481">
        <ele>1293.1</ele>
        <time>2012-10-06T13:30:33Z</time>
      </trkpt>
      <trkpt lat="45.70653" lon="6.1748">
        <ele>1292.6</ele>
        <time>2012-10-06T13:30:34Z</time>
      </trkpt>
      <trkpt lat="45.70655" lon="6.17459">
        <ele>1290.2</ele>
        <time>2012-10-06T13:30:48Z</time>
      </trkpt>
      <trkpt lat="45.70655" lon="6.17456">
        <ele>1289.3</ele>
        <time>2012-10-06T13:30:51Z</time>
      </trkpt>
      <trkpt lat="45.70658" lon="6.17437">
        <ele>1285.9</ele>
        <time>2012-10-06T13:31:04Z</time>
      </trkpt>
      <trkpt lat="45.70653" lon="6.17429">
        <ele>1284</ele>
        <time>2012-10-06T13:31:14Z</time>
      </trkpt>
      <trkpt lat="45.70651" lon="6.17421">
        <ele>1282.5</ele>
        <time>2012-10-06T13:31:25Z</time>
      </trkpt>
      <trkpt lat="45.70651" lon="6.17414">
        <ele>1280.1</ele>
        <time>2012-10-06T13:31:36Z</time>
      </trkpt>
      <trkpt lat="45.7065" lon="6.1741">
        <ele>1277.7</ele>
        <time>2012-10-06T13:31:49Z</time>
      </trkpt>
      <trkpt lat="45.7065" lon="6.17407">
        <ele>1275.3</ele>
        <time>2012-10-06T13:31:59Z</time>
      </trkpt>
      <trkpt lat="45.70649" lon="6.174">
        <ele>1273.9</ele>
        <time>2012-10-06T13:32:11Z</time>
      </trkpt>
      <trkpt lat="45.70649" lon="6.17394">
        <ele>1272.9</ele>
        <time>2012-10-06T13:32:19Z</time>
      </trkpt>
      <trkpt lat="45.70643" lon="6.17385">
        <ele>1271.5</ele>
        <time>2012-10-06T13:32:31Z</time>
      </trkpt>
      <trkpt lat="45.70645" lon="6.17373">
        <ele>1269.1</ele>
        <time>2012-10-06T13:32:42Z</time>
      </trkpt>
      <trkpt lat="45.70645" lon="6.17362">
        <ele>1266.7</ele>
        <time>2012-10-06T13:32:50Z</time>
      </trkpt>
      <trkpt lat="45.70644" lon="6.17348">
        <ele>1263.3</ele>
        <time>2012-10-06T13:33:03Z</time>
      </trkpt>
      <trkpt lat="45.70644" lon="6.17334">
        <ele>1260.9</ele>
        <time>2012-10-06T13:33:15Z</time>
      </trkpt>
      <trkpt lat="45.70644" lon="6.17331">
        <ele>1260.4</ele>
        <time>2012-10-06T13:33:17Z</time>
      </trkpt>
      <trkpt lat="45.70641" lon="6.17314">
        <ele>1256.6</ele>
        <time>2012-10-06T13:33:29Z</time>
      </trkpt>
      <trkpt lat="45.70638" lon="6.17309">
        <ele>1254.7</ele>
        <time>2012-10-06T13:33:34Z</time>
      </trkpt>
      <trkpt lat="45.7063" lon="6.17301">
        <ele>1251.8</ele>
        <time>2012-10-06T13:33:44Z</time>
      </trkpt>
      <trkpt lat="45.70618" lon="6.17286">
        <ele>1249.9</ele>
        <time>2012-10-06T13:33:58Z</time>
      </trkpt>
      <trkpt lat="45.70609" lon="6.1727">
        <ele>1248.4</ele>
        <time>2012-10-06T13:34:12Z</time>
      </trkpt>
      <trkpt lat="45.70603" lon="6.17265">
        <ele>1247</ele>
        <time>2012-10-06T13:34:23Z</time>
      </trkpt>
      <trkpt lat="45.70593" lon="6.17258">
        <ele>1244.1</ele>
        <time>2012-10-06T13:34:36Z</time>
      </trkpt>
      <trkpt lat="45.7059" lon="6.17256">
        <ele>1242.6</ele>
        <time>2012-10-06T13:34:39Z</time>
      </trkpt>
      <trkpt lat="45.70585" lon="6.17252">
        <ele>1241.2</ele>
        <time>2012-10-06T13:34:45Z</time>
      </trkpt>
      <trkpt lat="45.70578" lon="6.1724">
        <ele>1238.8</ele>
        <time>2012-10-06T13:34:58Z</time>
      </trkpt>
      <trkpt lat="45.70573" lon="6.17232">
        <ele>1238.3</ele>
        <time>2012-10-06T13:35:08Z</time>
      </trkpt>
      <trkpt lat="45.70568" lon="6.17215">
        <ele>1235.4</ele>
        <time>2012-10-06T13:35:20Z</time>
      </trkpt>
      <trkpt lat="45.70568" lon="6.17213">
        <ele>1235.4</ele>
        <time>2012-10-06T13:35:30Z</time>
      </trkpt>
      <trkpt lat="45.70568" lon="6.17214">
        <ele>1229.7</ele>
        <time>2012-10-06T13:35:39Z</time>
      </trkpt>
    </trkseg>
  </trk>
</gpx>